Illinois River (Oklahoma), Tahlequah (07196500)

StateOklahomaLatestGood (641 cfs)
RiverIllinois RiverRatingObservedEstimated
Updated2020-08-06 11:30 (23 minutes ago)Flood - The river is flooding. Obstacles can be treacherous or deadly. The river should be avoided at this stage for casual trips and definitely for the inexperienced. Trips should be attempted only with protective gear and equipment.Flood(none)3296
Discharge641 cfs (median: 256 cfs)High - The river is high and potentially dangerous, especially for the young and / or inexperienced. Normal stream obstacles are sometimes difficult to navigate. Extended distances can be attempted, but canoe travel may not be advisable.High(none)1679
Height5.32 feetGood - Conditions are ideal for a canoe or kayak. Boats typically will drag on fewer than one-quarter of riffles, if at all, and portages are unnecessary or rare. Normal float lengths can be attempted without a problem.Good300901
TrendSteady (falling over 24 hours)Low - River is low but can still be floated. Some riffles are okay but most come with significant dragging and might need a portage. Float lengths should be reduced to accommodate low flow, dragging, and portages.Low(none)587
USGSExternal icon USGS Site (External icon Google Maps)Poor - River is too low to float comfortably. Most or all riffles will drag or must be portaged and some obstacles (such as slick shelf rock) cause undue problems. Avoid the river at this stage for casual paddling trips.Poor(none)229

Trending Data

Plot Image

Trips for Illinois River (Oklahoma), Tahlequah (07196500)

DateStartEndDistanceConditionDischargeHeightFishingDetails

A total of 0 rows are displayed.

Condition Descriptions

Fishing Conditions

Fish Species

Notes

Classic Trip List

The classic River Trips application is still available for use. It is updated with the new system using a data retrofit. It is no longer maintained. The original River Trips application is no longer updated (as of 1 Dec 2016) but can be checked for errors or for the condition of the data before it was converted to the new system.

Gauge Data Table

ObservationHeightDischargeMaximum
Discharge
Minimum
Discharge
Mean
Discharge
P05P10P20P25P50
(Median)
P75P80P90P95
2020-08-06 11:30 5.32 641 3450 (1992) 12 (1936) 361 52 86 124 148 256 374 430 602 1210
2020-08-06 10:30 5.32 641 3450 (1992) 12 (1936) 361 52 86 124 148 256 374 430 602 1210
2020-08-06 09:30 5.33 647 3450 (1992) 12 (1936) 361 52 86 124 148 256 374 430 602 1210
2020-08-06 08:30 5.33 647 3450 (1992) 12 (1936) 361 52 86 124 148 256 374 430 602 1210
2020-08-06 07:30 5.34 653 3450 (1992) 12 (1936) 361 52 86 124 148 256 374 430 602 1210
2020-08-06 06:30 5.34 653 3450 (1992) 12 (1936) 361 52 86 124 148 256 374 430 602 1210
2020-08-06 05:30 5.35 659 3450 (1992) 12 (1936) 361 52 86 124 148 256 374 430 602 1210
2020-08-06 04:30 5.34 653 3450 (1992) 12 (1936) 361 52 86 124 148 256 374 430 602 1210
2020-08-06 03:30 5.35 659 3450 (1992) 12 (1936) 361 52 86 124 148 256 374 430 602 1210
2020-08-06 02:30 5.35 659 3450 (1992) 12 (1936) 361 52 86 124 148 256 374 430 602 1210
2020-08-06 01:30 5.35 659 3450 (1992) 12 (1936) 361 52 86 124 148 256 374 430 602 1210
2020-08-06 00:30 5.35 659 3450 (1992) 12 (1936) 361 52 86 124 148 256 374 430 602 1210
2020-08-05 23:30 5.35 659 2750 (1992) 12 (1936) 359 55 88 128 139 237 351 381 637 1590
2020-08-05 22:30 5.35 659 2750 (1992) 12 (1936) 359 55 88 128 139 237 351 381 637 1590
2020-08-05 21:30 5.35 659 2750 (1992) 12 (1936) 359 55 88 128 139 237 351 381 637 1590
2020-08-05 20:30 5.35 659 2750 (1992) 12 (1936) 359 55 88 128 139 237 351 381 637 1590
2020-08-05 19:30 5.35 659 2750 (1992) 12 (1936) 359 55 88 128 139 237 351 381 637 1590
2020-08-05 18:30 5.35 659 2750 (1992) 12 (1936) 359 55 88 128 139 237 351 381 637 1590
2020-08-05 17:30 5.35 659 2750 (1992) 12 (1936) 359 55 88 128 139 237 351 381 637 1590
2020-08-05 16:30 5.36 664 2750 (1992) 12 (1936) 359 55 88 128 139 237 351 381 637 1590
2020-08-05 15:30 5.36 664 2750 (1992) 12 (1936) 359 55 88 128 139 237 351 381 637 1590
2020-08-05 14:30 5.36 664 2750 (1992) 12 (1936) 359 55 88 128 139 237 351 381 637 1590
2020-08-05 13:30 5.37 670 2750 (1992) 12 (1936) 359 55 88 128 139 237 351 381 637 1590
2020-08-05 12:30 5.37 670 2750 (1992) 12 (1936) 359 55 88 128 139 237 351 381 637 1590
2020-08-05 11:30 5.37 670 2750 (1992) 12 (1936) 359 55 88 128 139 237 351 381 637 1590
2020-08-05 10:30 5.38 676 2750 (1992) 12 (1936) 359 55 88 128 139 237 351 381 637 1590
2020-08-05 09:30 5.38 676 2750 (1992) 12 (1936) 359 55 88 128 139 237 351 381 637 1590
2020-08-05 08:30 5.38 676 2750 (1992) 12 (1936) 359 55 88 128 139 237 351 381 637 1590
2020-08-05 07:30 5.39 682 2750 (1992) 12 (1936) 359 55 88 128 139 237 351 381 637 1590
2020-08-05 06:30 5.39 682 2750 (1992) 12 (1936) 359 55 88 128 139 237 351 381 637 1590
2020-08-05 05:30 5.39 682 2750 (1992) 12 (1936) 359 55 88 128 139 237 351 381 637 1590
2020-08-05 04:30 5.39 682 2750 (1992) 12 (1936) 359 55 88 128 139 237 351 381 637 1590
2020-08-05 03:30 5.39 682 2750 (1992) 12 (1936) 359 55 88 128 139 237 351 381 637 1590
2020-08-05 02:30 5.40 688 2750 (1992) 12 (1936) 359 55 88 128 139 237 351 381 637 1590
2020-08-05 01:30 5.40 688 2750 (1992) 12 (1936) 359 55 88 128 139 237 351 381 637 1590
2020-08-04 23:30 5.40 688 2260 (1958) 14 (1936) 346 57 89 132 144 233 370 409 666 1180
2020-08-04 22:30 5.40 688 2260 (1958) 14 (1936) 346 57 89 132 144 233 370 409 666 1180
2020-08-04 21:30 5.41 694 2260 (1958) 14 (1936) 346 57 89 132 144 233 370 409 666 1180
2020-08-04 20:30 5.41 694 2260 (1958) 14 (1936) 346 57 89 132 144 233 370 409 666 1180
2020-08-04 19:30 5.41 694 2260 (1958) 14 (1936) 346 57 89 132 144 233 370 409 666 1180
2020-08-04 18:30 5.39 682 2260 (1958) 14 (1936) 346 57 89 132 144 233 370 409 666 1180
2020-08-04 17:30 5.40 688 2260 (1958) 14 (1936) 346 57 89 132 144 233 370 409 666 1180
2020-08-04 16:30 5.42 700 2260 (1958) 14 (1936) 346 57 89 132 144 233 370 409 666 1180
2020-08-04 15:30 5.38 676 2260 (1958) 14 (1936) 346 57 89 132 144 233 370 409 666 1180
2020-08-04 14:30 5.43 706 2260 (1958) 14 (1936) 346 57 89 132 144 233 370 409 666 1180
2020-08-04 13:30 5.44 712 2260 (1958) 14 (1936) 346 57 89 132 144 233 370 409 666 1180
2020-08-04 12:30 5.44 712 2260 (1958) 14 (1936) 346 57 89 132 144 233 370 409 666 1180
2020-08-04 11:30 5.45 718 2260 (1958) 14 (1936) 346 57 89 132 144 233 370 409 666 1180
2020-08-04 10:30 5.46 724 2260 (1958) 14 (1936) 346 57 89 132 144 233 370 409 666 1180
2020-08-04 09:30 5.45 718 2260 (1958) 14 (1936) 346 57 89 132 144 233 370 409 666 1180
2020-08-04 08:30 5.46 724 2260 (1958) 14 (1936) 346 57 89 132 144 233 370 409 666 1180
2020-08-04 07:30 5.47 730 2260 (1958) 14 (1936) 346 57 89 132 144 233 370 409 666 1180
2020-08-04 06:30 5.48 737 2260 (1958) 14 (1936) 346 57 89 132 144 233 370 409 666 1180
2020-08-04 05:30 5.48 737 2260 (1958) 14 (1936) 346 57 89 132 144 233 370 409 666 1180
2020-08-04 04:30 5.49 743 2260 (1958) 14 (1936) 346 57 89 132 144 233 370 409 666 1180
2020-08-04 03:30 5.49 743 2260 (1958) 14 (1936) 346 57 89 132 144 233 370 409 666 1180
2020-08-04 02:30 5.49 743 2260 (1958) 14 (1936) 346 57 89 132 144 233 370 409 666 1180
2020-08-04 01:30 5.49 743 2260 (1958) 14 (1936) 346 57 89 132 144 233 370 409 666 1180
2020-08-04 00:30 5.50 749 2260 (1958) 14 (1936) 346 57 89 132 144 233 370 409 666 1180
2020-08-03 23:30 5.50 749 4010 (1962) 14 (1936) 402 57 89 132 146 247 393 436 647 1430
2020-08-03 22:30 5.50 749 4010 (1962) 14 (1936) 402 57 89 132 146 247 393 436 647 1430
2020-08-03 21:30 5.51 756 4010 (1962) 14 (1936) 402 57 89 132 146 247 393 436 647 1430
2020-08-03 20:30 5.51 756 4010 (1962) 14 (1936) 402 57 89 132 146 247 393 436 647 1430
2020-08-03 19:30 5.52 762 4010 (1962) 14 (1936) 402 57 89 132 146 247 393 436 647 1430
2020-08-03 18:30 5.52 762 4010 (1962) 14 (1936) 402 57 89 132 146 247 393 436 647 1430
2020-08-03 17:30 5.53 768 4010 (1962) 14 (1936) 402 57 89 132 146 247 393 436 647 1430
2020-08-03 16:30 5.53 768 4010 (1962) 14 (1936) 402 57 89 132 146 247 393 436 647 1430
2020-08-03 15:30 5.53 768 4010 (1962) 14 (1936) 402 57 89 132 146 247 393 436 647 1430
2020-08-03 14:30 5.54 775 4010 (1962) 14 (1936) 402 57 89 132 146 247 393 436 647 1430
2020-08-03 13:30 5.55 781 4010 (1962) 14 (1936) 402 57 89 132 146 247 393 436 647 1430
2020-08-03 12:30 5.56 788 4010 (1962) 14 (1936) 402 57 89 132 146 247 393 436 647 1430
2020-08-03 11:30 5.56 788 4010 (1962) 14 (1936) 402 57 89 132 146 247 393 436 647 1430
2020-08-03 10:30 5.58 801 4010 (1962) 14 (1936) 402 57 89 132 146 247 393 436 647 1430
2020-08-03 09:30 5.58 801 4010 (1962) 14 (1936) 402 57 89 132 146 247 393 436 647 1430
2020-08-03 08:30 5.59 807 4010 (1962) 14 (1936) 402 57 89 132 146 247 393 436 647 1430
2020-08-03 07:30 5.60 814 4010 (1962) 14 (1936) 402 57 89 132 146 247 393 436 647 1430
2020-08-03 06:30 5.61 821 4010 (1962) 14 (1936) 402 57 89 132 146 247 393 436 647 1430
2020-08-03 05:30 5.61 821 4010 (1962) 14 (1936) 402 57 89 132 146 247 393 436 647 1430
2020-08-03 04:30 5.62 827 4010 (1962) 14 (1936) 402 57 89 132 146 247 393 436 647 1430
2020-08-03 03:30 5.62 827 4010 (1962) 14 (1936) 402 57 89 132 146 247 393 436 647 1430
2020-08-03 02:30 5.63 834 4010 (1962) 14 (1936) 402 57 89 132 146 247 393 436 647 1430
2020-08-03 00:30 5.64 841 4010 (1962) 14 (1936) 402 57 89 132 146 247 393 436 647 1430
2020-08-02 23:30 5.64 841 5700 (1962) 14 (1936) 438 60 93 133 150 259 393 485 771 1830
2020-08-02 22:30 5.65 848 5700 (1962) 14 (1936) 438 60 93 133 150 259 393 485 771 1830
2020-08-02 21:30 5.64 841 5700 (1962) 14 (1936) 438 60 93 133 150 259 393 485 771 1830
2020-08-02 20:30 5.65 848 5700 (1962) 14 (1936) 438 60 93 133 150 259 393 485 771 1830
2020-08-02 19:30 5.66 855 5700 (1962) 14 (1936) 438 60 93 133 150 259 393 485 771 1830
2020-08-02 18:30 5.65 848 5700 (1962) 14 (1936) 438 60 93 133 150 259 393 485 771 1830
2020-08-02 17:30 5.68 868 5700 (1962) 14 (1936) 438 60 93 133 150 259 393 485 771 1830
2020-08-02 16:30 5.68 868 5700 (1962) 14 (1936) 438 60 93 133 150 259 393 485 771 1830
2020-08-02 15:30 5.68 868 5700 (1962) 14 (1936) 438 60 93 133 150 259 393 485 771 1830
2020-08-02 14:30 5.69 875 5700 (1962) 14 (1936) 438 60 93 133 150 259 393 485 771 1830
2020-08-02 13:30 5.70 882 5700 (1962) 14 (1936) 438 60 93 133 150 259 393 485 771 1830
2020-08-02 12:30 5.70 882 5700 (1962) 14 (1936) 438 60 93 133 150 259 393 485 771 1830
2020-08-02 11:30 5.71 889 5700 (1962) 14 (1936) 438 60 93 133 150 259 393 485 771 1830
2020-08-02 10:30 5.71 889 5700 (1962) 14 (1936) 438 60 93 133 150 259 393 485 771 1830
2020-08-02 09:30 5.72 896 5700 (1962) 14 (1936) 438 60 93 133 150 259 393 485 771 1830
2020-08-02 08:30 5.73 903 5700 (1962) 14 (1936) 438 60 93 133 150 259 393 485 771 1830
2020-08-02 07:30 5.74 911 5700 (1962) 14 (1936) 438 60 93 133 150 259 393 485 771 1830
2020-08-02 06:30 5.74 911 5700 (1962) 14 (1936) 438 60 93 133 150 259 393 485 771 1830
2020-08-02 05:30 5.74 911 5700 (1962) 14 (1936) 438 60 93 133 150 259 393 485 771 1830
2020-08-02 03:30 5.75 918 5700 (1962) 14 (1936) 438 60 93 133 150 259 393 485 771 1830
2020-08-02 02:30 5.74 911 5700 (1962) 14 (1936) 438 60 93 133 150 259 393 485 771 1830
2020-08-02 01:30 5.75 918 5700 (1962) 14 (1936) 438 60 93 133 150 259 393 485 771 1830
2020-08-02 00:30 5.75 918 5700 (1962) 14 (1936) 438 60 93 133 150 259 393 485 771 1830
2020-08-01 23:30 5.75 918 2580 (2004) 17 (1936) 400 63 99 135 150 268 441 471 812 1450
2020-08-01 22:30 5.75 918 2580 (2004) 17 (1936) 400 63 99 135 150 268 441 471 812 1450
2020-08-01 21:30 5.75 918 2580 (2004) 17 (1936) 400 63 99 135 150 268 441 471 812 1450
2020-08-01 20:30 5.76 925 2580 (2004) 17 (1936) 400 63 99 135 150 268 441 471 812 1450
2020-08-01 19:30 5.77 932 2580 (2004) 17 (1936) 400 63 99 135 150 268 441 471 812 1450
2020-08-01 18:30 5.77 932 2580 (2004) 17 (1936) 400 63 99 135 150 268 441 471 812 1450
2020-08-01 17:30 5.79 947 2580 (2004) 17 (1936) 400 63 99 135 150 268 441 471 812 1450
2020-08-01 16:30 5.79 947 2580 (2004) 17 (1936) 400 63 99 135 150 268 441 471 812 1450
2020-08-01 15:30 5.80 954 2580 (2004) 17 (1936) 400 63 99 135 150 268 441 471 812 1450
2020-08-01 14:30 5.80 954 2580 (2004) 17 (1936) 400 63 99 135 150 268 441 471 812 1450
2020-08-01 13:30 5.82 969 2580 (2004) 17 (1936) 400 63 99 135 150 268 441 471 812 1450
2020-08-01 12:30 5.83 976 2580 (2004) 17 (1936) 400 63 99 135 150 268 441 471 812 1450
2020-08-01 11:30 5.84 984 2580 (2004) 17 (1936) 400 63 99 135 150 268 441 471 812 1450
2020-08-01 10:30 5.84 984 2580 (2004) 17 (1936) 400 63 99 135 150 268 441 471 812 1450
2020-08-01 09:30 5.85 991 2580 (2004) 17 (1936) 400 63 99 135 150 268 441 471 812 1450
2020-08-01 08:30 5.87 1010 2580 (2004) 17 (1936) 400 63 99 135 150 268 441 471 812 1450
2020-08-01 07:30 5.91 1040 2580 (2004) 17 (1936) 400 63 99 135 150 268 441 471 812 1450
2020-08-01 06:30 5.90 1030 2580 (2004) 17 (1936) 400 63 99 135 150 268 441 471 812 1450
2020-08-01 05:30 5.89 1020 2580 (2004) 17 (1936) 400 63 99 135 150 268 441 471 812 1450
2020-08-01 04:30 5.89 1020 2580 (2004) 17 (1936) 400 63 99 135 150 268 441 471 812 1450
2020-08-01 03:30 5.88 1010 2580 (2004) 17 (1936) 400 63 99 135 150 268 441 471 812 1450
2020-08-01 01:30 5.84 984 2580 (2004) 17 (1936) 400 63 99 135 150 268 441 471 812 1450
2020-08-01 00:30 5.80 954 2580 (2004) 17 (1936) 400 63 99 135 150 268 441 471 812 1450
2020-07-31 23:30 5.76 925 3200 (2004) 15 (1936) 409 66 105 128 146 257 449 501 856 1300
2020-07-31 22:30 5.73 903 3200 (2004) 15 (1936) 409 66 105 128 146 257 449 501 856 1300
2020-07-31 21:30 5.71 889 3200 (2004) 15 (1936) 409 66 105 128 146 257 449 501 856 1300
2020-07-31 20:30 5.69 875 3200 (2004) 15 (1936) 409 66 105 128 146 257 449 501 856 1300
2020-07-31 19:30 5.67 861 3200 (2004) 15 (1936) 409 66 105 128 146 257 449 501 856 1300
2020-07-31 18:30 5.67 861 3200 (2004) 15 (1936) 409 66 105 128 146 257 449 501 856 1300
2020-07-31 17:30 5.67 861 3200 (2004) 15 (1936) 409 66 105 128 146 257 449 501 856 1300
2020-07-31 16:30 5.65 848 3200 (2004) 15 (1936) 409 66 105 128 146 257 449 501 856 1300
2020-07-31 15:30 5.65 848 3200 (2004) 15 (1936) 409 66 105 128 146 257 449 501 856 1300
2020-07-31 14:30 5.65 848 3200 (2004) 15 (1936) 409 66 105 128 146 257 449 501 856 1300
2020-07-31 13:30 5.65 848 3200 (2004) 15 (1936) 409 66 105 128 146 257 449 501 856 1300
2020-07-31 12:30 5.64 841 3200 (2004) 15 (1936) 409 66 105 128 146 257 449 501 856 1300
2020-07-31 11:30 5.62 827 3200 (2004) 15 (1936) 409 66 105 128 146 257 449 501 856 1300
2020-07-31 10:30 5.63 834 3200 (2004) 15 (1936) 409 66 105 128 146 257 449 501 856 1300
2020-07-31 09:30 5.64 841 3200 (2004) 15 (1936) 409 66 105 128 146 257 449 501 856 1300
2020-07-31 08:30 5.60 814 3200 (2004) 15 (1936) 409 66 105 128 146 257 449 501 856 1300
2020-07-31 07:30 5.62 827 3200 (2004) 15 (1936) 409 66 105 128 146 257 449 501 856 1300
2020-07-31 06:30 5.63 834 3200 (2004) 15 (1936) 409 66 105 128 146 257 449 501 856 1300
2020-07-31 05:30 5.62 827 3200 (2004) 15 (1936) 409 66 105 128 146 257 449 501 856 1300
2020-07-31 04:30 5.60 814 3200 (2004) 15 (1936) 409 66 105 128 146 257 449 501 856 1300
2020-07-31 03:30 5.58 801 3200 (2004) 15 (1936) 409 66 105 128 146 257 449 501 856 1300
2020-07-31 02:30 5.58 801 3200 (2004) 15 (1936) 409 66 105 128 146 257 449 501 856 1300
2020-07-31 01:30 5.57 794 3200 (2004) 15 (1936) 409 66 105 128 146 257 449 501 856 1300
2020-07-31 00:30 5.56 788 3200 (2004) 15 (1936) 409 66 105 128 146 257 449 501 856 1300
2020-07-30 23:30 5.57 794 3500 (1958) 15 (1954) 407 69 106 133 146 248 424 479 861 1510
2020-07-30 22:30 5.56 788 3500 (1958) 15 (1954) 407 69 106 133 146 248 424 479 861 1510
2020-07-30 21:30 5.56 788 3500 (1958) 15 (1954) 407 69 106 133 146 248 424 479 861 1510
2020-07-30 20:30 5.56 788 3500 (1958) 15 (1954) 407 69 106 133 146 248 424 479 861 1510
2020-07-30 19:30 5.57 794 3500 (1958) 15 (1954) 407 69 106 133 146 248 424 479 861 1510
2020-07-30 18:30 5.57 794 3500 (1958) 15 (1954) 407 69 106 133 146 248 424 479 861 1510
2020-07-30 17:30 5.57 794 3500 (1958) 15 (1954) 407 69 106 133 146 248 424 479 861 1510
2020-07-30 16:30 5.58 801 3500 (1958) 15 (1954) 407 69 106 133 146 248 424 479 861 1510
2020-07-30 15:30 5.60 814 3500 (1958) 15 (1954) 407 69 106 133 146 248 424 479 861 1510
2020-07-30 14:30 5.60 814 3500 (1958) 15 (1954) 407 69 106 133 146 248 424 479 861 1510
2020-07-30 13:30 5.59 807 3500 (1958) 15 (1954) 407 69 106 133 146 248 424 479 861 1510
2020-07-30 12:30 5.60 814 3500 (1958) 15 (1954) 407 69 106 133 146 248 424 479 861 1510
2020-07-30 11:30 5.61 821 3500 (1958) 15 (1954) 407 69 106 133 146 248 424 479 861 1510
2020-07-30 10:30 5.60 814 3500 (1958) 15 (1954) 407 69 106 133 146 248 424 479 861 1510
2020-07-30 09:30 5.61 821 3500 (1958) 15 (1954) 407 69 106 133 146 248 424 479 861 1510
2020-07-30 08:30 5.60 814 3500 (1958) 15 (1954) 407 69 106 133 146 248 424 479 861 1510
2020-07-30 07:30 5.59 807 3500 (1958) 15 (1954) 407 69 106 133 146 248 424 479 861 1510
2020-07-30 06:30 5.59 807 3500 (1958) 15 (1954) 407 69 106 133 146 248 424 479 861 1510
2020-07-30 05:30 5.58 801 3500 (1958) 15 (1954) 407 69 106 133 146 248 424 479 861 1510
2020-07-30 04:30 5.57 794 3500 (1958) 15 (1954) 407 69 106 133 146 248 424 479 861 1510
2020-07-30 03:30 5.56 788 3500 (1958) 15 (1954) 407 69 106 133 146 248 424 479 861 1510
2020-07-30 02:30 5.53 768 3500 (1958) 15 (1954) 407 69 106 133 146 248 424 479 861 1510
2020-07-30 01:30 5.53 768 3500 (1958) 15 (1954) 407 69 106 133 146 248 424 479 861 1510
2020-07-29 23:30 5.54 775 3490 (1958) 10 (1954) 417 70 111 142 153 243 448 531 1000 1250
2020-07-29 22:30 5.54 775 3490 (1958) 10 (1954) 417 70 111 142 153 243 448 531 1000 1250
2020-07-29 21:30 5.54 775 3490 (1958) 10 (1954) 417 70 111 142 153 243 448 531 1000 1250
2020-07-29 20:30 5.53 768 3490 (1958) 10 (1954) 417 70 111 142 153 243 448 531 1000 1250
2020-07-29 19:30 5.52 762 3490 (1958) 10 (1954) 417 70 111 142 153 243 448 531 1000 1250
2020-07-29 18:30 5.51 756 3490 (1958) 10 (1954) 417 70 111 142 153 243 448 531 1000 1250
2020-07-29 17:30 5.49 743 3490 (1958) 10 (1954) 417 70 111 142 153 243 448 531 1000 1250
2020-07-29 16:30 5.48 737 3490 (1958) 10 (1954) 417 70 111 142 153 243 448 531 1000 1250
2020-07-29 15:30 5.46 724 3490 (1958) 10 (1954) 417 70 111 142 153 243 448 531 1000 1250
2020-07-29 14:30 5.44 712 3490 (1958) 10 (1954) 417 70 111 142 153 243 448 531 1000 1250
2020-07-29 13:30 5.41 694 3490 (1958) 10 (1954) 417 70 111 142 153 243 448 531 1000 1250
2020-07-29 12:30 5.38 676 3490 (1958) 10 (1954) 417 70 111 142 153 243 448 531 1000 1250
2020-07-29 11:30 5.35 659 3490 (1958) 10 (1954) 417 70 111 142 153 243 448 531 1000 1250
2020-07-29 10:30 5.33 647 3490 (1958) 10 (1954) 417 70 111 142 153 243 448 531 1000 1250
2020-07-29 09:30 5.33 647 3490 (1958) 10 (1954) 417 70 111 142 153 243 448 531 1000 1250
2020-07-29 08:30 5.32 641 3490 (1958) 10 (1954) 417 70 111 142 153 243 448 531 1000 1250
2020-07-29 07:30 5.32 641 3490 (1958) 10 (1954) 417 70 111 142 153 243 448 531 1000 1250
2020-07-29 06:30 5.32 641 3490 (1958) 10 (1954) 417 70 111 142 153 243 448 531 1000 1250
2020-07-29 05:30 5.31 636 3490 (1958) 10 (1954) 417 70 111 142 153 243 448 531 1000 1250
2020-07-29 04:30 5.29 624 3490 (1958) 10 (1954) 417 70 111 142 153 243 448 531 1000 1250
2020-07-29 03:30 5.31 636 3490 (1958) 10 (1954) 417 70 111 142 153 243 448 531 1000 1250
2020-07-29 02:30 5.31 636 3490 (1958) 10 (1954) 417 70 111 142 153 243 448 531 1000 1250
2020-07-29 01:30 5.31 636 3490 (1958) 10 (1954) 417 70 111 142 153 243 448 531 1000 1250
2020-07-29 00:30 5.31 636 3490 (1958) 10 (1954) 417 70 111 142 153 243 448 531 1000 1250
2020-07-28 23:30 5.31 636 2810 (1960) 9 (1954) 408 69 110 148 160 235 461 547 1110 1310
2020-07-28 22:30 5.31 636 2810 (1960) 9 (1954) 408 69 110 148 160 235 461 547 1110 1310
2020-07-28 21:30 5.31 636 2810 (1960) 9 (1954) 408 69 110 148 160 235 461 547 1110 1310
2020-07-28 20:30 5.31 636 2810 (1960) 9 (1954) 408 69 110 148 160 235 461 547 1110 1310
2020-07-28 19:30 5.30 630 2810 (1960) 9 (1954) 408 69 110 148 160 235 461 547 1110 1310
2020-07-28 18:30 5.31 636 2810 (1960) 9 (1954) 408 69 110 148 160 235 461 547 1110 1310
2020-07-28 17:30 5.30 630 2810 (1960) 9 (1954) 408 69 110 148 160 235 461 547 1110 1310
2020-07-28 16:30 5.31 636 2810 (1960) 9 (1954) 408 69 110 148 160 235 461 547 1110 1310
2020-07-28 15:30 5.31 636 2810 (1960) 9 (1954) 408 69 110 148 160 235 461 547 1110 1310
2020-07-28 14:30 5.31 636 2810 (1960) 9 (1954) 408 69 110 148 160 235 461 547 1110 1310
2020-07-28 13:30 5.31 636 2810 (1960) 9 (1954) 408 69 110 148 160 235 461 547 1110 1310
2020-07-28 12:30 5.32 641 2810 (1960) 9 (1954) 408 69 110 148 160 235 461 547 1110 1310
2020-07-28 11:30 5.32 641 2810 (1960) 9 (1954) 408 69 110 148 160 235 461 547 1110 1310
2020-07-28 10:30 5.32 641 2810 (1960) 9 (1954) 408 69 110 148 160 235 461 547 1110 1310
2020-07-28 09:30 5.33 647 2810 (1960) 9 (1954) 408 69 110 148 160 235 461 547 1110 1310
2020-07-28 08:30 5.34 653 2810 (1960) 9 (1954) 408 69 110 148 160 235 461 547 1110 1310
2020-07-28 07:30 5.34 653 2810 (1960) 9 (1954) 408 69 110 148 160 235 461 547 1110 1310
2020-07-28 06:30 5.35 659 2810 (1960) 9 (1954) 408 69 110 148 160 235 461 547 1110 1310
2020-07-28 05:30 5.34 653 2810 (1960) 9 (1954) 408 69 110 148 160 235 461 547 1110 1310
2020-07-28 03:30 5.37 670 2810 (1960) 9 (1954) 408 69 110 148 160 235 461 547 1110 1310
2020-07-28 02:30 5.37 670 2810 (1960) 9 (1954) 408 69 110 148 160 235 461 547 1110 1310
2020-07-28 01:30 5.38 676 2810 (1960) 9 (1954) 408 69 110 148 160 235 461 547 1110 1310
2020-07-28 00:30 5.37 670 2810 (1960) 9 (1954) 408 69 110 148 160 235 461 547 1110 1310
2020-07-27 23:30 5.38 676 12400 (1960) 9 (1954) 525 65 106 146 152 240 470 526 809 1610
2020-07-27 22:30 5.39 682 12400 (1960) 9 (1954) 525 65 106 146 152 240 470 526 809 1610
2020-07-27 21:30 5.37 670 12400 (1960) 9 (1954) 525 65 106 146 152 240 470 526 809 1610
2020-07-27 20:30 5.35 659 12400 (1960) 9 (1954) 525 65 106 146 152 240 470 526 809 1610
2020-07-27 19:30 5.34 653 12400 (1960) 9 (1954) 525 65 106 146 152 240 470 526 809 1610
2020-07-27 18:30 5.35 659 12400 (1960) 9 (1954) 525 65 106 146 152 240 470 526 809 1610
2020-07-27 17:30 5.34 653 12400 (1960) 9 (1954) 525 65 106 146 152 240 470 526 809 1610
2020-07-27 16:30 5.33 647 12400 (1960) 9 (1954) 525 65 106 146 152 240 470 526 809 1610
2020-07-27 15:30 5.34 653 12400 (1960) 9 (1954) 525 65 106 146 152 240 470 526 809 1610
2020-07-27 14:30 5.35 659 12400 (1960) 9 (1954) 525 65 106 146 152 240 470 526 809 1610
2020-07-27 13:30 5.35 659 12400 (1960) 9 (1954) 525 65 106 146 152 240 470 526 809 1610
2020-07-27 12:30 5.35 659 12400 (1960) 9 (1954) 525 65 106 146 152 240 470 526 809 1610
2020-07-27 11:30 5.36 664 12400 (1960) 9 (1954) 525 65 106 146 152 240 470 526 809 1610
2020-07-27 10:30 5.36 664 12400 (1960) 9 (1954) 525 65 106 146 152 240 470 526 809 1610
2020-07-27 09:30 5.36 664 12400 (1960) 9 (1954) 525 65 106 146 152 240 470 526 809 1610
2020-07-27 08:30 5.37 670 12400 (1960) 9 (1954) 525 65 106 146 152 240 470 526 809 1610
2020-07-27 07:30 5.37 670 12400 (1960) 9 (1954) 525 65 106 146 152 240 470 526 809 1610
2020-07-27 06:30 5.38 676 12400 (1960) 9 (1954) 525 65 106 146 152 240 470 526 809 1610
2020-07-27 05:30 5.38 676 12400 (1960) 9 (1954) 525 65 106 146 152 240 470 526 809 1610
2020-07-27 04:30 5.38 676 12400 (1960) 9 (1954) 525 65 106 146 152 240 470 526 809 1610
2020-07-27 03:30 5.38 676 12400 (1960) 9 (1954) 525 65 106 146 152 240 470 526 809 1610
2020-07-27 02:30 5.39 682 12400 (1960) 9 (1954) 525 65 106 146 152 240 470 526 809 1610
2020-07-27 01:30 5.38 676 12400 (1960) 9 (1954) 525 65 106 146 152 240 470 526 809 1610
2020-07-27 00:30 5.39 682 12400 (1960) 9 (1954) 525 65 106 146 152 240 470 526 809 1610
2020-07-26 23:30 5.39 682 23200 (1960) 10 (1954) 663 61 109 150 153 248 404 462 843 1950
2020-07-26 22:30 5.39 682 23200 (1960) 10 (1954) 663 61 109 150 153 248 404 462 843 1950
2020-07-26 21:30 5.39 682 23200 (1960) 10 (1954) 663 61 109 150 153 248 404 462 843 1950
2020-07-26 20:30 5.40 688 23200 (1960) 10 (1954) 663 61 109 150 153 248 404 462 843 1950
2020-07-26 19:30 5.41 694 23200 (1960) 10 (1954) 663 61 109 150 153 248 404 462 843 1950
2020-07-26 18:30 5.41 694 23200 (1960) 10 (1954) 663 61 109 150 153 248 404 462 843 1950
2020-07-26 17:30 5.42 700 23200 (1960) 10 (1954) 663 61 109 150 153 248 404 462 843 1950
2020-07-26 16:30 5.42 700 23200 (1960) 10 (1954) 663 61 109 150 153 248 404 462 843 1950
2020-07-26 15:30 5.41 694 23200 (1960) 10 (1954) 663 61 109 150 153 248 404 462 843 1950
2020-07-26 14:30 5.42 700 23200 (1960) 10 (1954) 663 61 109 150 153 248 404 462 843 1950
2020-07-26 13:30 5.43 706 23200 (1960) 10 (1954) 663 61 109 150 153 248 404 462 843 1950
2020-07-26 12:30 5.43 706 23200 (1960) 10 (1954) 663 61 109 150 153 248 404 462 843 1950
2020-07-26 11:30 5.44 712 23200 (1960) 10 (1954) 663 61 109 150 153 248 404 462 843 1950
2020-07-26 10:30 5.45 718 23200 (1960) 10 (1954) 663 61 109 150 153 248 404 462 843 1950
2020-07-26 09:30 5.45 718 23200 (1960) 10 (1954) 663 61 109 150 153 248 404 462 843 1950
2020-07-26 08:30 5.45 718 23200 (1960) 10 (1954) 663 61 109 150 153 248 404 462 843 1950
2020-07-26 07:30 5.46 724 23200 (1960) 10 (1954) 663 61 109 150 153 248 404 462 843 1950
2020-07-26 06:30 5.45 718 23200 (1960) 10 (1954) 663 61 109 150 153 248 404 462 843 1950
2020-07-26 05:30 5.46 724 23200 (1960) 10 (1954) 663 61 109 150 153 248 404 462 843 1950
2020-07-26 04:30 5.47 730 23200 (1960) 10 (1954) 663 61 109 150 153 248 404 462 843 1950
2020-07-26 03:30 5.47 730 23200 (1960) 10 (1954) 663 61 109 150 153 248 404 462 843 1950
2020-07-26 02:30 5.48 737 23200 (1960) 10 (1954) 663 61 109 150 153 248 404 462 843 1950
2020-07-26 01:30 5.47 730 23200 (1960) 10 (1954) 663 61 109 150 153 248 404 462 843 1950
2020-07-26 00:30 5.46 724 23200 (1960) 10 (1954) 663 61 109 150 153 248 404 462 843 1950
2020-07-25 23:30 5.48 737 3420 (1959) 10 (1954) 431 60 98 142 157 247 410 479 696 2390
2020-07-25 22:30 5.47 730 3420 (1959) 10 (1954) 431 60 98 142 157 247 410 479 696 2390
2020-07-25 21:30 5.48 737 3420 (1959) 10 (1954) 431 60 98 142 157 247 410 479 696 2390
2020-07-25 20:30 5.49 743 3420 (1959) 10 (1954) 431 60 98 142 157 247 410 479 696 2390
2020-07-25 19:30 5.50 749 3420 (1959) 10 (1954) 431 60 98 142 157 247 410 479 696 2390
2020-07-25 18:30 5.51 756 3420 (1959) 10 (1954) 431 60 98 142 157 247 410 479 696 2390
2020-07-25 17:30 5.52 762 3420 (1959) 10 (1954) 431 60 98 142 157 247 410 479 696 2390
2020-07-25 16:30 5.53 768 3420 (1959) 10 (1954) 431 60 98 142 157 247 410 479 696 2390
2020-07-25 15:30 5.54 775 3420 (1959) 10 (1954) 431 60 98 142 157 247 410 479 696 2390
2020-07-25 14:30 5.54 775 3420 (1959) 10 (1954) 431 60 98 142 157 247 410 479 696 2390
2020-07-25 13:30 5.55 781 3420 (1959) 10 (1954) 431 60 98 142 157 247 410 479 696 2390
2020-07-25 12:30 5.56 788 3420 (1959) 10 (1954) 431 60 98 142 157 247 410 479 696 2390
2020-07-25 11:30 5.57 794 3420 (1959) 10 (1954) 431 60 98 142 157 247 410 479 696 2390
2020-07-25 10:30 5.58 801 3420 (1959) 10 (1954) 431 60 98 142 157 247 410 479 696 2390
2020-07-25 09:30 5.59 807 3420 (1959) 10 (1954) 431 60 98 142 157 247 410 479 696 2390
2020-07-25 08:30 5.59 807 3420 (1959) 10 (1954) 431 60 98 142 157 247 410 479 696 2390
2020-07-25 07:30 5.60 814 3420 (1959) 10 (1954) 431 60 98 142 157 247 410 479 696 2390
2020-07-25 06:30 5.60 814 3420 (1959) 10 (1954) 431 60 98 142 157 247 410 479 696 2390
2020-07-25 05:30 5.62 827 3420 (1959) 10 (1954) 431 60 98 142 157 247 410 479 696 2390
2020-07-25 04:30 5.62 827 3420 (1959) 10 (1954) 431 60 98 142 157 247 410 479 696 2390
2020-07-25 03:30 5.64 841 3420 (1959) 10 (1954) 431 60 98 142 157 247 410 479 696 2390
2020-07-25 02:30 5.66 855 3420 (1959) 10 (1954) 431 60 98 142 157 247 410 479 696 2390
2020-07-25 01:30 5.67 861 3420 (1959) 10 (1954) 431 60 98 142 157 247 410 479 696 2390
2020-07-24 23:30 5.69 875 8900 (1959) 11 (1954) 542 62 99 137 159 248 460 529 776 2800
2020-07-24 22:30 5.71 889 8900 (1959) 11 (1954) 542 62 99 137 159 248 460 529 776 2800
2020-07-24 21:30 5.71 889 8900 (1959) 11 (1954) 542 62 99 137 159 248 460 529 776 2800
2020-07-24 20:30 5.72 896 8900 (1959) 11 (1954) 542 62 99 137 159 248 460 529 776 2800
2020-07-24 19:30 5.74 911 8900 (1959) 11 (1954) 542 62 99 137 159 248 460 529 776 2800
2020-07-24 18:30 5.76 925 8900 (1959) 11 (1954) 542 62 99 137 159 248 460 529 776 2800
2020-07-24 17:30 5.77 932 8900 (1959) 11 (1954) 542 62 99 137 159 248 460 529 776 2800
2020-07-24 16:30 5.78 939 8900 (1959) 11 (1954) 542 62 99 137 159 248 460 529 776 2800
2020-07-24 15:30 5.80 954 8900 (1959) 11 (1954) 542 62 99 137 159 248 460 529 776 2800
2020-07-24 14:30 5.83 976 8900 (1959) 11 (1954) 542 62 99 137 159 248 460 529 776 2800
2020-07-24 13:30 5.84 984 8900 (1959) 11 (1954) 542 62 99 137 159 248 460 529 776 2800
2020-07-24 12:30 5.85 991 8900 (1959) 11 (1954) 542 62 99 137 159 248 460 529 776 2800
2020-07-24 11:30 5.88 1010 8900 (1959) 11 (1954) 542 62 99 137 159 248 460 529 776 2800
2020-07-24 10:30 5.89 1020 8900 (1959) 11 (1954) 542 62 99 137 159 248 460 529 776 2800
2020-07-24 09:30 5.91 1040 8900 (1959) 11 (1954) 542 62 99 137 159 248 460 529 776 2800
2020-07-24 08:30 5.93 1050 8900 (1959) 11 (1954) 542 62 99 137 159 248 460 529 776 2800
2020-07-24 07:30 5.97 1080 8900 (1959) 11 (1954) 542 62 99 137 159 248 460 529 776 2800
2020-07-24 06:30 6.00 1110 8900 (1959) 11 (1954) 542 62 99 137 159 248 460 529 776 2800
2020-07-24 05:30 6.02 1130 8900 (1959) 11 (1954) 542 62 99 137 159 248 460 529 776 2800
2020-07-24 04:30 6.05 1150 8900 (1959) 11 (1954) 542 62 99 137 159 248 460 529 776 2800
2020-07-24 03:30 6.09 1180 8900 (1959) 11 (1954) 542 62 99 137 159 248 460 529 776 2800
2020-07-24 02:30 6.13 1220 8900 (1959) 11 (1954) 542 62 99 137 159 248 460 529 776 2800
2020-07-24 01:30 6.16 1240 8900 (1959) 11 (1954) 542 62 99 137 159 248 460 529 776 2800
2020-07-24 00:30 6.20 1280 8900 (1959) 11 (1954) 542 62 99 137 159 248 460 529 776 2800
2020-07-23 23:30 6.21 1290 5140 (1950) 12 (1954) 463 65 92 143 162 250 449 516 673 1520
2020-07-23 22:30 6.25 1320 5140 (1950) 12 (1954) 463 65 92 143 162 250 449 516 673 1520
2020-07-23 21:30 6.30 1370 5140 (1950) 12 (1954) 463 65 92 143 162 250 449 516 673 1520
2020-07-23 20:30 6.33 1400 5140 (1950) 12 (1954) 463 65 92 143 162 250 449 516 673 1520
2020-07-23 19:30 6.35 1420 5140 (1950) 12 (1954) 463 65 92 143 162 250 449 516 673 1520
2020-07-23 18:30 6.38 1450 5140 (1950) 12 (1954) 463 65 92 143 162 250 449 516 673 1520
2020-07-23 17:30 6.40 1470 5140 (1950) 12 (1954) 463 65 92 143 162 250 449 516 673 1520
2020-07-23 16:30 6.40 1470 5140 (1950) 12 (1954) 463 65 92 143 162 250 449 516 673 1520
2020-07-23 15:30 6.35 1420 5140 (1950) 12 (1954) 463 65 92 143 162 250 449 516 673 1520
2020-07-23 14:30 6.25 1320 5140 (1950) 12 (1954) 463 65 92 143 162 250 449 516 673 1520
2020-07-23 13:30 6.06 1160 5140 (1950) 12 (1954) 463 65 92 143 162 250 449 516 673 1520
2020-07-23 12:30 5.72 896 5140 (1950) 12 (1954) 463 65 92 143 162 250 449 516 673 1520
2020-07-23 11:30 5.41 694 5140 (1950) 12 (1954) 463 65 92 143 162 250 449 516 673 1520
2020-07-23 10:30 5.32 641 5140 (1950) 12 (1954) 463 65 92 143 162 250 449 516 673 1520
2020-07-23 09:30 5.31 636 5140 (1950) 12 (1954) 463 65 92 143 162 250 449 516 673 1520
2020-07-23 08:30 5.31 636 5140 (1950) 12 (1954) 463 65 92 143 162 250 449 516 673 1520
2020-07-23 07:30 5.32 641 5140 (1950) 12 (1954) 463 65 92 143 162 250 449 516 673 1520
2020-07-23 06:30 5.31 636 5140 (1950) 12 (1954) 463 65 92 143 162 250 449 516 673 1520
2020-07-23 05:30 5.30 630 5140 (1950) 12 (1954) 463 65 92 143 162 250 449 516 673 1520
2020-07-23 04:30 5.29 624 5140 (1950) 12 (1954) 463 65 92 143 162 250 449 516 673 1520
2020-07-23 03:30 5.28 619 5140 (1950) 12 (1954) 463 65 92 143 162 250 449 516 673 1520
2020-07-23 02:30 5.28 619 5140 (1950) 12 (1954) 463 65 92 143 162 250 449 516 673 1520
2020-07-23 01:30 5.28 619 5140 (1950) 12 (1954) 463 65 92 143 162 250 449 516 673 1520
2020-07-23 00:30 5.28 619 5140 (1950) 12 (1954) 463 65 92 143 162 250 449 516 673 1520
2020-07-22 23:30 5.28 619 3520 (2015) 13 (1954) 402 65 95 142 162 257 446 494 714 1370
2020-07-22 22:30 5.28 619 3520 (2015) 13 (1954) 402 65 95 142 162 257 446 494 714 1370
2020-07-22 21:30 5.29 624 3520 (2015) 13 (1954) 402 65 95 142 162 257 446 494 714 1370
2020-07-22 20:30 5.29 624 3520 (2015) 13 (1954) 402 65 95 142 162 257 446 494 714 1370
2020-07-22 19:30 5.29 624 3520 (2015) 13 (1954) 402 65 95 142 162 257 446 494 714 1370
2020-07-22 18:30 5.29 624 3520 (2015) 13 (1954) 402 65 95 142 162 257 446 494 714 1370
2020-07-22 17:30 5.31 636 3520 (2015) 13 (1954) 402 65 95 142 162 257 446 494 714 1370
2020-07-22 16:30 5.31 636 3520 (2015) 13 (1954) 402 65 95 142 162 257 446 494 714 1370
2020-07-22 15:30 5.32 641 3520 (2015) 13 (1954) 402 65 95 142 162 257 446 494 714 1370
2020-07-22 14:30 5.32 641 3520 (2015) 13 (1954) 402 65 95 142 162 257 446 494 714 1370
2020-07-22 13:30 5.32 641 3520 (2015) 13 (1954) 402 65 95 142 162 257 446 494 714 1370
2020-07-22 12:30 5.32 641 3520 (2015) 13 (1954) 402 65 95 142 162 257 446 494 714 1370
2020-07-22 11:30 5.31 636 3520 (2015) 13 (1954) 402 65 95 142 162 257 446 494 714 1370
2020-07-22 10:30 5.31 636 3520 (2015) 13 (1954) 402 65 95 142 162 257 446 494 714 1370
2020-07-22 09:30 5.30 630 3520 (2015) 13 (1954) 402 65 95 142 162 257 446 494 714 1370
2020-07-22 08:30 5.31 636 3520 (2015) 13 (1954) 402 65 95 142 162 257 446 494 714 1370
2020-07-22 07:30 5.31 636 3520 (2015) 13 (1954) 402 65 95 142 162 257 446 494 714 1370
2020-07-22 06:30 5.30 630 3520 (2015) 13 (1954) 402 65 95 142 162 257 446 494 714 1370
2020-07-22 05:30 5.28 619 3520 (2015) 13 (1954) 402 65 95 142 162 257 446 494 714 1370
2020-07-22 04:30 5.28 619 3520 (2015) 13 (1954) 402 65 95 142 162 257 446 494 714 1370
2020-07-22 03:30 5.27 613 3520 (2015) 13 (1954) 402 65 95 142 162 257 446 494 714 1370
2020-07-22 02:30 5.28 619 3520 (2015) 13 (1954) 402 65 95 142 162 257 446 494 714 1370
2020-07-22 01:30 5.27 613 3520 (2015) 13 (1954) 402 65 95 142 162 257 446 494 714 1370
2020-07-22 00:30 5.27 613 3520 (2015) 13 (1954) 402 65 95 142 162 257 446 494 714 1370
2020-07-21 23:30 5.27 613 2800 (1950) 13 (1954) 396 67 106 136 172 267 451 516 832 1390
2020-07-21 22:30 5.27 613 2800 (1950) 13 (1954) 396 67 106 136 172 267 451 516 832 1390
2020-07-21 21:30 5.27 613 2800 (1950) 13 (1954) 396 67 106 136 172 267 451 516 832 1390
2020-07-21 20:30 5.27 613 2800 (1950) 13 (1954) 396 67 106 136 172 267 451 516 832 1390
2020-07-21 19:30 5.27 613 2800 (1950) 13 (1954) 396 67 106 136 172 267 451 516 832 1390
2020-07-21 18:30 5.28 619 2800 (1950) 13 (1954) 396 67 106 136 172 267 451 516 832 1390
2020-07-21 17:30 5.28 619 2800 (1950) 13 (1954) 396 67 106 136 172 267 451 516 832 1390
2020-07-21 16:30 5.28 619 2800 (1950) 13 (1954) 396 67 106 136 172 267 451 516 832 1390
2020-07-21 15:30 5.28 619 2800 (1950) 13 (1954) 396 67 106 136 172 267 451 516 832 1390
2020-07-21 14:30 5.28 619 2800 (1950) 13 (1954) 396 67 106 136 172 267 451 516 832 1390
2020-07-21 13:30 5.28 619 2800 (1950) 13 (1954) 396 67 106 136 172 267 451 516 832 1390
2020-07-21 12:30 5.29 624 2800 (1950) 13 (1954) 396 67 106 136 172 267 451 516 832 1390
2020-07-21 11:30 5.29 624 2800 (1950) 13 (1954) 396 67 106 136 172 267 451 516 832 1390
2020-07-21 10:30 5.29 624 2800 (1950) 13 (1954) 396 67 106 136 172 267 451 516 832 1390
2020-07-21 09:30 5.30 630 2800 (1950) 13 (1954) 396 67 106 136 172 267 451 516 832 1390
2020-07-21 08:30 5.30 630 2800 (1950) 13 (1954) 396 67 106 136 172 267 451 516 832 1390
2020-07-21 07:30 5.30 630 2800 (1950) 13 (1954) 396 67 106 136 172 267 451 516 832 1390
2020-07-21 06:30 5.30 630 2800 (1950) 13 (1954) 396 67 106 136 172 267 451 516 832 1390
2020-07-21 05:30 5.30 630 2800 (1950) 13 (1954) 396 67 106 136 172 267 451 516 832 1390
2020-07-21 04:30 5.31 636 2800 (1950) 13 (1954) 396 67 106 136 172 267 451 516 832 1390
2020-07-21 03:30 5.30 630 2800 (1950) 13 (1954) 396 67 106 136 172 267 451 516 832 1390
2020-07-21 02:30 5.30 630 2800 (1950) 13 (1954) 396 67 106 136 172 267 451 516 832 1390
2020-07-21 01:30 5.30 630 2800 (1950) 13 (1954) 396 67 106 136 172 267 451 516 832 1390
2020-07-21 00:30 5.31 636 2800 (1950) 13 (1954) 396 67 106 136 172 267 451 516 832 1390
2020-07-20 23:30 5.30 630 3140 (1950) 14 (1954) 410 68 106 140 173 277 483 527 889 1380
2020-07-20 22:30 5.31 636 3140 (1950) 14 (1954) 410 68 106 140 173 277 483 527 889 1380
2020-07-20 21:30 5.30 630 3140 (1950) 14 (1954) 410 68 106 140 173 277 483 527 889 1380
2020-07-20 20:30 5.30 630 3140 (1950) 14 (1954) 410 68 106 140 173 277 483 527 889 1380
2020-07-20 19:30 5.31 636 3140 (1950) 14 (1954) 410 68 106 140 173 277 483 527 889 1380
2020-07-20 18:30 5.31 636 3140 (1950) 14 (1954) 410 68 106 140 173 277 483 527 889 1380
2020-07-20 17:30 5.31 636 3140 (1950) 14 (1954) 410 68 106 140 173 277 483 527 889 1380
2020-07-20 16:30 5.31 636 3140 (1950) 14 (1954) 410 68 106 140 173 277 483 527 889 1380
2020-07-20 15:30 5.31 636 3140 (1950) 14 (1954) 410 68 106 140 173 277 483 527 889 1380
2020-07-20 14:30 5.32 641 3140 (1950) 14 (1954) 410 68 106 140 173 277 483 527 889 1380
2020-07-20 13:30 5.32 641 3140 (1950) 14 (1954) 410 68 106 140 173 277 483 527 889 1380
2020-07-20 12:30 5.33 647 3140 (1950) 14 (1954) 410 68 106 140 173 277 483 527 889 1380
2020-07-20 11:30 5.33 647 3140 (1950) 14 (1954) 410 68 106 140 173 277 483 527 889 1380
2020-07-20 10:30 5.34 653 3140 (1950) 14 (1954) 410 68 106 140 173 277 483 527 889 1380
2020-07-20 09:30 5.33 647 3140 (1950) 14 (1954) 410 68 106 140 173 277 483 527 889 1380
2020-07-20 08:30 5.34 653 3140 (1950) 14 (1954) 410 68 106 140 173 277 483 527 889 1380
2020-07-20 07:30 5.34 653 3140 (1950) 14 (1954) 410 68 106 140 173 277 483 527 889 1380
2020-07-20 06:30 5.34 653 3140 (1950) 14 (1954) 410 68 106 140 173 277 483 527 889 1380
2020-07-20 05:30 5.34 653 3140 (1950) 14 (1954) 410 68 106 140 173 277 483 527 889 1380
2020-07-20 04:30 5.34 653 3140 (1950) 14 (1954) 410 68 106 140 173 277 483 527 889 1380
2020-07-20 03:30 5.34 653 3140 (1950) 14 (1954) 410 68 106 140 173 277 483 527 889 1380
2020-07-20 02:30 5.34 653 3140 (1950) 14 (1954) 410 68 106 140 173 277 483 527 889 1380
2020-07-20 01:30 5.34 653 3140 (1950) 14 (1954) 410 68 106 140 173 277 483 527 889 1380
2020-07-20 00:30 5.34 653 3140 (1950) 14 (1954) 410 68 106 140 173 277 483 527 889 1380
2020-07-19 23:30 5.34 653 2530 (1961) 16 (1954) 407 70 102 148 176 280 494 575 851 1350
2020-07-19 22:30 5.34 653 2530 (1961) 16 (1954) 407 70 102 148 176 280 494 575 851 1350
2020-07-19 21:30 5.34 653 2530 (1961) 16 (1954) 407 70 102 148 176 280 494 575 851 1350
2020-07-19 20:30 5.34 653 2530 (1961) 16 (1954) 407 70 102 148 176 280 494 575 851 1350
2020-07-19 19:30 5.34 653 2530 (1961) 16 (1954) 407 70 102 148 176 280 494 575 851 1350
2020-07-19 18:30 5.35 659 2530 (1961) 16 (1954) 407 70 102 148 176 280 494 575 851 1350
2020-07-19 17:30 5.35 659 2530 (1961) 16 (1954) 407 70 102 148 176 280 494 575 851 1350
2020-07-19 16:30 5.35 659 2530 (1961) 16 (1954) 407 70 102 148 176 280 494 575 851 1350
2020-07-19 15:30 5.36 664 2530 (1961) 16 (1954) 407 70 102 148 176 280 494 575 851 1350
2020-07-19 14:30 5.36 664 2530 (1961) 16 (1954) 407 70 102 148 176 280 494 575 851 1350
2020-07-19 13:30 5.36 664 2530 (1961) 16 (1954) 407 70 102 148 176 280 494 575 851 1350
2020-07-19 12:30 5.36 664 2530 (1961) 16 (1954) 407 70 102 148 176 280 494 575 851 1350
2020-07-19 11:30 5.37 670 2530 (1961) 16 (1954) 407 70 102 148 176 280 494 575 851 1350
2020-07-19 10:30 5.37 670 2530 (1961) 16 (1954) 407 70 102 148 176 280 494 575 851 1350
2020-07-19 09:30 5.37 670 2530 (1961) 16 (1954) 407 70 102 148 176 280 494 575 851 1350
2020-07-19 08:30 5.37 670 2530 (1961) 16 (1954) 407 70 102 148 176 280 494 575 851 1350
2020-07-19 07:30 5.37 670 2530 (1961) 16 (1954) 407 70 102 148 176 280 494 575 851 1350
2020-07-19 06:30 5.37 670 2530 (1961) 16 (1954) 407 70 102 148 176 280 494 575 851 1350
2020-07-19 05:30 5.38 676 2530 (1961) 16 (1954) 407 70 102 148 176 280 494 575 851 1350
2020-07-19 04:30 5.38 676 2530 (1961) 16 (1954) 407 70 102 148 176 280 494 575 851 1350
2020-07-19 03:30 5.38 676 2530 (1961) 16 (1954) 407 70 102 148 176 280 494 575 851 1350
2020-07-19 02:30 5.38 676 2530 (1961) 16 (1954) 407 70 102 148 176 280 494 575 851 1350
2020-07-19 01:30 5.37 670 2530 (1961) 16 (1954) 407 70 102 148 176 280 494 575 851 1350
2020-07-19 00:30 5.37 670 2530 (1961) 16 (1954) 407 70 102 148 176 280 494 575 851 1350
2020-07-18 23:30 5.37 670 4070 (1961) 17 (1954) 464 73 107 148 176 283 485 555 890 1650
2020-07-18 22:30 5.37 670 4070 (1961) 17 (1954) 464 73 107 148 176 283 485 555 890 1650
2020-07-18 21:30 5.37 670 4070 (1961) 17 (1954) 464 73 107 148 176 283 485 555 890 1650
2020-07-18 20:30 5.37 670 4070 (1961) 17 (1954) 464 73 107 148 176 283 485 555 890 1650
2020-07-18 19:30 5.38 676 4070 (1961) 17 (1954) 464 73 107 148 176 283 485 555 890 1650
2020-07-18 18:30 5.37 670 4070 (1961) 17 (1954) 464 73 107 148 176 283 485 555 890 1650
2020-07-18 17:30 5.39 682 4070 (1961) 17 (1954) 464 73 107 148 176 283 485 555 890 1650
2020-07-18 16:30 5.40 688 4070 (1961) 17 (1954) 464 73 107 148 176 283 485 555 890 1650
2020-07-18 15:30 5.39 682 4070 (1961) 17 (1954) 464 73 107 148 176 283 485 555 890 1650
2020-07-18 14:30 5.40 688 4070 (1961) 17 (1954) 464 73 107 148 176 283 485 555 890 1650
2020-07-18 13:30 5.40 688 4070 (1961) 17 (1954) 464 73 107 148 176 283 485 555 890 1650
2020-07-18 12:30 5.40 688 4070 (1961) 17 (1954) 464 73 107 148 176 283 485 555 890 1650
2020-07-18 11:30 5.40 688 4070 (1961) 17 (1954) 464 73 107 148 176 283 485 555 890 1650
2020-07-18 10:30 5.40 688 4070 (1961) 17 (1954) 464 73 107 148 176 283 485 555 890 1650
2020-07-18 09:30 5.41 694 4070 (1961) 17 (1954) 464 73 107 148 176 283 485 555 890 1650
2020-07-18 08:30 5.41 694 4070 (1961) 17 (1954) 464 73 107 148 176 283 485 555 890 1650
2020-07-18 07:30 5.41 694 4070 (1961) 17 (1954) 464 73 107 148 176 283 485 555 890 1650
2020-07-18 06:30 5.41 694 4070 (1961) 17 (1954) 464 73 107 148 176 283 485 555 890 1650
2020-07-18 05:30 5.41 694 4070 (1961) 17 (1954) 464 73 107 148 176 283 485 555 890 1650
2020-07-18 04:30 5.41 694 4070 (1961) 17 (1954) 464 73 107 148 176 283 485 555 890 1650
2020-07-18 03:30 5.41 694 4070 (1961) 17 (1954) 464 73 107 148 176 283 485 555 890 1650
2020-07-18 02:30 5.42 700 4070 (1961) 17 (1954) 464 73 107 148 176 283 485 555 890 1650
2020-07-18 01:30 5.41 694 4070 (1961) 17 (1954) 464 73 107 148 176 283 485 555 890 1650
2020-07-18 00:30 5.41 694 4070 (1961) 17 (1954) 464 73 107 148 176 283 485 555 890 1650
2020-07-17 23:30 5.41 694 5960 (2010) 18 (1954) 516 76 110 155 184 292 457 586 1060 1980
2020-07-17 22:30 5.41 694 5960 (2010) 18 (1954) 516 76 110 155 184 292 457 586 1060 1980
2020-07-17 21:30 5.41 694 5960 (2010) 18 (1954) 516 76 110 155 184 292 457 586 1060 1980
2020-07-17 20:30 5.41 694 5960 (2010) 18 (1954) 516 76 110 155 184 292 457 586 1060 1980
2020-07-17 19:30 5.41 694 5960 (2010) 18 (1954) 516 76 110 155 184 292 457 586 1060 1980
2020-07-17 18:30 5.41 694 5960 (2010) 18 (1954) 516 76 110 155 184 292 457 586 1060 1980
2020-07-17 17:30 5.41 694 5960 (2010) 18 (1954) 516 76 110 155 184 292 457 586 1060 1980
2020-07-17 16:30 5.42 700 5960 (2010) 18 (1954) 516 76 110 155 184 292 457 586 1060 1980
2020-07-17 15:30 5.42 700 5960 (2010) 18 (1954) 516 76 110 155 184 292 457 586 1060 1980
2020-07-17 14:30 5.42 700 5960 (2010) 18 (1954) 516 76 110 155 184 292 457 586 1060 1980
2020-07-17 13:30 5.42 700 5960 (2010) 18 (1954) 516 76 110 155 184 292 457 586 1060 1980
2020-07-17 12:30 5.43 706 5960 (2010) 18 (1954) 516 76 110 155 184 292 457 586 1060 1980
2020-07-17 11:30 5.43 706 5960 (2010) 18 (1954) 516 76 110 155 184 292 457 586 1060 1980
2020-07-17 10:30 5.43 706 5960 (2010) 18 (1954) 516 76 110 155 184 292 457 586 1060 1980
2020-07-17 09:30 5.43 706 5960 (2010) 18 (1954) 516 76 110 155 184 292 457 586 1060 1980
2020-07-17 08:30 5.43 706 5960 (2010) 18 (1954) 516 76 110 155 184 292 457 586 1060 1980
2020-07-17 07:30 5.43 706 5960 (2010) 18 (1954) 516 76 110 155 184 292 457 586 1060 1980
2020-07-17 06:30 5.44 712 5960 (2010) 18 (1954) 516 76 110 155 184 292 457 586 1060 1980
2020-07-17 05:30 5.43 706 5960 (2010) 18 (1954) 516 76 110 155 184 292 457 586 1060 1980
2020-07-17 03:30 5.44 712 5960 (2010) 18 (1954) 516 76 110 155 184 292 457 586 1060 1980
2020-07-17 02:30 5.43 706 5960 (2010) 18 (1954) 516 76 110 155 184 292 457 586 1060 1980
2020-07-17 01:30 5.43 706 5960 (2010) 18 (1954) 516 76 110 155 184 292 457 586 1060 1980
2020-07-17 00:30 5.44 712 5960 (2010) 18 (1954) 516 76 110 155 184 292 457 586 1060 1980
2020-07-16 23:30 5.44 712 3980 (1961) 20 (1954) 503 80 110 166 185 290 507 606 914 2360
2020-07-16 22:30 5.44 712 3980 (1961) 20 (1954) 503 80 110 166 185 290 507 606 914 2360
2020-07-16 21:30 5.44 712 3980 (1961) 20 (1954) 503 80 110 166 185 290 507 606 914 2360
2020-07-16 20:30 5.44 712 3980 (1961) 20 (1954) 503 80 110 166 185 290 507 606 914 2360
2020-07-16 19:30 5.44 712 3980 (1961) 20 (1954) 503 80 110 166 185 290 507 606 914 2360
2020-07-16 18:30 5.44 712 3980 (1961) 20 (1954) 503 80 110 166 185 290 507 606 914 2360
2020-07-16 17:30 5.44 712 3980 (1961) 20 (1954) 503 80 110 166 185 290 507 606 914 2360
2020-07-16 16:30 5.43 706 3980 (1961) 20 (1954) 503 80 110 166 185 290 507 606 914 2360
2020-07-16 15:30 5.43 706 3980 (1961) 20 (1954) 503 80 110 166 185 290 507 606 914 2360
2020-07-16 14:30 5.45 718 3980 (1961) 20 (1954) 503 80 110 166 185 290 507 606 914 2360
2020-07-16 13:30 5.45 718 3980 (1961) 20 (1954) 503 80 110 166 185 290 507 606 914 2360
2020-07-16 12:30 5.45 718 3980 (1961) 20 (1954) 503 80 110 166 185 290 507 606 914 2360
2020-07-16 11:30 5.46 724 3980 (1961) 20 (1954) 503 80 110 166 185 290 507 606 914 2360
2020-07-16 10:30 5.46 724 3980 (1961) 20 (1954) 503 80 110 166 185 290 507 606 914 2360
2020-07-16 09:30 5.46 724 3980 (1961) 20 (1954) 503 80 110 166 185 290 507 606 914 2360
2020-07-16 08:30 5.46 724 3980 (1961) 20 (1954) 503 80 110 166 185 290 507 606 914 2360
2020-07-16 07:30 5.47 730 3980 (1961) 20 (1954) 503 80 110 166 185 290 507 606 914 2360
2020-07-16 06:30 5.48 737 3980 (1961) 20 (1954) 503 80 110 166 185 290 507 606 914 2360
2020-07-16 05:30 5.48 737 3980 (1961) 20 (1954) 503 80 110 166 185 290 507 606 914 2360
2020-07-16 04:30 5.48 737 3980 (1961) 20 (1954) 503 80 110 166 185 290 507 606 914 2360
2020-07-16 03:30 5.48 737 3980 (1961) 20 (1954) 503 80 110 166 185 290 507 606 914 2360
2020-07-16 02:30 5.48 737 3980 (1961) 20 (1954) 503 80 110 166 185 290 507 606 914 2360
2020-07-16 01:30 5.48 737 3980 (1961) 20 (1954) 503 80 110 166 185 290 507 606 914 2360
2020-07-16 00:30 5.48 737 3980 (1961) 20 (1954) 503 80 110 166 185 290 507 606 914 2360
2020-07-15 23:30 5.47 730 5410 (1972) 21 (1954) 632 84 114 177 191 310 521 662 1080 3400
2020-07-15 22:30 5.48 737 5410 (1972) 21 (1954) 632 84 114 177 191 310 521 662 1080 3400
2020-07-15 21:30 5.48 737 5410 (1972) 21 (1954) 632 84 114 177 191 310 521 662 1080 3400
2020-07-15 20:30 5.48 737 5410 (1972) 21 (1954) 632 84 114 177 191 310 521 662 1080 3400
2020-07-15 19:30 5.48 737 5410 (1972) 21 (1954) 632 84 114 177 191 310 521 662 1080 3400
2020-07-15 18:30 5.47 730 5410 (1972) 21 (1954) 632 84 114 177 191 310 521 662 1080 3400
2020-07-15 17:30 5.48 737 5410 (1972) 21 (1954) 632 84 114 177 191 310 521 662 1080 3400
2020-07-15 16:30 5.48 737 5410 (1972) 21 (1954) 632 84 114 177 191 310 521 662 1080 3400
2020-07-15 15:30 5.49 743 5410 (1972) 21 (1954) 632 84 114 177 191 310 521 662 1080 3400
2020-07-15 14:30 5.48 737 5410 (1972) 21 (1954) 632 84 114 177 191 310 521 662 1080 3400
2020-07-15 13:30 5.50 749 5410 (1972) 21 (1954) 632 84 114 177 191 310 521 662 1080 3400
2020-07-15 12:30 5.50 749 5410 (1972) 21 (1954) 632 84 114 177 191 310 521 662 1080 3400
2020-07-15 11:30 5.50 749 5410 (1972) 21 (1954) 632 84 114 177 191 310 521 662 1080 3400
2020-07-15 10:30 5.49 743 5410 (1972) 21 (1954) 632 84 114 177 191 310 521 662 1080 3400
2020-07-15 09:30 5.51 756 5410 (1972) 21 (1954) 632 84 114 177 191 310 521 662 1080 3400
2020-07-15 08:30 5.50 749 5410 (1972) 21 (1954) 632 84 114 177 191 310 521 662 1080 3400
2020-07-15 07:30 5.51 756 5410 (1972) 21 (1954) 632 84 114 177 191 310 521 662 1080 3400
2020-07-15 06:30 5.51 756 5410 (1972) 21 (1954) 632 84 114 177 191 310 521 662 1080 3400
2020-07-15 05:30 5.50 749 5410 (1972) 21 (1954) 632 84 114 177 191 310 521 662 1080 3400
2020-07-15 04:30 5.50 749 5410 (1972) 21 (1954) 632 84 114 177 191 310 521 662 1080 3400
2020-07-15 03:30 5.51 756 5410 (1972) 21 (1954) 632 84 114 177 191 310 521 662 1080 3400
2020-07-15 02:30 5.52 762 5410 (1972) 21 (1954) 632 84 114 177 191 310 521 662 1080 3400
2020-07-15 01:30 5.51 756 5410 (1972) 21 (1954) 632 84 114 177 191 310 521 662 1080 3400
2020-07-15 00:30 5.51 756 5410 (1972) 21 (1954) 632 84 114 177 191 310 521 662 1080 3400
2020-07-14 23:30 5.51 756 12900 (1958) 23 (1954) 761 87 118 181 192 314 466 563 986 3900
2020-07-14 22:30 5.51 756 12900 (1958) 23 (1954) 761 87 118 181 192 314 466 563 986 3900
2020-07-14 21:30 5.51 756 12900 (1958) 23 (1954) 761 87 118 181 192 314 466 563 986 3900
2020-07-14 20:30 5.51 756 12900 (1958) 23 (1954) 761 87 118 181 192 314 466 563 986 3900
2020-07-14 19:30 5.52 762 12900 (1958) 23 (1954) 761 87 118 181 192 314 466 563 986 3900
2020-07-14 18:30 5.52 762 12900 (1958) 23 (1954) 761 87 118 181 192 314 466 563 986 3900
2020-07-14 17:30 5.52 762 12900 (1958) 23 (1954) 761 87 118 181 192 314 466 563 986 3900
2020-07-14 16:30 5.53 768 12900 (1958) 23 (1954) 761 87 118 181 192 314 466 563 986 3900
2020-07-14 15:30 5.54 775 12900 (1958) 23 (1954) 761 87 118 181 192 314 466 563 986 3900
2020-07-14 14:30 5.54 775 12900 (1958) 23 (1954) 761 87 118 181 192 314 466 563 986 3900
2020-07-14 13:30 5.54 775 12900 (1958) 23 (1954) 761 87 118 181 192 314 466 563 986 3900
2020-07-14 12:30 5.55 781 12900 (1958) 23 (1954) 761 87 118 181 192 314 466 563 986 3900
2020-07-14 11:30 5.55 781 12900 (1958) 23 (1954) 761 87 118 181 192 314 466 563 986 3900
2020-07-14 10:30 5.56 788 12900 (1958) 23 (1954) 761 87 118 181 192 314 466 563 986 3900
2020-07-14 09:30 5.56 788 12900 (1958) 23 (1954) 761 87 118 181 192 314 466 563 986 3900
2020-07-14 08:30 5.56 788 12900 (1958) 23 (1954) 761 87 118 181 192 314 466 563 986 3900
2020-07-14 07:30 5.56 788 12900 (1958) 23 (1954) 761 87 118 181 192 314 466 563 986 3900
2020-07-14 06:30 5.56 788 12900 (1958) 23 (1954) 761 87 118 181 192 314 466 563 986 3900
2020-07-14 05:30 5.58 801 12900 (1958) 23 (1954) 761 87 118 181 192 314 466 563 986 3900
2020-07-14 04:30 5.58 801 12900 (1958) 23 (1954) 761 87 118 181 192 314 466 563 986 3900
2020-07-14 03:30 5.58 801 12900 (1958) 23 (1954) 761 87 118 181 192 314 466 563 986 3900
2020-07-14 02:30 5.58 801 12900 (1958) 23 (1954) 761 87 118 181 192 314 466 563 986 3900
2020-07-14 01:30 5.57 794 12900 (1958) 23 (1954) 761 87 118 181 192 314 466 563 986 3900
2020-07-14 00:30 5.59 807 12900 (1958) 23 (1954) 761 87 118 181 192 314 466 563 986 3900
2020-07-13 23:30 5.59 807 22000 (1958) 25 (1954) 730 92 125 171 203 294 486 551 897 2690
2020-07-13 22:30 5.59 807 22000 (1958) 25 (1954) 730 92 125 171 203 294 486 551 897 2690
2020-07-13 21:30 5.60 814 22000 (1958) 25 (1954) 730 92 125 171 203 294 486 551 897 2690
2020-07-13 20:30 5.61 821 22000 (1958) 25 (1954) 730 92 125 171 203 294 486 551 897 2690
2020-07-13 19:30 5.60 814 22000 (1958) 25 (1954) 730 92 125 171 203 294 486 551 897 2690
2020-07-13 18:30 5.61 821 22000 (1958) 25 (1954) 730 92 125 171 203 294 486 551 897 2690
2020-07-13 17:30 5.62 827 22000 (1958) 25 (1954) 730 92 125 171 203 294 486 551 897 2690
2020-07-13 16:30 5.62 827 22000 (1958) 25 (1954) 730 92 125 171 203 294 486 551 897 2690
2020-07-13 15:30 5.63 834 22000 (1958) 25 (1954) 730 92 125 171 203 294 486 551 897 2690
2020-07-13 14:30 5.62 827 22000 (1958) 25 (1954) 730 92 125 171 203 294 486 551 897 2690
2020-07-13 13:30 5.63 834 22000 (1958) 25 (1954) 730 92 125 171 203 294 486 551 897 2690
2020-07-13 12:30 5.64 841 22000 (1958) 25 (1954) 730 92 125 171 203 294 486 551 897 2690
2020-07-13 11:30 5.64 841 22000 (1958) 25 (1954) 730 92 125 171 203 294 486 551 897 2690
2020-07-13 10:30 5.64 841 22000 (1958) 25 (1954) 730 92 125 171 203 294 486 551 897 2690
2020-07-13 09:30 5.65 848 22000 (1958) 25 (1954) 730 92 125 171 203 294 486 551 897 2690
2020-07-13 08:30 5.67 861 22000 (1958) 25 (1954) 730 92 125 171 203 294 486 551 897 2690
2020-07-13 07:30 5.66 855 22000 (1958) 25 (1954) 730 92 125 171 203 294 486 551 897 2690
2020-07-13 06:30 5.67 861 22000 (1958) 25 (1954) 730 92 125 171 203 294 486 551 897 2690
2020-07-13 05:30 5.68 868 22000 (1958) 25 (1954) 730 92 125 171 203 294 486 551 897 2690
2020-07-13 04:30 5.66 855 22000 (1958) 25 (1954) 730 92 125 171 203 294 486 551 897 2690
2020-07-13 03:30 5.68 868 22000 (1958) 25 (1954) 730 92 125 171 203 294 486 551 897 2690
2020-07-13 02:30 5.67 861 22000 (1958) 25 (1954) 730 92 125 171 203 294 486 551 897 2690
2020-07-13 01:30 5.68 868 22000 (1958) 25 (1954) 730 92 125 171 203 294 486 551 897 2690
2020-07-13 00:30 5.69 875 22000 (1958) 25 (1954) 730 92 125 171 203 294 486 551 897 2690
2020-07-12 23:30 5.69 875 5330 (2015) 27 (1954) 534 95 132 172 213 301 504 601 1060 2070
2020-07-12 22:30 5.70 882 5330 (2015) 27 (1954) 534 95 132 172 213 301 504 601 1060 2070
2020-07-12 21:30 5.70 882 5330 (2015) 27 (1954) 534 95 132 172 213 301 504 601 1060 2070
2020-07-12 20:30 5.72 896 5330 (2015) 27 (1954) 534 95 132 172 213 301 504 601 1060 2070
2020-07-12 19:30 5.71 889 5330 (2015) 27 (1954) 534 95 132 172 213 301 504 601 1060 2070
2020-07-12 18:30 5.71 889 5330 (2015) 27 (1954) 534 95 132 172 213 301 504 601 1060 2070
2020-07-12 17:30 5.72 896 5330 (2015) 27 (1954) 534 95 132 172 213 301 504 601 1060 2070
2020-07-12 16:30 5.73 903 5330 (2015) 27 (1954) 534 95 132 172 213 301 504 601 1060 2070
2020-07-12 15:30 5.73 903 5330 (2015) 27 (1954) 534 95 132 172 213 301 504 601 1060 2070
2020-07-12 14:30 5.75 918 5330 (2015) 27 (1954) 534 95 132 172 213 301 504 601 1060 2070
2020-07-12 13:30 5.75 918 5330 (2015) 27 (1954) 534 95 132 172 213 301 504 601 1060 2070
2020-07-12 12:30 5.76 925 5330 (2015) 27 (1954) 534 95 132 172 213 301 504 601 1060 2070
2020-07-12 11:30 5.78 939 5330 (2015) 27 (1954) 534 95 132 172 213 301 504 601 1060 2070
2020-07-12 10:30 5.78 939 5330 (2015) 27 (1954) 534 95 132 172 213 301 504 601 1060 2070
2020-07-12 09:30 5.81 962 5330 (2015) 27 (1954) 534 95 132 172 213 301 504 601 1060 2070
2020-07-12 08:30 5.81 962 5330 (2015) 27 (1954) 534 95 132 172 213 301 504 601 1060 2070
2020-07-12 07:30 5.83 976 5330 (2015) 27 (1954) 534 95 132 172 213 301 504 601 1060 2070
2020-07-12 06:30 5.84 984 5330 (2015) 27 (1954) 534 95 132 172 213 301 504 601 1060 2070
2020-07-12 05:30 5.87 1010 5330 (2015) 27 (1954) 534 95 132 172 213 301 504 601 1060 2070
2020-07-12 04:30 5.89 1020 5330 (2015) 27 (1954) 534 95 132 172 213 301 504 601 1060 2070
2020-07-12 03:30 5.90 1030 5330 (2015) 27 (1954) 534 95 132 172 213 301 504 601 1060 2070
2020-07-12 02:30 5.91 1040 5330 (2015) 27 (1954) 534 95 132 172 213 301 504 601 1060 2070
2020-07-12 00:30 5.91 1040 5330 (2015) 27 (1954) 534 95 132 172 213 301 504 601 1060 2070
2020-07-11 23:30 5.92 1050 10400 (2015) 28 (1954) 594 98 128 176 207 319 527 632 1020 1790
2020-07-11 22:30 5.93 1050 10400 (2015) 28 (1954) 594 98 128 176 207 319 527 632 1020 1790
2020-07-11 21:30 5.87 1010 10400 (2015) 28 (1954) 594 98 128 176 207 319 527 632 1020 1790
2020-07-11 20:30 5.83 976 10400 (2015) 28 (1954) 594 98 128 176 207 319 527 632 1020 1790
2020-07-11 19:30 5.81 962 10400 (2015) 28 (1954) 594 98 128 176 207 319 527 632 1020 1790
2020-07-11 18:30 5.83 976 10400 (2015) 28 (1954) 594 98 128 176 207 319 527 632 1020 1790
2020-07-11 17:30 5.85 991 10400 (2015) 28 (1954) 594 98 128 176 207 319 527 632 1020 1790
2020-07-11 16:30 5.85 991 10400 (2015) 28 (1954) 594 98 128 176 207 319 527 632 1020 1790
2020-07-11 15:30 5.87 1010 10400 (2015) 28 (1954) 594 98 128 176 207 319 527 632 1020 1790
2020-07-11 14:30 5.87 1010 10400 (2015) 28 (1954) 594 98 128 176 207 319 527 632 1020 1790
2020-07-11 13:30 5.89 1020 10400 (2015) 28 (1954) 594 98 128 176 207 319 527 632 1020 1790
2020-07-11 12:30 5.90 1030 10400 (2015) 28 (1954) 594 98 128 176 207 319 527 632 1020 1790
2020-07-11 11:30 5.90 1030 10400 (2015) 28 (1954) 594 98 128 176 207 319 527 632 1020 1790
2020-07-11 10:30 5.91 1040 10400 (2015) 28 (1954) 594 98 128 176 207 319 527 632 1020 1790
2020-07-11 09:30 5.91 1040 10400 (2015) 28 (1954) 594 98 128 176 207 319 527 632 1020 1790
2020-07-11 08:30 5.90 1030 10400 (2015) 28 (1954) 594 98 128 176 207 319 527 632 1020 1790
2020-07-11 07:30 5.90 1030 10400 (2015) 28 (1954) 594 98 128 176 207 319 527 632 1020 1790
2020-07-11 06:30 5.89 1020 10400 (2015) 28 (1954) 594 98 128 176 207 319 527 632 1020 1790
2020-07-11 05:30 5.90 1030 10400 (2015) 28 (1954) 594 98 128 176 207 319 527 632 1020 1790
2020-07-11 04:30 5.88 1010 10400 (2015) 28 (1954) 594 98 128 176 207 319 527 632 1020 1790
2020-07-11 03:30 5.87 1010 10400 (2015) 28 (1954) 594 98 128 176 207 319 527 632 1020 1790
2020-07-11 02:30 5.85 991 10400 (2015) 28 (1954) 594 98 128 176 207 319 527 632 1020 1790
2020-07-11 01:30 5.86 999 10400 (2015) 28 (1954) 594 98 128 176 207 319 527 632 1020 1790
2020-07-11 00:30 5.86 999 10400 (2015) 28 (1954) 594 98 128 176 207 319 527 632 1020 1790
2020-07-10 23:30 5.84 984 12000 (2015) 31 (1954) 632 101 128 189 207 340 575 621 928 2180
2020-07-10 22:30 5.84 984 12000 (2015) 31 (1954) 632 101 128 189 207 340 575 621 928 2180
2020-07-10 21:30 5.82 969 12000 (2015) 31 (1954) 632 101 128 189 207 340 575 621 928 2180
2020-07-10 20:30 5.81 962 12000 (2015) 31 (1954) 632 101 128 189 207 340 575 621 928 2180
2020-07-10 19:30 5.77 932 12000 (2015) 31 (1954) 632 101 128 189 207 340 575 621 928 2180
2020-07-10 18:30 5.78 939 12000 (2015) 31 (1954) 632 101 128 189 207 340 575 621 928 2180
2020-07-10 17:30 5.75 918 12000 (2015) 31 (1954) 632 101 128 189 207 340 575 621 928 2180
2020-07-10 16:30 5.74 911 12000 (2015) 31 (1954) 632 101 128 189 207 340 575 621 928 2180
2020-07-10 15:30 5.75 918 12000 (2015) 31 (1954) 632 101 128 189 207 340 575 621 928 2180
2020-07-10 14:30 5.73 903 12000 (2015) 31 (1954) 632 101 128 189 207 340 575 621 928 2180
2020-07-10 13:30 5.71 889 12000 (2015) 31 (1954) 632 101 128 189 207 340 575 621 928 2180
2020-07-10 12:30 5.71 889 12000 (2015) 31 (1954) 632 101 128 189 207 340 575 621 928 2180
2020-07-10 11:30 5.69 875 12000 (2015) 31 (1954) 632 101 128 189 207 340 575 621 928 2180
2020-07-10 10:30 5.69 875 12000 (2015) 31 (1954) 632 101 128 189 207 340 575 621 928 2180
2020-07-10 09:30 5.67 861 12000 (2015) 31 (1954) 632 101 128 189 207 340 575 621 928 2180
2020-07-10 08:30 5.68 868 12000 (2015) 31 (1954) 632 101 128 189 207 340 575 621 928 2180
2020-07-10 07:30 5.67 861 12000 (2015) 31 (1954) 632 101 128 189 207 340 575 621 928 2180
2020-07-10 06:30 5.66 855 12000 (2015) 31 (1954) 632 101 128 189 207 340 575 621 928 2180
2020-07-10 05:30 5.65 848 12000 (2015) 31 (1954) 632 101 128 189 207 340 575 621 928 2180
2020-07-10 04:30 5.64 841 12000 (2015) 31 (1954) 632 101 128 189 207 340 575 621 928 2180
2020-07-10 03:30 5.63 834 12000 (2015) 31 (1954) 632 101 128 189 207 340 575 621 928 2180
2020-07-10 02:30 5.62 827 12000 (2015) 31 (1954) 632 101 128 189 207 340 575 621 928 2180
2020-07-10 01:30 5.61 821 12000 (2015) 31 (1954) 632 101 128 189 207 340 575 621 928 2180
2020-07-10 00:30 5.60 814 12000 (2015) 31 (1954) 632 101 128 189 207 340 575 621 928 2180
2020-07-09 23:30 5.60 814 8310 (2015) 33 (1954) 564 101 132 194 216 347 556 670 1080 1410
2020-07-09 22:30 5.60 814 8310 (2015) 33 (1954) 564 101 132 194 216 347 556 670 1080 1410
2020-07-09 21:30 5.60 814 8310 (2015) 33 (1954) 564 101 132 194 216 347 556 670 1080 1410
2020-07-09 20:30 5.60 814 8310 (2015) 33 (1954) 564 101 132 194 216 347 556 670 1080 1410
2020-07-09 19:30 5.62 827 8310 (2015) 33 (1954) 564 101 132 194 216 347 556 670 1080 1410
2020-07-09 18:30 5.62 827 8310 (2015) 33 (1954) 564 101 132 194 216 347 556 670 1080 1410
2020-07-09 17:30 5.63 834 8310 (2015) 33 (1954) 564 101 132 194 216 347 556 670 1080 1410
2020-07-09 16:30 5.64 841 8310 (2015) 33 (1954) 564 101 132 194 216 347 556 670 1080 1410
2020-07-09 15:30 5.65 848 8310 (2015) 33 (1954) 564 101 132 194 216 347 556 670 1080 1410
2020-07-09 14:30 5.65 848 8310 (2015) 33 (1954) 564 101 132 194 216 347 556 670 1080 1410
2020-07-09 13:30 5.68 868 8310 (2015) 33 (1954) 564 101 132 194 216 347 556 670 1080 1410
2020-07-09 12:30 5.67 861 8310 (2015) 33 (1954) 564 101 132 194 216 347 556 670 1080 1410
2020-07-09 11:30 5.69 875 8310 (2015) 33 (1954) 564 101 132 194 216 347 556 670 1080 1410
2020-07-09 10:30 5.64 841 8310 (2015) 33 (1954) 564 101 132 194 216 347 556 670 1080 1410
2020-07-09 09:30 5.51 756 8310 (2015) 33 (1954) 564 101 132 194 216 347 556 670 1080 1410
2020-07-09 08:30 5.54 775 8310 (2015) 33 (1954) 564 101 132 194 216 347 556 670 1080 1410
2020-07-09 07:30 5.54 775 8310 (2015) 33 (1954) 564 101 132 194 216 347 556 670 1080 1410
2020-07-09 06:30 5.56 788 8310 (2015) 33 (1954) 564 101 132 194 216 347 556 670 1080 1410
2020-07-09 05:30 5.56 788 8310 (2015) 33 (1954) 564 101 132 194 216 347 556 670 1080 1410
2020-07-09 04:30 5.56 788 8310 (2015) 33 (1954) 564 101 132 194 216 347 556 670 1080 1410
2020-07-09 03:30 5.56 788 8310 (2015) 33 (1954) 564 101 132 194 216 347 556 670 1080 1410
2020-07-09 02:30 5.56 788 8310 (2015) 33 (1954) 564 101 132 194 216 347 556 670 1080 1410
2020-07-09 01:30 5.57 794 8310 (2015) 33 (1954) 564 101 132 194 216 347 556 670 1080 1410
2020-07-08 23:30 5.58 801 4500 (2015) 36 (1954) 520 105 136 204 228 361 610 745 1010 1540
2020-07-08 22:30 5.58 801 4500 (2015) 36 (1954) 520 105 136 204 228 361 610 745 1010 1540
2020-07-08 21:30 5.58 801 4500 (2015) 36 (1954) 520 105 136 204 228 361 610 745 1010 1540
2020-07-08 20:30 5.58 801 4500 (2015) 36 (1954) 520 105 136 204 228 361 610 745 1010 1540
2020-07-08 19:30 5.58 801 4500 (2015) 36 (1954) 520 105 136 204 228 361 610 745 1010 1540
2020-07-08 18:30 5.59 807 4500 (2015) 36 (1954) 520 105 136 204 228 361 610 745 1010 1540
2020-07-08 17:30 5.59 807 4500 (2015) 36 (1954) 520 105 136 204 228 361 610 745 1010 1540
2020-07-08 16:30 5.59 807 4500 (2015) 36 (1954) 520 105 136 204 228 361 610 745 1010 1540
2020-07-08 15:30 5.59 807 4500 (2015) 36 (1954) 520 105 136 204 228 361 610 745 1010 1540
2020-07-08 14:30 5.60 814 4500 (2015) 36 (1954) 520 105 136 204 228 361 610 745 1010 1540
2020-07-08 13:30 5.60 814 4500 (2015) 36 (1954) 520 105 136 204 228 361 610 745 1010 1540
2020-07-08 12:30 5.60 814 4500 (2015) 36 (1954) 520 105 136 204 228 361 610 745 1010 1540
2020-07-08 11:30 5.59 807 4500 (2015) 36 (1954) 520 105 136 204 228 361 610 745 1010 1540
2020-07-08 10:30 5.61 821 4500 (2015) 36 (1954) 520 105 136 204 228 361 610 745 1010 1540
2020-07-08 09:30 5.62 827 4500 (2015) 36 (1954) 520 105 136 204 228 361 610 745 1010 1540
2020-07-08 08:30 5.62 827 4500 (2015) 36 (1954) 520 105 136 204 228 361 610 745 1010 1540
2020-07-08 07:30 5.62 827 4500 (2015) 36 (1954) 520 105 136 204 228 361 610 745 1010 1540
2020-07-08 06:30 5.63 834 4500 (2015) 36 (1954) 520 105 136 204 228 361 610 745 1010 1540
2020-07-08 05:30 5.64 841 4500 (2015) 36 (1954) 520 105 136 204 228 361 610 745 1010 1540
2020-07-08 04:30 5.64 841 4500 (2015) 36 (1954) 520 105 136 204 228 361 610 745 1010 1540
2020-07-08 03:30 5.64 841 4500 (2015) 36 (1954) 520 105 136 204 228 361 610 745 1010 1540
2020-07-08 02:30 5.65 848 4500 (2015) 36 (1954) 520 105 136 204 228 361 610 745 1010 1540
2020-07-08 01:30 5.64 841 4500 (2015) 36 (1954) 520 105 136 204 228 361 610 745 1010 1540
2020-07-08 00:30 5.65 848 4500 (2015) 36 (1954) 520 105 136 204 228 361 610 745 1010 1540
2020-07-07 23:30 5.65 848 2260 (2004) 38 (1954) 510 111 137 208 225 379 626 727 1130 1640
2020-07-07 22:30 5.66 855 2260 (2004) 38 (1954) 510 111 137 208 225 379 626 727 1130 1640
2020-07-07 21:30 5.66 855 2260 (2004) 38 (1954) 510 111 137 208 225 379 626 727 1130 1640
2020-07-07 20:30 5.65 848 2260 (2004) 38 (1954) 510 111 137 208 225 379 626 727 1130 1640
2020-07-07 19:30 5.66 855 2260 (2004) 38 (1954) 510 111 137 208 225 379 626 727 1130 1640
2020-07-07 18:30 5.68 868 2260 (2004) 38 (1954) 510 111 137 208 225 379 626 727 1130 1640
2020-07-07 17:30 5.67 861 2260 (2004) 38 (1954) 510 111 137 208 225 379 626 727 1130 1640
2020-07-07 16:30 5.66 855 2260 (2004) 38 (1954) 510 111 137 208 225 379 626 727 1130 1640
2020-07-07 15:30 5.68 868 2260 (2004) 38 (1954) 510 111 137 208 225 379 626 727 1130 1640
2020-07-07 14:30 5.68 868 2260 (2004) 38 (1954) 510 111 137 208 225 379 626 727 1130 1640
2020-07-07 13:30 5.69 875 2260 (2004) 38 (1954) 510 111 137 208 225 379 626 727 1130 1640
2020-07-07 12:30 5.69 875 2260 (2004) 38 (1954) 510 111 137 208 225 379 626 727 1130 1640
2020-07-07 11:30 5.70 882 2260 (2004) 38 (1954) 510 111 137 208 225 379 626 727 1130 1640
2020-07-07 10:30 5.69 875 2260 (2004) 38 (1954) 510 111 137 208 225 379 626 727 1130 1640
2020-07-07 09:30 5.69 875 2260 (2004) 38 (1954) 510 111 137 208 225 379 626 727 1130 1640
2020-07-07 08:30 5.69 875 2260 (2004) 38 (1954) 510 111 137 208 225 379 626 727 1130 1640
2020-07-07 07:30 5.69 875 2260 (2004) 38 (1954) 510 111 137 208 225 379 626 727 1130 1640
2020-07-07 06:30 5.70 882 2260 (2004) 38 (1954) 510 111 137 208 225 379 626 727 1130 1640
2020-07-07 05:30 5.71 889 2260 (2004) 38 (1954) 510 111 137 208 225 379 626 727 1130 1640
2020-07-07 04:30 5.70 882 2260 (2004) 38 (1954) 510 111 137 208 225 379 626 727 1130 1640
2020-07-07 03:30 5.71 889 2260 (2004) 38 (1954) 510 111 137 208 225 379 626 727 1130 1640
2020-07-07 02:30 5.72 896 2260 (2004) 38 (1954) 510 111 137 208 225 379 626 727 1130 1640
2020-07-07 00:30 5.73 903 2260 (2004) 38 (1954) 510 111 137 208 225 379 626 727 1130 1640
2020-07-06 23:30 5.73 903 3160 (2004) 39 (1954) 558 112 137 210 235 396 678 814 1390 1840
2020-07-06 22:30 5.73 903 3160 (2004) 39 (1954) 558 112 137 210 235 396 678 814 1390 1840
2020-07-06 21:30 5.74 911 3160 (2004) 39 (1954) 558 112 137 210 235 396 678 814 1390 1840
2020-07-06 20:30 5.73 903 3160 (2004) 39 (1954) 558 112 137 210 235 396 678 814 1390 1840
2020-07-06 19:30 5.74 911 3160 (2004) 39 (1954) 558 112 137 210 235 396 678 814 1390 1840
2020-07-06 18:30 5.76 925 3160 (2004) 39 (1954) 558 112 137 210 235 396 678 814 1390 1840
2020-07-06 17:30 5.76 925 3160 (2004) 39 (1954) 558 112 137 210 235 396 678 814 1390 1840
2020-07-06 16:30 5.77 932 3160 (2004) 39 (1954) 558 112 137 210 235 396 678 814 1390 1840
2020-07-06 15:30 5.78 939 3160 (2004) 39 (1954) 558 112 137 210 235 396 678 814 1390 1840
2020-07-06 14:30 5.75 918 3160 (2004) 39 (1954) 558 112 137 210 235 396 678 814 1390 1840
2020-07-06 06:05 5.74 907 3160 (2004) 39 (1954) 558 112 137 210 235 396 678 814 1390 1840
2020-07-05 21:55 5.81 963 5990 (2004) 41 (1954) 636 112 144 222 250 400 707 905 1480 2030
2020-07-05 15:52 5.75 919 5990 (2004) 41 (1954) 636 112 144 222 250 400 707 905 1480 2030
2020-07-02 10:00 5.45 718 11800 (1999) 36 (1954) 779 123 149 222 280 473 689 786 1220 3230
2020-07-02 09:30 5.46 724 11800 (1999) 36 (1954) 779 123 149 222 280 473 689 786 1220 3230
2020-07-02 08:30 5.45 718 11800 (1999) 36 (1954) 779 123 149 222 280 473 689 786 1220 3230
2020-07-02 07:30 5.46 724 11800 (1999) 36 (1954) 779 123 149 222 280 473 689 786 1220 3230
2020-07-02 06:30 5.47 730 11800 (1999) 36 (1954) 779 123 149 222 280 473 689 786 1220 3230
2020-07-02 05:30 5.46 724 11800 (1999) 36 (1954) 779 123 149 222 280 473 689 786 1220 3230
2020-07-02 04:30 5.47 730 11800 (1999) 36 (1954) 779 123 149 222 280 473 689 786 1220 3230
2020-07-02 03:30 5.45 718 11800 (1999) 36 (1954) 779 123 149 222 280 473 689 786 1220 3230
2020-07-02 02:30 5.46 724 11800 (1999) 36 (1954) 779 123 149 222 280 473 689 786 1220 3230
2020-07-02 01:30 5.46 724 11800 (1999) 36 (1954) 779 123 149 222 280 473 689 786 1220 3230
2020-07-02 00:30 5.46 724 11800 (1999) 36 (1954) 779 123 149 222 280 473 689 786 1220 3230
2020-07-01 23:30 5.46 724 9310 (1999) 38 (1954) 805 124 152 233 265 466 719 827 1170 4150
2020-07-01 22:30 5.45 718 9310 (1999) 38 (1954) 805 124 152 233 265 466 719 827 1170 4150
2020-07-01 21:30 5.46 724 9310 (1999) 38 (1954) 805 124 152 233 265 466 719 827 1170 4150
2020-07-01 20:30 5.46 724 9310 (1999) 38 (1954) 805 124 152 233 265 466 719 827 1170 4150
2020-07-01 19:30 5.46 724 9310 (1999) 38 (1954) 805 124 152 233 265 466 719 827 1170 4150
2020-07-01 18:30 5.46 724 9310 (1999) 38 (1954) 805 124 152 233 265 466 719 827 1170 4150
2020-07-01 17:30 5.46 724 9310 (1999) 38 (1954) 805 124 152 233 265 466 719 827 1170 4150
2020-07-01 16:30 5.46 724 9310 (1999) 38 (1954) 805 124 152 233 265 466 719 827 1170 4150
2020-07-01 15:30 5.46 724 9310 (1999) 38 (1954) 805 124 152 233 265 466 719 827 1170 4150
2020-07-01 14:30 5.46 724 9310 (1999) 38 (1954) 805 124 152 233 265 466 719 827 1170 4150
2020-07-01 13:30 5.46 724 9310 (1999) 38 (1954) 805 124 152 233 265 466 719 827 1170 4150
2020-07-01 12:30 5.46 724 9310 (1999) 38 (1954) 805 124 152 233 265 466 719 827 1170 4150
2020-07-01 11:30 5.47 730 9310 (1999) 38 (1954) 805 124 152 233 265 466 719 827 1170 4150
2020-07-01 10:30 5.47 730 9310 (1999) 38 (1954) 805 124 152 233 265 466 719 827 1170 4150
2020-07-01 09:30 5.46 724 9310 (1999) 38 (1954) 805 124 152 233 265 466 719 827 1170 4150
2020-07-01 08:30 5.47 730 9310 (1999) 38 (1954) 805 124 152 233 265 466 719 827 1170 4150
2020-07-01 07:30 5.47 730 9310 (1999) 38 (1954) 805 124 152 233 265 466 719 827 1170 4150
2020-07-01 06:30 5.47 730 9310 (1999) 38 (1954) 805 124 152 233 265 466 719 827 1170 4150
2020-07-01 05:30 5.46 724 9310 (1999) 38 (1954) 805 124 152 233 265 466 719 827 1170 4150
2020-07-01 04:30 5.48 737 9310 (1999) 38 (1954) 805 124 152 233 265 466 719 827 1170 4150
2020-07-01 03:30 5.47 730 9310 (1999) 38 (1954) 805 124 152 233 265 466 719 827 1170 4150
2020-07-01 02:30 5.47 730 9310 (1999) 38 (1954) 805 124 152 233 265 466 719 827 1170 4150
2020-07-01 01:30 5.47 730 9310 (1999) 38 (1954) 805 124 152 233 265 466 719 827 1170 4150
2020-07-01 00:30 5.47 730 9310 (1999) 38 (1954) 805 124 152 233 265 466 719 827 1170 4150
2020-06-30 23:30 5.47 730 19600 (2000) 40 (1954) 875 125 161 230 261 488 838 910 1500 2530
2020-06-30 22:30 5.47 730 19600 (2000) 40 (1954) 875 125 161 230 261 488 838 910 1500 2530
2020-06-30 21:30 5.46 724 19600 (2000) 40 (1954) 875 125 161 230 261 488 838 910 1500 2530
2020-06-30 20:30 5.47 730 19600 (2000) 40 (1954) 875 125 161 230 261 488 838 910 1500 2530
2020-06-30 19:30 5.47 730 19600 (2000) 40 (1954) 875 125 161 230 261 488 838 910 1500 2530
2020-06-30 18:30 5.47 730 19600 (2000) 40 (1954) 875 125 161 230 261 488 838 910 1500 2530
2020-06-30 17:30 5.47 730 19600 (2000) 40 (1954) 875 125 161 230 261 488 838 910 1500 2530
2020-06-30 16:30 5.47 730 19600 (2000) 40 (1954) 875 125 161 230 261 488 838 910 1500 2530
2020-06-30 15:30 5.44 712 19600 (2000) 40 (1954) 875 125 161 230 261 488 838 910 1500 2530
2020-06-30 14:30 5.48 737 19600 (2000) 40 (1954) 875 125 161 230 261 488 838 910 1500 2530
2020-06-30 13:30 5.48 737 19600 (2000) 40 (1954) 875 125 161 230 261 488 838 910 1500 2530
2020-06-30 12:30 5.48 737 19600 (2000) 40 (1954) 875 125 161 230 261 488 838 910 1500 2530
2020-06-30 11:30 5.49 743 19600 (2000) 40 (1954) 875 125 161 230 261 488 838 910 1500 2530
2020-06-30 10:30 5.49 743 19600 (2000) 40 (1954) 875 125 161 230 261 488 838 910 1500 2530
2020-06-30 09:30 5.48 737 19600 (2000) 40 (1954) 875 125 161 230 261 488 838 910 1500 2530
2020-06-30 08:30 5.48 737 19600 (2000) 40 (1954) 875 125 161 230 261 488 838 910 1500 2530
2020-06-30 07:30 5.49 743 19600 (2000) 40 (1954) 875 125 161 230 261 488 838 910 1500 2530
2020-06-30 06:30 5.49 743 19600 (2000) 40 (1954) 875 125 161 230 261 488 838 910 1500 2530
2020-06-30 05:30 5.49 743 19600 (2000) 40 (1954) 875 125 161 230 261 488 838 910 1500 2530
2020-06-30 04:30 5.49 743 19600 (2000) 40 (1954) 875 125 161 230 261 488 838 910 1500 2530
2020-06-30 03:30 5.49 743 19600 (2000) 40 (1954) 875 125 161 230 261 488 838 910 1500 2530
2020-06-30 02:30 5.49 743 19600 (2000) 40 (1954) 875 125 161 230 261 488 838 910 1500 2530
2020-06-30 01:30 5.49 743 19600 (2000) 40 (1954) 875 125 161 230 261 488 838 910 1500 2530
2020-06-30 00:30 5.49 743 19600 (2000) 40 (1954) 875 125 161 230 261 488 838 910 1500 2530
2020-06-29 23:30 5.49 743 19700 (2000) 40 (1954) 847 129 165 232 264 495 806 877 1170 1940
2020-06-29 22:30 5.49 743 19700 (2000) 40 (1954) 847 129 165 232 264 495 806 877 1170 1940
2020-06-29 21:30 5.49 743 19700 (2000) 40 (1954) 847 129 165 232 264 495 806 877 1170 1940
2020-06-29 20:30 5.49 743 19700 (2000) 40 (1954) 847 129 165 232 264 495 806 877 1170 1940
2020-06-29 19:30 5.49 743 19700 (2000) 40 (1954) 847 129 165 232 264 495 806 877 1170 1940
2020-06-29 18:30 5.49 743 19700 (2000) 40 (1954) 847 129 165 232 264 495 806 877 1170 1940
2020-06-29 17:30 5.49 743 19700 (2000) 40 (1954) 847 129 165 232 264 495 806 877 1170 1940
2020-06-29 16:30 5.50 749 19700 (2000) 40 (1954) 847 129 165 232 264 495 806 877 1170 1940
2020-06-29 15:30 5.50 749 19700 (2000) 40 (1954) 847 129 165 232 264 495 806 877 1170 1940
2020-06-29 14:30 5.50 749 19700 (2000) 40 (1954) 847 129 165 232 264 495 806 877 1170 1940
2020-06-29 13:30 5.50 749 19700 (2000) 40 (1954) 847 129 165 232 264 495 806 877 1170 1940
2020-06-29 12:30 5.50 749 19700 (2000) 40 (1954) 847 129 165 232 264 495 806 877 1170 1940
2020-06-29 11:30 5.50 749 19700 (2000) 40 (1954) 847 129 165 232 264 495 806 877 1170 1940
2020-06-29 10:30 5.51 756 19700 (2000) 40 (1954) 847 129 165 232 264 495 806 877 1170 1940
2020-06-29 09:30 5.50 749 19700 (2000) 40 (1954) 847 129 165 232 264 495 806 877 1170 1940
2020-06-29 08:30 5.51 756 19700 (2000) 40 (1954) 847 129 165 232 264 495 806 877 1170 1940
2020-06-29 07:30 5.51 756 19700 (2000) 40 (1954) 847 129 165 232 264 495 806 877 1170 1940
2020-06-29 06:30 5.52 762 19700 (2000) 40 (1954) 847 129 165 232 264 495 806 877 1170 1940
2020-06-29 05:30 5.52 762 19700 (2000) 40 (1954) 847 129 165 232 264 495 806 877 1170 1940
2020-06-29 04:30 5.52 762 19700 (2000) 40 (1954) 847 129 165 232 264 495 806 877 1170 1940
2020-06-29 03:30 5.52 762 19700 (2000) 40 (1954) 847 129 165 232 264 495 806 877 1170 1940
2020-06-29 02:30 5.51 756 19700 (2000) 40 (1954) 847 129 165 232 264 495 806 877 1170 1940
2020-06-29 01:30 5.51 756 19700 (2000) 40 (1954) 847 129 165 232 264 495 806 877 1170 1940
2020-06-29 00:30 5.52 762 19700 (2000) 40 (1954) 847 129 165 232 264 495 806 877 1170 1940
2020-06-28 23:30 5.51 756 5600 (2000) 42 (1954) 741 133 172 225 260 489 805 937 1240 2420
2020-06-28 22:30 5.51 756 5600 (2000) 42 (1954) 741 133 172 225 260 489 805 937 1240 2420
2020-06-28 21:30 5.51 756 5600 (2000) 42 (1954) 741 133 172 225 260 489 805 937 1240 2420
2020-06-28 20:30 5.52 762 5600 (2000) 42 (1954) 741 133 172 225 260 489 805 937 1240 2420
2020-06-28 19:30 5.51 756 5600 (2000) 42 (1954) 741 133 172 225 260 489 805 937 1240 2420
2020-06-28 18:30 5.50 749 5600 (2000) 42 (1954) 741 133 172 225 260 489 805 937 1240 2420
2020-06-28 17:30 5.47 730 5600 (2000) 42 (1954) 741 133 172 225 260 489 805 937 1240 2420
2020-06-28 16:30 5.51 756 5600 (2000) 42 (1954) 741 133 172 225 260 489 805 937 1240 2420
2020-06-28 15:30 5.52 762 5600 (2000) 42 (1954) 741 133 172 225 260 489 805 937 1240 2420
2020-06-28 14:30 5.52 762 5600 (2000) 42 (1954) 741 133 172 225 260 489 805 937 1240 2420
2020-06-28 13:30 5.52 762 5600 (2000) 42 (1954) 741 133 172 225 260 489 805 937 1240 2420
2020-06-28 12:30 5.53 768 5600 (2000) 42 (1954) 741 133 172 225 260 489 805 937 1240 2420
2020-06-28 11:30 5.53 768 5600 (2000) 42 (1954) 741 133 172 225 260 489 805 937 1240 2420
2020-06-28 10:30 5.53 768 5600 (2000) 42 (1954) 741 133 172 225 260 489 805 937 1240 2420
2020-06-28 09:30 5.53 768 5600 (2000) 42 (1954) 741 133 172 225 260 489 805 937 1240 2420
2020-06-28 08:30 5.54 775 5600 (2000) 42 (1954) 741 133 172 225 260 489 805 937 1240 2420
2020-06-28 07:30 5.55 781 5600 (2000) 42 (1954) 741 133 172 225 260 489 805 937 1240 2420
2020-06-28 06:30 5.54 775 5600 (2000) 42 (1954) 741 133 172 225 260 489 805 937 1240 2420
2020-06-28 05:30 5.55 781 5600 (2000) 42 (1954) 741 133 172 225 260 489 805 937 1240 2420
2020-06-28 04:30 5.54 775 5600 (2000) 42 (1954) 741 133 172 225 260 489 805 937 1240 2420
2020-06-28 03:30 5.53 768 5600 (2000) 42 (1954) 741 133 172 225 260 489 805 937 1240 2420
2020-06-28 02:30 5.53 768 5600 (2000) 42 (1954) 741 133 172 225 260 489 805 937 1240 2420
2020-06-28 01:30 5.53 768 5600 (2000) 42 (1954) 741 133 172 225 260 489 805 937 1240 2420
2020-06-27 23:30 5.53 768 4520 (1993) 44 (1954) 736 138 174 236 273 475 835 952 1390 2840
2020-06-27 22:30 5.51 756 4520 (1993) 44 (1954) 736 138 174 236 273 475 835 952 1390 2840
2020-06-27 21:30 5.53 768 4520 (1993) 44 (1954) 736 138 174 236 273 475 835 952 1390 2840
2020-06-27 20:30 5.52 762 4520 (1993) 44 (1954) 736 138 174 236 273 475 835 952 1390 2840
2020-06-27 19:30 5.53 768 4520 (1993) 44 (1954) 736 138 174 236 273 475 835 952 1390 2840
2020-06-27 18:30 5.53 768 4520 (1993) 44 (1954) 736 138 174 236 273 475 835 952 1390 2840
2020-06-27 17:30 5.54 775 4520 (1993) 44 (1954) 736 138 174 236 273 475 835 952 1390 2840
2020-06-27 16:30 5.54 775 4520 (1993) 44 (1954) 736 138 174 236 273 475 835 952 1390 2840
2020-06-27 15:30 5.53 768 4520 (1993) 44 (1954) 736 138 174 236 273 475 835 952 1390 2840
2020-06-27 14:30 5.53 768 4520 (1993) 44 (1954) 736 138 174 236 273 475 835 952 1390 2840
2020-06-27 13:30 5.54 775 4520 (1993) 44 (1954) 736 138 174 236 273 475 835 952 1390 2840
2020-06-27 12:30 5.54 775 4520 (1993) 44 (1954) 736 138 174 236 273 475 835 952 1390 2840
2020-06-27 11:30 5.53 768 4520 (1993) 44 (1954) 736 138 174 236 273 475 835 952 1390 2840
2020-06-27 10:30 5.54 775 4520 (1993) 44 (1954) 736 138 174 236 273 475 835 952 1390 2840
2020-06-27 09:30 5.54 775 4520 (1993) 44 (1954) 736 138 174 236 273 475 835 952 1390 2840
2020-06-27 08:30 5.55 781 4520 (1993) 44 (1954) 736 138 174 236 273 475 835 952 1390 2840
2020-06-27 07:30 5.55 781 4520 (1993) 44 (1954) 736 138 174 236 273 475 835 952 1390 2840
2020-06-27 06:30 5.55 781 4520 (1993) 44 (1954) 736 138 174 236 273 475 835 952 1390 2840
2020-06-27 05:30 5.56 788 4520 (1993) 44 (1954) 736 138 174 236 273 475 835 952 1390 2840
2020-06-27 04:30 5.56 788 4520 (1993) 44 (1954) 736 138 174 236 273 475 835 952 1390 2840
2020-06-27 02:30 5.55 781 4520 (1993) 44 (1954) 736 138 174 236 273 475 835 952 1390 2840
2020-06-27 01:30 5.55 781 4520 (1993) 44 (1954) 736 138 174 236 273 475 835 952 1390 2840
2020-06-27 00:30 5.56 788 4520 (1993) 44 (1954) 736 138 174 236 273 475 835 952 1390 2840
2020-06-26 23:30 5.55 781 5050 (2000) 49 (1954) 750 147 169 261 293 509 930 1040 1340 2740
2020-06-26 22:30 5.56 788 5050 (2000) 49 (1954) 750 147 169 261 293 509 930 1040 1340 2740
2020-06-26 21:30 5.55 781 5050 (2000) 49 (1954) 750 147 169 261 293 509 930 1040 1340 2740
2020-06-26 20:30 5.55 781 5050 (2000) 49 (1954) 750 147 169 261 293 509 930 1040 1340 2740
2020-06-26 19:30 5.56 788 5050 (2000) 49 (1954) 750 147 169 261 293 509 930 1040 1340 2740
2020-06-26 18:30 5.55 781 5050 (2000) 49 (1954) 750 147 169 261 293 509 930 1040 1340 2740
2020-06-26 17:30 5.56 788 5050 (2000) 49 (1954) 750 147 169 261 293 509 930 1040 1340 2740
2020-06-26 16:30 5.56 788 5050 (2000) 49 (1954) 750 147 169 261 293 509 930 1040 1340 2740
2020-06-26 15:30 5.56 788 5050 (2000) 49 (1954) 750 147 169 261 293 509 930 1040 1340 2740
2020-06-26 14:30 5.57 794 5050 (2000) 49 (1954) 750 147 169 261 293 509 930 1040 1340 2740
2020-06-26 13:30 5.56 788 5050 (2000) 49 (1954) 750 147 169 261 293 509 930 1040 1340 2740
2020-06-26 12:30 5.55 781 5050 (2000) 49 (1954) 750 147 169 261 293 509 930 1040 1340 2740
2020-06-26 11:30 5.56 788 5050 (2000) 49 (1954) 750 147 169 261 293 509 930 1040 1340 2740
2020-06-26 10:30 5.56 788 5050 (2000) 49 (1954) 750 147 169 261 293 509 930 1040 1340 2740
2020-06-26 09:30 5.56 788 5050 (2000) 49 (1954) 750 147 169 261 293 509 930 1040 1340 2740
2020-06-26 08:30 5.57 794 5050 (2000) 49 (1954) 750 147 169 261 293 509 930 1040 1340 2740
2020-06-26 07:30 5.57 794 5050 (2000) 49 (1954) 750 147 169 261 293 509 930 1040 1340 2740
2020-06-26 06:30 5.57 794 5050 (2000) 49 (1954) 750 147 169 261 293 509 930 1040 1340 2740
2020-06-26 05:30 5.58 801 5050 (2000) 49 (1954) 750 147 169 261 293 509 930 1040 1340 2740
2020-06-26 04:30 5.57 794 5050 (2000) 49 (1954) 750 147 169 261 293 509 930 1040 1340 2740
2020-06-26 03:30 5.58 801 5050 (2000) 49 (1954) 750 147 169 261 293 509 930 1040 1340 2740
2020-06-26 02:30 5.57 794 5050 (2000) 49 (1954) 750 147 169 261 293 509 930 1040 1340 2740
2020-06-26 01:30 5.58 801 5050 (2000) 49 (1954) 750 147 169 261 293 509 930 1040 1340 2740
2020-06-26 00:30 5.56 788 5050 (2000) 49 (1954) 750 147 169 261 293 509 930 1040 1340 2740
2020-06-25 23:30 5.58 801 5830 (2000) 52 (1954) 761 150 175 262 302 512 907 1070 1440 2160
2020-06-25 22:30 5.58 801 5830 (2000) 52 (1954) 761 150 175 262 302 512 907 1070 1440 2160
2020-06-25 21:30 5.58 801 5830 (2000) 52 (1954) 761 150 175 262 302 512 907 1070 1440 2160
2020-06-25 20:30 5.57 794 5830 (2000) 52 (1954) 761 150 175 262 302 512 907 1070 1440 2160
2020-06-25 19:30 5.57 794 5830 (2000) 52 (1954) 761 150 175 262 302 512 907 1070 1440 2160
2020-06-25 18:30 5.56 788 5830 (2000) 52 (1954) 761 150 175 262 302 512 907 1070 1440 2160
2020-06-25 17:30 5.58 801 5830 (2000) 52 (1954) 761 150 175 262 302 512 907 1070 1440 2160
2020-06-25 16:30 5.58 801 5830 (2000) 52 (1954) 761 150 175 262 302 512 907 1070 1440 2160
2020-06-25 15:30 5.58 801 5830 (2000) 52 (1954) 761 150 175 262 302 512 907 1070 1440 2160
2020-06-25 14:30 5.58 801 5830 (2000) 52 (1954) 761 150 175 262 302 512 907 1070 1440 2160
2020-06-25 13:30 5.58 801 5830 (2000) 52 (1954) 761 150 175 262 302 512 907 1070 1440 2160
2020-06-25 12:30 5.57 794 5830 (2000) 52 (1954) 761 150 175 262 302 512 907 1070 1440 2160
2020-06-25 11:30 5.59 807 5830 (2000) 52 (1954) 761 150 175 262 302 512 907 1070 1440 2160
2020-06-25 10:30 5.59 807 5830 (2000) 52 (1954) 761 150 175 262 302 512 907 1070 1440 2160
2020-06-25 09:30 5.57 794 5830 (2000) 52 (1954) 761 150 175 262 302 512 907 1070 1440 2160
2020-06-25 08:30 5.59 807 5830 (2000) 52 (1954) 761 150 175 262 302 512 907 1070 1440 2160
2020-06-25 07:30 5.59 807 5830 (2000) 52 (1954) 761 150 175 262 302 512 907 1070 1440 2160
2020-06-25 06:30 5.59 807 5830 (2000) 52 (1954) 761 150 175 262 302 512 907 1070 1440 2160
2020-06-25 05:30 5.59 807 5830 (2000) 52 (1954) 761 150 175 262 302 512 907 1070 1440 2160
2020-06-25 04:30 5.59 807 5830 (2000) 52 (1954) 761 150 175 262 302 512 907 1070 1440 2160
2020-06-25 03:30 5.59 807 5830 (2000) 52 (1954) 761 150 175 262 302 512 907 1070 1440 2160
2020-06-25 02:30 5.58 801 5830 (2000) 52 (1954) 761 150 175 262 302 512 907 1070 1440 2160
2020-06-25 01:30 5.59 807 5830 (2000) 52 (1954) 761 150 175 262 302 512 907 1070 1440 2160
2020-06-25 00:30 5.60 814 5830 (2000) 52 (1954) 761 150 175 262 302 512 907 1070 1440 2160
2020-06-24 23:30 5.59 807 6710 (2000) 58 (1936) 743 152 176 269 303 492 934 980 1390 2530
2020-06-24 22:30 5.60 814 6710 (2000) 58 (1936) 743 152 176 269 303 492 934 980 1390 2530
2020-06-24 21:30 5.60 814 6710 (2000) 58 (1936) 743 152 176 269 303 492 934 980 1390 2530
2020-06-24 20:30 5.58 801 6710 (2000) 58 (1936) 743 152 176 269 303 492 934 980 1390 2530
2020-06-24 19:30 5.59 807 6710 (2000) 58 (1936) 743 152 176 269 303 492 934 980 1390 2530
2020-06-24 18:30 5.60 814 6710 (2000) 58 (1936) 743 152 176 269 303 492 934 980 1390 2530
2020-06-24 17:30 5.57 794 6710 (2000) 58 (1936) 743 152 176 269 303 492 934 980 1390 2530
2020-06-24 16:30 5.57 794 6710 (2000) 58 (1936) 743 152 176 269 303 492 934 980 1390 2530
2020-06-24 15:30 5.58 801 6710 (2000) 58 (1936) 743 152 176 269 303 492 934 980 1390 2530
2020-06-24 14:30 5.60 814 6710 (2000) 58 (1936) 743 152 176 269 303 492 934 980 1390 2530
2020-06-24 13:30 5.59 807 6710 (2000) 58 (1936) 743 152 176 269 303 492 934 980 1390 2530
2020-06-24 12:30 5.60 814 6710 (2000) 58 (1936) 743 152 176 269 303 492 934 980 1390 2530
2020-06-24 11:30 5.61 821 6710 (2000) 58 (1936) 743 152 176 269 303 492 934 980 1390 2530
2020-06-24 10:30 5.62 827 6710 (2000) 58 (1936) 743 152 176 269 303 492 934 980 1390 2530
2020-06-24 09:30 5.61 821 6710 (2000) 58 (1936) 743 152 176 269 303 492 934 980 1390 2530
2020-06-24 08:30 5.61 821 6710 (2000) 58 (1936) 743 152 176 269 303 492 934 980 1390 2530
2020-06-24 07:30 5.62 827 6710 (2000) 58 (1936) 743 152 176 269 303 492 934 980 1390 2530
2020-06-24 06:30 5.63 834 6710 (2000) 58 (1936) 743 152 176 269 303 492 934 980 1390 2530
2020-06-24 05:30 5.62 827 6710 (2000) 58 (1936) 743 152 176 269 303 492 934 980 1390 2530
2020-06-24 04:30 5.62 827 6710 (2000) 58 (1936) 743 152 176 269 303 492 934 980 1390 2530
2020-06-24 03:30 5.63 834 6710 (2000) 58 (1936) 743 152 176 269 303 492 934 980 1390 2530
2020-06-24 02:30 5.63 834 6710 (2000) 58 (1936) 743 152 176 269 303 492 934 980 1390 2530
2020-06-24 01:30 5.63 834 6710 (2000) 58 (1936) 743 152 176 269 303 492 934 980 1390 2530
2020-06-24 00:30 5.62 827 6710 (2000) 58 (1936) 743 152 176 269 303 492 934 980 1390 2530
2020-06-23 23:30 5.63 834 20400 (2000) 61 (1936) 966 140 179 272 316 480 1010 1080 1310 3100
2020-06-23 22:30 5.63 834 20400 (2000) 61 (1936) 966 140 179 272 316 480 1010 1080 1310 3100
2020-06-23 21:30 5.63 834 20400 (2000) 61 (1936) 966 140 179 272 316 480 1010 1080 1310 3100
2020-06-23 20:30 5.63 834 20400 (2000) 61 (1936) 966 140 179 272 316 480 1010 1080 1310 3100
2020-06-23 19:30 5.63 834 20400 (2000) 61 (1936) 966 140 179 272 316 480 1010 1080 1310 3100
2020-06-23 18:30 5.61 821 20400 (2000) 61 (1936) 966 140 179 272 316 480 1010 1080 1310 3100
2020-06-23 17:30 5.61 821 20400 (2000) 61 (1936) 966 140 179 272 316 480 1010 1080 1310 3100
2020-06-23 16:30 5.62 827 20400 (2000) 61 (1936) 966 140 179 272 316 480 1010 1080 1310 3100
2020-06-23 15:30 5.63 834 20400 (2000) 61 (1936) 966 140 179 272 316 480 1010 1080 1310 3100
2020-06-23 14:30 5.62 827 20400 (2000) 61 (1936) 966 140 179 272 316 480 1010 1080 1310 3100
2020-06-23 13:30 5.61 821 20400 (2000) 61 (1936) 966 140 179 272 316 480 1010 1080 1310 3100
2020-06-23 12:30 5.63 969 20400 (2000) 61 (1936) 966 140 179 272 316 480 1010 1080 1310 3100
2020-06-23 11:30 5.63 969 20400 (2000) 61 (1936) 966 140 179 272 316 480 1010 1080 1310 3100
2020-06-23 10:30 5.62 962 20400 (2000) 61 (1936) 966 140 179 272 316 480 1010 1080 1310 3100
2020-06-23 09:30 5.62 962 20400 (2000) 61 (1936) 966 140 179 272 316 480 1010 1080 1310 3100
2020-06-23 08:30 5.63 969 20400 (2000) 61 (1936) 966 140 179 272 316 480 1010 1080 1310 3100
2020-06-23 07:30 5.62 962 20400 (2000) 61 (1936) 966 140 179 272 316 480 1010 1080 1310 3100
2020-06-23 06:30 5.64 976 20400 (2000) 61 (1936) 966 140 179 272 316 480 1010 1080 1310 3100
2020-06-23 05:30 5.64 976 20400 (2000) 61 (1936) 966 140 179 272 316 480 1010 1080 1310 3100
2020-06-23 04:30 5.65 984 20400 (2000) 61 (1936) 966 140 179 272 316 480 1010 1080 1310 3100
2020-06-23 03:30 5.64 976 20400 (2000) 61 (1936) 966 140 179 272 316 480 1010 1080 1310 3100
2020-06-23 02:30 5.63 969 20400 (2000) 61 (1936) 966 140 179 272 316 480 1010 1080 1310 3100
2020-06-23 01:30 5.63 969 20400 (2000) 61 (1936) 966 140 179 272 316 480 1010 1080 1310 3100
2020-06-23 00:30 5.63 969 20400 (2000) 61 (1936) 966 140 179 272 316 480 1010 1080 1310 3100
2020-06-22 23:30 5.64 976 32800 (2000) 63 (1936) 1160 140 186 280 325 492 1050 1180 1420 2590
2020-06-22 22:30 5.65 984 32800 (2000) 63 (1936) 1160 140 186 280 325 492 1050 1180 1420 2590
2020-06-22 21:30 5.64 976 32800 (2000) 63 (1936) 1160 140 186 280 325 492 1050 1180 1420 2590
2020-06-22 20:30 5.63 969 32800 (2000) 63 (1936) 1160 140 186 280 325 492 1050 1180 1420 2590
2020-06-22 19:30 5.64 976 32800 (2000) 63 (1936) 1160 140 186 280 325 492 1050 1180 1420 2590
2020-06-22 18:30 5.64 976 32800 (2000) 63 (1936) 1160 140 186 280 325 492 1050 1180 1420 2590
2020-06-22 17:30 5.62 962 32800 (2000) 63 (1936) 1160 140 186 280 325 492 1050 1180 1420 2590
2020-06-22 16:30 5.62 962 32800 (2000) 63 (1936) 1160 140 186 280 325 492 1050 1180 1420 2590
2020-06-22 15:30 5.64 976 32800 (2000) 63 (1936) 1160 140 186 280 325 492 1050 1180 1420 2590
2020-06-22 14:30 5.65 984 32800 (2000) 63 (1936) 1160 140 186 280 325 492 1050 1180 1420 2590
2020-06-22 13:30 5.64 976 32800 (2000) 63 (1936) 1160 140 186 280 325 492 1050 1180 1420 2590
2020-06-22 12:30 5.65 984 32800 (2000) 63 (1936) 1160 140 186 280 325 492 1050 1180 1420 2590
2020-06-22 11:30 5.65 984 32800 (2000) 63 (1936) 1160 140 186 280 325 492 1050 1180 1420 2590
2020-06-22 10:30 5.64 976 32800 (2000) 63 (1936) 1160 140 186 280 325 492 1050 1180 1420 2590
2020-06-22 09:30 5.65 984 32800 (2000) 63 (1936) 1160 140 186 280 325 492 1050 1180 1420 2590
2020-06-22 08:30 5.67 999 32800 (2000) 63 (1936) 1160 140 186 280 325 492 1050 1180 1420 2590
2020-06-22 07:30 5.66 991 32800 (2000) 63 (1936) 1160 140 186 280 325 492 1050 1180 1420 2590
2020-06-22 06:30 5.65 984 32800 (2000) 63 (1936) 1160 140 186 280 325 492 1050 1180 1420 2590
2020-06-22 05:30 5.65 984 32800 (2000) 63 (1936) 1160 140 186 280 325 492 1050 1180 1420 2590
2020-06-22 04:30 5.67 999 32800 (2000) 63 (1936) 1160 140 186 280 325 492 1050 1180 1420 2590
2020-06-22 03:30 5.67 999 32800 (2000) 63 (1936) 1160 140 186 280 325 492 1050 1180 1420 2590
2020-06-22 02:30 5.66 991 32800 (2000) 63 (1936) 1160 140 186 280 325 492 1050 1180 1420 2590
2020-06-22 01:30 5.66 991 32800 (2000) 63 (1936) 1160 140 186 280 325 492 1050 1180 1420 2590
2020-06-22 00:30 5.66 991 32800 (2000) 63 (1936) 1160 140 186 280 325 492 1050 1180 1420 2590
2020-06-21 23:30 5.64 976 11600 (2000) 67 (1936) 940 145 195 287 320 516 947 1160 1650 3030
2020-06-21 22:30 5.66 991 11600 (2000) 67 (1936) 940 145 195 287 320 516 947 1160 1650 3030
2020-06-21 21:30 5.68 1010 11600 (2000) 67 (1936) 940 145 195 287 320 516 947 1160 1650 3030
2020-06-21 20:30 5.65 984 11600 (2000) 67 (1936) 940 145 195 287 320 516 947 1160 1650 3030
2020-06-21 19:30 5.67 999 11600 (2000) 67 (1936) 940 145 195 287 320 516 947 1160 1650 3030
2020-06-21 18:30 5.69 1010 11600 (2000) 67 (1936) 940 145 195 287 320 516 947 1160 1650 3030
2020-06-21 17:30 5.69 1010 11600 (2000) 67 (1936) 940 145 195 287 320 516 947 1160 1650 3030
2020-06-21 16:30 5.67 999 11600 (2000) 67 (1936) 940 145 195 287 320 516 947 1160 1650 3030
2020-06-21 15:30 5.67 999 11600 (2000) 67 (1936) 940 145 195 287 320 516 947 1160 1650 3030
2020-06-21 14:30 5.68 1010 11600 (2000) 67 (1936) 940 145 195 287 320 516 947 1160 1650 3030
2020-06-21 13:30 5.69 1010 11600 (2000) 67 (1936) 940 145 195 287 320 516 947 1160 1650 3030
2020-06-21 12:30 5.69 1010 11600 (2000) 67 (1936) 940 145 195 287 320 516 947 1160 1650 3030
2020-06-21 10:30 5.68 1010 11600 (2000) 67 (1936) 940 145 195 287 320 516 947 1160 1650 3030
2020-06-21 09:30 5.67 999 11600 (2000) 67 (1936) 940 145 195 287 320 516 947 1160 1650 3030
2020-06-21 08:30 5.68 1010 11600 (2000) 67 (1936) 940 145 195 287 320 516 947 1160 1650 3030
2020-06-21 07:30 5.69 1010 11600 (2000) 67 (1936) 940 145 195 287 320 516 947 1160 1650 3030
2020-06-21 06:30 5.69 1010 11600 (2000) 67 (1936) 940 145 195 287 320 516 947 1160 1650 3030
2020-06-21 05:30 5.68 1010 11600 (2000) 67 (1936) 940 145 195 287 320 516 947 1160 1650 3030
2020-06-21 04:30 5.68 1010 11600 (2000) 67 (1936) 940 145 195 287 320 516 947 1160 1650 3030
2020-06-21 03:30 5.69 1010 11600 (2000) 67 (1936) 940 145 195 287 320 516 947 1160 1650 3030
2020-06-21 02:30 5.69 1010 11600 (2000) 67 (1936) 940 145 195 287 320 516 947 1160 1650 3030
2020-06-21 01:30 5.68 1010 11600 (2000) 67 (1936) 940 145 195 287 320 516 947 1160 1650 3030
2020-06-21 00:30 5.68 1010 11600 (2000) 67 (1936) 940 145 195 287 320 516 947 1160 1650 3030
2020-06-20 23:30 5.67 999 18200 (2015) 67 (1936) 1030 151 180 281 323 513 1060 1200 1910 3120
2020-06-20 22:30 5.67 999 18200 (2015) 67 (1936) 1030 151 180 281 323 513 1060 1200 1910 3120
2020-06-20 21:30 5.67 999 18200 (2015) 67 (1936) 1030 151 180 281 323 513 1060 1200 1910 3120
2020-06-20 20:30 5.67 999 18200 (2015) 67 (1936) 1030 151 180 281 323 513 1060 1200 1910 3120
2020-06-20 19:30 5.68 1010 18200 (2015) 67 (1936) 1030 151 180 281 323 513 1060 1200 1910 3120
2020-06-20 18:30 5.68 1010 18200 (2015) 67 (1936) 1030 151 180 281 323 513 1060 1200 1910 3120
2020-06-20 17:30 5.68 1010 18200 (2015) 67 (1936) 1030 151 180 281 323 513 1060 1200 1910 3120
2020-06-20 16:30 5.70 1020 18200 (2015) 67 (1936) 1030 151 180 281 323 513 1060 1200 1910 3120
2020-06-20 15:30 5.69 1010 18200 (2015) 67 (1936) 1030 151 180 281 323 513 1060 1200 1910 3120
2020-06-20 14:30 5.71 1030 18200 (2015) 67 (1936) 1030 151 180 281 323 513 1060 1200 1910 3120
2020-06-20 13:30 5.69 1010 18200 (2015) 67 (1936) 1030 151 180 281 323 513 1060 1200 1910 3120
2020-06-20 12:30 5.69 1010 18200 (2015) 67 (1936) 1030 151 180 281 323 513 1060 1200 1910 3120
2020-06-20 11:30 5.70 1020 18200 (2015) 67 (1936) 1030 151 180 281 323 513 1060 1200 1910 3120
2020-06-20 10:30 5.73 1050 18200 (2015) 67 (1936) 1030 151 180 281 323 513 1060 1200 1910 3120
2020-06-20 09:30 5.71 1030 18200 (2015) 67 (1936) 1030 151 180 281 323 513 1060 1200 1910 3120
2020-06-20 08:30 5.72 1040 18200 (2015) 67 (1936) 1030 151 180 281 323 513 1060 1200 1910 3120
2020-06-20 07:30 5.72 1040 18200 (2015) 67 (1936) 1030 151 180 281 323 513 1060 1200 1910 3120
2020-06-20 06:30 5.73 1050 18200 (2015) 67 (1936) 1030 151 180 281 323 513 1060 1200 1910 3120
2020-06-20 05:30 5.72 1040 18200 (2015) 67 (1936) 1030 151 180 281 323 513 1060 1200 1910 3120
2020-06-20 04:30 5.72 1040 18200 (2015) 67 (1936) 1030 151 180 281 323 513 1060 1200 1910 3120
2020-06-20 03:30 5.71 1030 18200 (2015) 67 (1936) 1030 151 180 281 323 513 1060 1200 1910 3120
2020-06-20 02:30 5.71 1030 18200 (2015) 67 (1936) 1030 151 180 281 323 513 1060 1200 1910 3120
2020-06-20 01:30 5.72 1040 18200 (2015) 67 (1936) 1030 151 180 281 323 513 1060 1200 1910 3120
2020-06-20 00:30 5.72 1040 18200 (2015) 67 (1936) 1030 151 180 281 323 513 1060 1200 1910 3120
2020-06-19 23:30 5.71 1030 11300 (2015) 72 (1936) 1050 152 174 271 347 532 1120 1390 1920 2870
2020-06-19 22:30 5.73 1050 11300 (2015) 72 (1936) 1050 152 174 271 347 532 1120 1390 1920 2870
2020-06-19 21:30 5.72 1040 11300 (2015) 72 (1936) 1050 152 174 271 347 532 1120 1390 1920 2870
2020-06-19 20:30 5.71 1030 11300 (2015) 72 (1936) 1050 152 174 271 347 532 1120 1390 1920 2870
2020-06-19 19:30 5.72 1040 11300 (2015) 72 (1936) 1050 152 174 271 347 532 1120 1390 1920 2870
2020-06-19 18:30 5.72 1040 11300 (2015) 72 (1936) 1050 152 174 271 347 532 1120 1390 1920 2870
2020-06-19 17:30 5.73 1050 11300 (2015) 72 (1936) 1050 152 174 271 347 532 1120 1390 1920 2870
2020-06-19 16:30 5.72 1040 11300 (2015) 72 (1936) 1050 152 174 271 347 532 1120 1390 1920 2870
2020-06-19 15:30 5.69 1010 11300 (2015) 72 (1936) 1050 152 174 271 347 532 1120 1390 1920 2870
2020-06-19 14:30 5.73 1050 11300 (2015) 72 (1936) 1050 152 174 271 347 532 1120 1390 1920 2870
2020-06-19 13:30 5.73 1050 11300 (2015) 72 (1936) 1050 152 174 271 347 532 1120 1390 1920 2870
2020-06-19 12:30 5.73 1050 11300 (2015) 72 (1936) 1050 152 174 271 347 532 1120 1390 1920 2870
2020-06-19 11:30 5.75 1060 11300 (2015) 72 (1936) 1050 152 174 271 347 532 1120 1390 1920 2870
2020-06-19 10:30 5.77 1080 11300 (2015) 72 (1936) 1050 152 174 271 347 532 1120 1390 1920 2870
2020-06-19 09:30 5.76 1070 11300 (2015) 72 (1936) 1050 152 174 271 347 532 1120 1390 1920 2870
2020-06-19 08:30 5.77 1080 11300 (2015) 72 (1936) 1050 152 174 271 347 532 1120 1390 1920 2870
2020-06-19 07:30 5.76 1070 11300 (2015) 72 (1936) 1050 152 174 271 347 532 1120 1390 1920 2870
2020-06-19 06:30 5.77 1080 11300 (2015) 72 (1936) 1050 152 174 271 347 532 1120 1390 1920 2870
2020-06-19 05:30 5.78 1080 11300 (2015) 72 (1936) 1050 152 174 271 347 532 1120 1390 1920 2870
2020-06-19 04:30 5.78 1080 11300 (2015) 72 (1936) 1050 152 174 271 347 532 1120 1390 1920 2870
2020-06-19 03:30 5.77 1080 11300 (2015) 72 (1936) 1050 152 174 271 347 532 1120 1390 1920 2870
2020-06-19 02:30 5.79 1090 11300 (2015) 72 (1936) 1050 152 174 271 347 532 1120 1390 1920 2870
2020-06-19 01:30 5.77 1080 11300 (2015) 72 (1936) 1050 152 174 271 347 532 1120 1390 1920 2870
2020-06-19 00:30 5.80 1100 11300 (2015) 72 (1936) 1050 152 174 271 347 532 1120 1390 1920 2870
2020-06-18 23:30 5.79 1090 14500 (2000) 76 (1936) 1120 151 178 277 339 556 1310 1480 2320 3910
2020-06-18 22:30 5.79 1090 14500 (2000) 76 (1936) 1120 151 178 277 339 556 1310 1480 2320 3910
2020-06-18 21:30 5.79 1090 14500 (2000) 76 (1936) 1120 151 178 277 339 556 1310 1480 2320 3910
2020-06-18 20:30 5.81 1110 14500 (2000) 76 (1936) 1120 151 178 277 339 556 1310 1480 2320 3910
2020-06-18 19:30 5.79 1090 14500 (2000) 76 (1936) 1120 151 178 277 339 556 1310 1480 2320 3910
2020-06-18 18:30 5.81 1110 14500 (2000) 76 (1936) 1120 151 178 277 339 556 1310 1480 2320 3910
2020-06-18 17:30 5.82 1120 14500 (2000) 76 (1936) 1120 151 178 277 339 556 1310 1480 2320 3910
2020-06-18 16:30 5.80 1100 14500 (2000) 76 (1936) 1120 151 178 277 339 556 1310 1480 2320 3910
2020-06-18 15:30 5.80 1100 14500 (2000) 76 (1936) 1120 151 178 277 339 556 1310 1480 2320 3910
2020-06-18 14:30 5.79 1090 14500 (2000) 76 (1936) 1120 151 178 277 339 556 1310 1480 2320 3910
2020-06-18 13:30 5.80 1100 14500 (2000) 76 (1936) 1120 151 178 277 339 556 1310 1480 2320 3910
2020-06-18 12:30 5.80 1100 14500 (2000) 76 (1936) 1120 151 178 277 339 556 1310 1480 2320 3910
2020-06-18 11:30 5.79 1090 14500 (2000) 76 (1936) 1120 151 178 277 339 556 1310 1480 2320 3910
2020-06-18 10:30 5.77 1080 14500 (2000) 76 (1936) 1120 151 178 277 339 556 1310 1480 2320 3910
2020-06-18 09:30 5.77 1080 14500 (2000) 76 (1936) 1120 151 178 277 339 556 1310 1480 2320 3910
2020-06-18 08:30 5.78 1080 14500 (2000) 76 (1936) 1120 151 178 277 339 556 1310 1480 2320 3910
2020-06-18 07:30 5.76 1070 14500 (2000) 76 (1936) 1120 151 178 277 339 556 1310 1480 2320 3910
2020-06-18 06:30 5.76 1070 14500 (2000) 76 (1936) 1120 151 178 277 339 556 1310 1480 2320 3910
2020-06-18 05:30 5.78 1080 14500 (2000) 76 (1936) 1120 151 178 277 339 556 1310 1480 2320 3910
2020-06-18 04:30 5.77 1080 14500 (2000) 76 (1936) 1120 151 178 277 339 556 1310 1480 2320 3910
2020-06-18 03:30 5.77 1080 14500 (2000) 76 (1936) 1120 151 178 277 339 556 1310 1480 2320 3910
2020-06-18 02:30 5.76 1070 14500 (2000) 76 (1936) 1120 151 178 277 339 556 1310 1480 2320 3910
2020-06-18 01:30 5.75 1060 14500 (2000) 76 (1936) 1120 151 178 277 339 556 1310 1480 2320 3910
2020-06-18 00:30 5.76 1070 14500 (2000) 76 (1936) 1120 151 178 277 339 556 1310 1480 2320 3910
2020-06-17 23:30 5.76 1070 18200 (1982) 78 (1936) 1130 156 187 269 314 575 1440 1690 2180 2810
2020-06-17 22:30 5.77 1080 18200 (1982) 78 (1936) 1130 156 187 269 314 575 1440 1690 2180 2810
2020-06-17 21:30 5.76 1070 18200 (1982) 78 (1936) 1130 156 187 269 314 575 1440 1690 2180 2810
2020-06-17 20:30 5.78 1080 18200 (1982) 78 (1936) 1130 156 187 269 314 575 1440 1690 2180 2810
2020-06-17 19:30 5.77 1080 18200 (1982) 78 (1936) 1130 156 187 269 314 575 1440 1690 2180 2810
2020-06-17 18:30 5.76 1070 18200 (1982) 78 (1936) 1130 156 187 269 314 575 1440 1690 2180 2810
2020-06-17 17:30 5.78 1080 18200 (1982) 78 (1936) 1130 156 187 269 314 575 1440 1690 2180 2810
2020-06-17 16:30 5.77 1080 18200 (1982) 78 (1936) 1130 156 187 269 314 575 1440 1690 2180 2810
2020-06-17 15:30 5.77 1080 18200 (1982) 78 (1936) 1130 156 187 269 314 575 1440 1690 2180 2810
2020-06-17 14:30 5.77 1080 18200 (1982) 78 (1936) 1130 156 187 269 314 575 1440 1690 2180 2810
2020-06-17 13:30 5.77 1080 18200 (1982) 78 (1936) 1130 156 187 269 314 575 1440 1690 2180 2810
2020-06-17 12:30 5.78 1080 18200 (1982) 78 (1936) 1130 156 187 269 314 575 1440 1690 2180 2810
2020-06-17 11:30 5.80 1100 18200 (1982) 78 (1936) 1130 156 187 269 314 575 1440 1690 2180 2810
2020-06-17 10:30 5.80 1100 18200 (1982) 78 (1936) 1130 156 187 269 314 575 1440 1690 2180 2810
2020-06-17 09:30 5.79 1090 18200 (1982) 78 (1936) 1130 156 187 269 314 575 1440 1690 2180 2810
2020-06-17 08:30 5.79 1090 18200 (1982) 78 (1936) 1130 156 187 269 314 575 1440 1690 2180 2810
2020-06-17 07:30 5.80 1100 18200 (1982) 78 (1936) 1130 156 187 269 314 575 1440 1690 2180 2810
2020-06-17 06:30 5.80 1100 18200 (1982) 78 (1936) 1130 156 187 269 314 575 1440 1690 2180 2810
2020-06-17 05:30 5.80 1100 18200 (1982) 78 (1936) 1130 156 187 269 314 575 1440 1690 2180 2810
2020-06-17 04:30 5.80 1100 18200 (1982) 78 (1936) 1130 156 187 269 314 575 1440 1690 2180 2810
2020-06-17 02:30 5.80 1100 18200 (1982) 78 (1936) 1130 156 187 269 314 575 1440 1690 2180 2810
2020-06-17 01:30 5.80 1100 18200 (1982) 78 (1936) 1130 156 187 269 314 575 1440 1690 2180 2810
2020-06-16 23:30 5.80 1100 5680 (1982) 81 (1936) 1050 151 184 282 327 616 1270 1610 2800 3490
2020-06-16 22:30 5.79 1090 5680 (1982) 81 (1936) 1050 151 184 282 327 616 1270 1610 2800 3490
2020-06-16 21:30 5.81 1110 5680 (1982) 81 (1936) 1050 151 184 282 327 616 1270 1610 2800 3490
2020-06-16 20:30 5.79 1090 5680 (1982) 81 (1936) 1050 151 184 282 327 616 1270 1610 2800 3490
2020-06-16 19:30 5.80 1100 5680 (1982) 81 (1936) 1050 151 184 282 327 616 1270 1610 2800 3490
2020-06-16 18:30 5.81 1110 5680 (1982) 81 (1936) 1050 151 184 282 327 616 1270 1610 2800 3490
2020-06-16 17:30 5.81 1110 5680 (1982) 81 (1936) 1050 151 184 282 327 616 1270 1610 2800 3490
2020-06-16 16:30 5.79 1090 5680 (1982) 81 (1936) 1050 151 184 282 327 616 1270 1610 2800 3490
2020-06-16 15:30 5.79 1090 5680 (1982) 81 (1936) 1050 151 184 282 327 616 1270 1610 2800 3490
2020-06-16 14:30 5.82 1120 5680 (1982) 81 (1936) 1050 151 184 282 327 616 1270 1610 2800 3490
2020-06-16 13:30 5.81 1110 5680 (1982) 81 (1936) 1050 151 184 282 327 616 1270 1610 2800 3490
2020-06-16 12:30 5.83 1130 5680 (1982) 81 (1936) 1050 151 184 282 327 616 1270 1610 2800 3490
2020-06-16 11:30 5.83 1130 5680 (1982) 81 (1936) 1050 151 184 282 327 616 1270 1610 2800 3490
2020-06-16 10:30 5.82 1120 5680 (1982) 81 (1936) 1050 151 184 282 327 616 1270 1610 2800 3490
2020-06-16 09:30 5.83 1130 5680 (1982) 81 (1936) 1050 151 184 282 327 616 1270 1610 2800 3490
2020-06-16 08:30 5.83 1130 5680 (1982) 81 (1936) 1050 151 184 282 327 616 1270 1610 2800 3490
2020-06-16 07:30 5.83 1130 5680 (1982) 81 (1936) 1050 151 184 282 327 616 1270 1610 2800 3490
2020-06-16 06:30 5.83 1130 5680 (1982) 81 (1936) 1050 151 184 282 327 616 1270 1610 2800 3490
2020-06-16 05:30 5.85 1140 5680 (1982) 81 (1936) 1050 151 184 282 327 616 1270 1610 2800 3490
2020-06-16 04:30 5.83 1130 5680 (1982) 81 (1936) 1050 151 184 282 327 616 1270 1610 2800 3490
2020-06-16 03:30 5.83 1130 5680 (1982) 81 (1936) 1050 151 184 282 327 616 1270 1610 2800 3490
2020-06-16 02:30 5.85 1140 5680 (1982) 81 (1936) 1050 151 184 282 327 616 1270 1610 2800 3490
2020-06-16 01:30 5.84 1130 5680 (1982) 81 (1936) 1050 151 184 282 327 616 1270 1610 2800 3490
2020-06-16 00:30 5.84 1130 5680 (1982) 81 (1936) 1050 151 184 282 327 616 1270 1610 2800 3490
2020-06-15 23:30 5.85 1140 6440 (1989) 83 (1936) 1010 137 170 314 331 670 1240 1370 2210 3800
2020-06-15 22:30 5.86 1150 6440 (1989) 83 (1936) 1010 137 170 314 331 670 1240 1370 2210 3800
2020-06-15 21:30 5.85 1140 6440 (1989) 83 (1936) 1010 137 170 314 331 670 1240 1370 2210 3800
2020-06-15 20:30 5.85 1140 6440 (1989) 83 (1936) 1010 137 170 314 331 670 1240 1370 2210 3800
2020-06-15 19:30 5.85 1140 6440 (1989) 83 (1936) 1010 137 170 314 331 670 1240 1370 2210 3800
2020-06-15 18:30 5.86 1150 6440 (1989) 83 (1936) 1010 137 170 314 331 670 1240 1370 2210 3800
2020-06-15 17:30 5.86 1150 6440 (1989) 83 (1936) 1010 137 170 314 331 670 1240 1370 2210 3800
2020-06-15 16:30 5.86 1150 6440 (1989) 83 (1936) 1010 137 170 314 331 670 1240 1370 2210 3800
2020-06-15 15:30 5.87 1160 6440 (1989) 83 (1936) 1010 137 170 314 331 670 1240 1370 2210 3800
2020-06-15 14:30 5.87 1160 6440 (1989) 83 (1936) 1010 137 170 314 331 670 1240 1370 2210 3800
2020-06-15 13:30 5.87 1160 6440 (1989) 83 (1936) 1010 137 170 314 331 670 1240 1370 2210 3800
2020-06-15 12:30 5.87 1160 6440 (1989) 83 (1936) 1010 137 170 314 331 670 1240 1370 2210 3800
2020-06-15 11:30 5.88 1170 6440 (1989) 83 (1936) 1010 137 170 314 331 670 1240 1370 2210 3800
2020-06-15 10:30 5.87 1160 6440 (1989) 83 (1936) 1010 137 170 314 331 670 1240 1370 2210 3800
2020-06-15 09:30 5.88 1170 6440 (1989) 83 (1936) 1010 137 170 314 331 670 1240 1370 2210 3800
2020-06-15 08:30 5.89 1180 6440 (1989) 83 (1936) 1010 137 170 314 331 670 1240 1370 2210 3800
2020-06-15 07:30 5.90 1180 6440 (1989) 83 (1936) 1010 137 170 314 331 670 1240 1370 2210 3800
2020-06-15 06:30 5.90 1180 6440 (1989) 83 (1936) 1010 137 170 314 331 670 1240 1370 2210 3800
2020-06-15 05:30 5.91 1190 6440 (1989) 83 (1936) 1010 137 170 314 331 670 1240 1370 2210 3800
2020-06-15 04:30 5.90 1180 6440 (1989) 83 (1936) 1010 137 170 314 331 670 1240 1370 2210 3800
2020-06-15 03:30 5.89 1180 6440 (1989) 83 (1936) 1010 137 170 314 331 670 1240 1370 2210 3800
2020-06-15 02:30 5.89 1180 6440 (1989) 83 (1936) 1010 137 170 314 331 670 1240 1370 2210 3800
2020-06-15 00:30 5.90 1180 6440 (1989) 83 (1936) 1010 137 170 314 331 670 1240 1370 2210 3800
2020-06-14 23:30 5.89 1180 8120 (1989) 86 (1936) 1080 129 187 332 362 677 1180 1410 2760 3500
2020-06-14 22:30 5.85 1140 8120 (1989) 86 (1936) 1080 129 187 332 362 677 1180 1410 2760 3500
2020-06-14 21:30 5.91 1190 8120 (1989) 86 (1936) 1080 129 187 332 362 677 1180 1410 2760 3500
2020-06-14 20:30 5.90 1180 8120 (1989) 86 (1936) 1080 129 187 332 362 677 1180 1410 2760 3500
2020-06-14 19:30 5.89 1180 8120 (1989) 86 (1936) 1080 129 187 332 362 677 1180 1410 2760 3500
2020-06-14 18:30 5.90 1180 8120 (1989) 86 (1936) 1080 129 187 332 362 677 1180 1410 2760 3500
2020-06-14 17:30 5.90 1180 8120 (1989) 86 (1936) 1080 129 187 332 362 677 1180 1410 2760 3500
2020-06-14 16:30 5.90 1180 8120 (1989) 86 (1936) 1080 129 187 332 362 677 1180 1410 2760 3500
2020-06-14 15:30 5.94 1220 8120 (1989) 86 (1936) 1080 129 187 332 362 677 1180 1410 2760 3500
2020-06-14 14:30 5.92 1200 8120 (1989) 86 (1936) 1080 129 187 332 362 677 1180 1410 2760 3500
2020-06-14 13:30 5.93 1210 8120 (1989) 86 (1936) 1080 129 187 332 362 677 1180 1410 2760 3500
2020-06-14 12:30 5.92 1200 8120 (1989) 86 (1936) 1080 129 187 332 362 677 1180 1410 2760 3500
2020-06-14 11:30 5.93 1210 8120 (1989) 86 (1936) 1080 129 187 332 362 677 1180 1410 2760 3500
2020-06-14 10:30 5.93 1210 8120 (1989) 86 (1936) 1080 129 187 332 362 677 1180 1410 2760 3500
2020-06-14 09:30 5.92 1200 8120 (1989) 86 (1936) 1080 129 187 332 362 677 1180 1410 2760 3500
2020-06-14 08:30 5.94 1220 8120 (1989) 86 (1936) 1080 129 187 332 362 677 1180 1410 2760 3500
2020-06-14 07:30 5.95 1230 8120 (1989) 86 (1936) 1080 129 187 332 362 677 1180 1410 2760 3500
2020-06-14 06:30 5.95 1230 8120 (1989) 86 (1936) 1080 129 187 332 362 677 1180 1410 2760 3500
2020-06-14 05:30 5.94 1220 8120 (1989) 86 (1936) 1080 129 187 332 362 677 1180 1410 2760 3500
2020-06-14 04:30 5.94 1220 8120 (1989) 86 (1936) 1080 129 187 332 362 677 1180 1410 2760 3500
2020-06-14 03:30 5.95 1230 8120 (1989) 86 (1936) 1080 129 187 332 362 677 1180 1410 2760 3500
2020-06-14 02:30 5.95 1230 8120 (1989) 86 (1936) 1080 129 187 332 362 677 1180 1410 2760 3500
2020-06-14 01:30 5.93 1210 8120 (1989) 86 (1936) 1080 129 187 332 362 677 1180 1410 2760 3500
2020-06-14 00:30 5.95 1230 8120 (1989) 86 (1936) 1080 129 187 332 362 677 1180 1410 2760 3500
2020-06-13 23:30 5.95 1230 7660 (1945) 81 (1936) 1100 128 183 321 358 636 1200 1480 3140 3900
2020-06-13 22:30 5.95 1230 7660 (1945) 81 (1936) 1100 128 183 321 358 636 1200 1480 3140 3900
2020-06-13 21:30 5.95 1230 7660 (1945) 81 (1936) 1100 128 183 321 358 636 1200 1480 3140 3900
2020-06-13 20:30 5.94 1220 7660 (1945) 81 (1936) 1100 128 183 321 358 636 1200 1480 3140 3900
2020-06-13 19:30 5.96 1240 7660 (1945) 81 (1936) 1100 128 183 321 358 636 1200 1480 3140 3900
2020-06-13 18:30 5.96 1240 7660 (1945) 81 (1936) 1100 128 183 321 358 636 1200 1480 3140 3900
2020-06-13 17:30 5.94 1220 7660 (1945) 81 (1936) 1100 128 183 321 358 636 1200 1480 3140 3900
2020-06-13 16:30 5.94 1220 7660 (1945) 81 (1936) 1100 128 183 321 358 636 1200 1480 3140 3900
2020-06-13 15:30 5.96 1240 7660 (1945) 81 (1936) 1100 128 183 321 358 636 1200 1480 3140 3900
2020-06-13 14:30 5.95 1230 7660 (1945) 81 (1936) 1100 128 183 321 358 636 1200 1480 3140 3900
2020-06-13 13:30 5.99 1260 7660 (1945) 81 (1936) 1100 128 183 321 358 636 1200 1480 3140 3900
2020-06-13 12:30 5.97 1240 7660 (1945) 81 (1936) 1100 128 183 321 358 636 1200 1480 3140 3900
2020-06-13 11:30 5.98 1250 7660 (1945) 81 (1936) 1100 128 183 321 358 636 1200 1480 3140 3900
2020-06-13 10:30 5.99 1260 7660 (1945) 81 (1936) 1100 128 183 321 358 636 1200 1480 3140 3900
2020-06-13 09:30 5.99 1260 7660 (1945) 81 (1936) 1100 128 183 321 358 636 1200 1480 3140 3900
2020-06-13 08:30 5.99 1260 7660 (1945) 81 (1936) 1100 128 183 321 358 636 1200 1480 3140 3900
2020-06-13 07:30 6.00 1270 7660 (1945) 81 (1936) 1100 128 183 321 358 636 1200 1480 3140 3900
2020-06-13 06:30 6.01 1280 7660 (1945) 81 (1936) 1100 128 183 321 358 636 1200 1480 3140 3900
2020-06-13 05:30 6.00 1270 7660 (1945) 81 (1936) 1100 128 183 321 358 636 1200 1480 3140 3900
2020-06-13 04:30 6.00 1270 7660 (1945) 81 (1936) 1100 128 183 321 358 636 1200 1480 3140 3900
2020-06-13 03:30 6.00 1270 7660 (1945) 81 (1936) 1100 128 183 321 358 636 1200 1480 3140 3900
2020-06-13 02:30 6.00 1270 7660 (1945) 81 (1936) 1100 128 183 321 358 636 1200 1480 3140 3900
2020-06-13 01:30 6.00 1270 7660 (1945) 81 (1936) 1100 128 183 321 358 636 1200 1480 3140 3900
2020-06-13 00:30 6.01 1280 7660 (1945) 81 (1936) 1100 128 183 321 358 636 1200 1480 3140 3900
2020-06-12 23:30 6.00 1270 11800 (1945) 90 (1936) 1260 132 173 329 364 603 1440 1620 2430 5040
2020-06-12 22:30 6.02 1290 11800 (1945) 90 (1936) 1260 132 173 329 364 603 1440 1620 2430 5040
2020-06-12 21:30 6.02 1290 11800 (1945) 90 (1936) 1260 132 173 329 364 603 1440 1620 2430 5040
2020-06-12 20:30 6.02 1290 11800 (1945) 90 (1936) 1260 132 173 329 364 603 1440 1620 2430 5040
2020-06-12 19:30 6.02 1290 11800 (1945) 90 (1936) 1260 132 173 329 364 603 1440 1620 2430 5040
2020-06-12 18:30 6.03 1300 11800 (1945) 90 (1936) 1260 132 173 329 364 603 1440 1620 2430 5040
2020-06-12 17:30 6.03 1300 11800 (1945) 90 (1936) 1260 132 173 329 364 603 1440 1620 2430 5040
2020-06-12 16:30 6.04 1310 11800 (1945) 90 (1936) 1260 132 173 329 364 603 1440 1620 2430 5040
2020-06-12 15:30 6.03 1300 11800 (1945) 90 (1936) 1260 132 173 329 364 603 1440 1620 2430 5040
2020-06-12 14:30 6.03 1300 11800 (1945) 90 (1936) 1260 132 173 329 364 603 1440 1620 2430 5040
2020-06-12 13:30 6.04 1310 11800 (1945) 90 (1936) 1260 132 173 329 364 603 1440 1620 2430 5040
2020-06-12 12:30 6.06 1320 11800 (1945) 90 (1936) 1260 132 173 329 364 603 1440 1620 2430 5040
2020-06-12 11:30 6.05 1320 11800 (1945) 90 (1936) 1260 132 173 329 364 603 1440 1620 2430 5040
2020-06-12 10:30 6.06 1320 11800 (1945) 90 (1936) 1260 132 173 329 364 603 1440 1620 2430 5040
2020-06-12 09:30 6.06 1320 11800 (1945) 90 (1936) 1260 132 173 329 364 603 1440 1620 2430 5040
2020-06-12 08:30 6.06 1320 11800 (1945) 90 (1936) 1260 132 173 329 364 603 1440 1620 2430 5040
2020-06-12 07:30 6.06 1320 11800 (1945) 90 (1936) 1260 132 173 329 364 603 1440 1620 2430 5040
2020-06-12 06:30 6.07 1330 11800 (1945) 90 (1936) 1260 132 173 329 364 603 1440 1620 2430 5040
2020-06-12 05:30 6.08 1340 11800 (1945) 90 (1936) 1260 132 173 329 364 603 1440 1620 2430 5040
2020-06-12 04:30 6.09 1350 11800 (1945) 90 (1936) 1260 132 173 329 364 603 1440 1620 2430 5040
2020-06-12 03:30 6.08 1340 11800 (1945) 90 (1936) 1260 132 173 329 364 603 1440 1620 2430 5040
2020-06-12 02:30 6.09 1350 11800 (1945) 90 (1936) 1260 132 173 329 364 603 1440 1620 2430 5040
2020-06-12 01:30 6.10 1360 11800 (1945) 90 (1936) 1260 132 173 329 364 603 1440 1620 2430 5040
2020-06-11 23:30 6.09 1350 11000 (1974) 95 (1936) 1230 144 179 337 364 643 1200 1410 2420 5620
2020-06-11 22:30 6.10 1360 11000 (1974) 95 (1936) 1230 144 179 337 364 643 1200 1410 2420 5620
2020-06-11 21:30 6.09 1350 11000 (1974) 95 (1936) 1230 144 179 337 364 643 1200 1410 2420 5620
2020-06-11 20:30 6.09 1350 11000 (1974) 95 (1936) 1230 144 179 337 364 643 1200 1410 2420 5620
2020-06-11 19:30 6.10 1360 11000 (1974) 95 (1936) 1230 144 179 337 364 643 1200 1410 2420 5620
2020-06-11 18:30 6.08 1340 11000 (1974) 95 (1936) 1230 144 179 337 364 643 1200 1410 2420 5620
2020-06-11 17:30 6.10 1360 11000 (1974) 95 (1936) 1230 144 179 337 364 643 1200 1410 2420 5620
2020-06-11 16:30 6.10 1360 11000 (1974) 95 (1936) 1230 144 179 337 364 643 1200 1410 2420 5620
2020-06-11 15:30 6.12 1380 11000 (1974) 95 (1936) 1230 144 179 337 364 643 1200 1410 2420 5620
2020-06-11 14:30 6.12 1380 11000 (1974) 95 (1936) 1230 144 179 337 364 643 1200 1410 2420 5620
2020-06-11 13:30 6.13 1390 11000 (1974) 95 (1936) 1230 144 179 337 364 643 1200 1410 2420 5620
2020-06-11 12:30 6.12 1380 11000 (1974) 95 (1936) 1230 144 179 337 364 643 1200 1410 2420 5620
2020-06-11 11:30 6.15 1410 11000 (1974) 95 (1936) 1230 144 179 337 364 643 1200 1410 2420 5620
2020-06-11 10:30 6.14 1400 11000 (1974) 95 (1936) 1230 144 179 337 364 643 1200 1410 2420 5620
2020-06-11 09:30 6.14 1400 11000 (1974) 95 (1936) 1230 144 179 337 364 643 1200 1410 2420 5620
2020-06-11 08:30 6.15 1410 11000 (1974) 95 (1936) 1230 144 179 337 364 643 1200 1410 2420 5620
2020-06-11 07:30 6.16 1420 11000 (1974) 95 (1936) 1230 144 179 337 364 643 1200 1410 2420 5620
2020-06-11 06:30 6.16 1420 11000 (1974) 95 (1936) 1230 144 179 337 364 643 1200 1410 2420 5620
2020-06-11 05:30 6.15 1410 11000 (1974) 95 (1936) 1230 144 179 337 364 643 1200 1410 2420 5620
2020-06-11 04:30 6.17 1430 11000 (1974) 95 (1936) 1230 144 179 337 364 643 1200 1410 2420 5620
2020-06-11 03:30 6.17 1430 11000 (1974) 95 (1936) 1230 144 179 337 364 643 1200 1410 2420 5620
2020-06-11 02:30 6.17 1430 11000 (1974) 95 (1936) 1230 144 179 337 364 643 1200 1410 2420 5620
2020-06-11 01:30 6.17 1430 11000 (1974) 95 (1936) 1230 144 179 337 364 643 1200 1410 2420 5620
2020-06-11 00:30 6.20 1460 11000 (1974) 95 (1936) 1230 144 179 337 364 643 1200 1410 2420 5620
2020-06-10 23:30 6.17 1430 27400 (1974) 93 (1936) 1290 140 189 340 377 638 1050 1220 2510 4630
2020-06-10 22:30 6.18 1440 27400 (1974) 93 (1936) 1290 140 189 340 377 638 1050 1220 2510 4630
2020-06-10 21:30 6.18 1440 27400 (1974) 93 (1936) 1290 140 189 340 377 638 1050 1220 2510 4630
2020-06-10 20:30 6.17 1430 27400 (1974) 93 (1936) 1290 140 189 340 377 638 1050 1220 2510 4630
2020-06-10 19:30 6.17 1430 27400 (1974) 93 (1936) 1290 140 189 340 377 638 1050 1220 2510 4630
2020-06-10 18:30 6.19 1450 27400 (1974) 93 (1936) 1290 140 189 340 377 638 1050 1220 2510 4630
2020-06-10 17:30 6.19 1450 27400 (1974) 93 (1936) 1290 140 189 340 377 638 1050 1220 2510 4630
2020-06-10 16:30 6.20 1460 27400 (1974) 93 (1936) 1290 140 189 340 377 638 1050 1220 2510 4630
2020-06-10 15:30 6.20 1460 27400 (1974) 93 (1936) 1290 140 189 340 377 638 1050 1220 2510 4630
2020-06-10 14:30 6.21 1470 27400 (1974) 93 (1936) 1290 140 189 340 377 638 1050 1220 2510 4630
2020-06-10 13:30 6.20 1460 27400 (1974) 93 (1936) 1290 140 189 340 377 638 1050 1220 2510 4630
2020-06-10 12:30 6.21 1470 27400 (1974) 93 (1936) 1290 140 189 340 377 638 1050 1220 2510 4630
2020-06-10 11:30 6.21 1470 27400 (1974) 93 (1936) 1290 140 189 340 377 638 1050 1220 2510 4630
2020-06-10 10:30 6.21 1470 27400 (1974) 93 (1936) 1290 140 189 340 377 638 1050 1220 2510 4630
2020-06-10 09:30 6.22 1480 27400 (1974) 93 (1936) 1290 140 189 340 377 638 1050 1220 2510 4630
2020-06-10 08:30 6.23 1490 27400 (1974) 93 (1936) 1290 140 189 340 377 638 1050 1220 2510 4630
2020-06-10 07:30 6.23 1490 27400 (1974) 93 (1936) 1290 140 189 340 377 638 1050 1220 2510 4630
2020-06-10 06:30 6.23 1490 27400 (1974) 93 (1936) 1290 140 189 340 377 638 1050 1220 2510 4630
2020-06-10 05:30 6.24 1500 27400 (1974) 93 (1936) 1290 140 189 340 377 638 1050 1220 2510 4630
2020-06-10 04:30 6.21 1470 27400 (1974) 93 (1936) 1290 140 189 340 377 638 1050 1220 2510 4630
2020-06-10 03:30 6.24 1500 27400 (1974) 93 (1936) 1290 140 189 340 377 638 1050 1220 2510 4630
2020-06-10 02:30 6.25 1510 27400 (1974) 93 (1936) 1290 140 189 340 377 638 1050 1220 2510 4630
2020-06-10 00:30 6.24 1500 27400 (1974) 93 (1936) 1290 140 189 340 377 638 1050 1220 2510 4630
2020-06-09 23:30 6.26 1520 56600 (1974) 86 (1936) 1530 136 185 316 368 629 1060 1270 2020 3010
2020-06-09 22:30 6.25 1510 56600 (1974) 86 (1936) 1530 136 185 316 368 629 1060 1270 2020 3010
2020-06-09 21:30 6.27 1530 56600 (1974) 86 (1936) 1530 136 185 316 368 629 1060 1270 2020 3010
2020-06-09 20:30 6.27 1530 56600 (1974) 86 (1936) 1530 136 185 316 368 629 1060 1270 2020 3010
2020-06-09 19:30 6.25 1510 56600 (1974) 86 (1936) 1530 136 185 316 368 629 1060 1270 2020 3010
2020-06-09 18:30 6.27 1530 56600 (1974) 86 (1936) 1530 136 185 316 368 629 1060 1270 2020 3010
2020-06-09 17:30 6.26 1520 56600 (1974) 86 (1936) 1530 136 185 316 368 629 1060 1270 2020 3010
2020-06-09 16:30 6.27 1530 56600 (1974) 86 (1936) 1530 136 185 316 368 629 1060 1270 2020 3010
2020-06-09 15:30 6.28 1540 56600 (1974) 86 (1936) 1530 136 185 316 368 629 1060 1270 2020 3010
2020-06-09 14:30 6.27 1530 56600 (1974) 86 (1936) 1530 136 185 316 368 629 1060 1270 2020 3010
2020-06-09 13:30 6.28 1540 56600 (1974) 86 (1936) 1530 136 185 316 368 629 1060 1270 2020 3010
2020-06-09 12:30 6.28 1540 56600 (1974) 86 (1936) 1530 136 185 316 368 629 1060 1270 2020 3010
2020-06-09 11:30 6.29 1550 56600 (1974) 86 (1936) 1530 136 185 316 368 629 1060 1270 2020 3010
2020-06-09 10:30 6.30 1560 56600 (1974) 86 (1936) 1530 136 185 316 368 629 1060 1270 2020 3010
2020-06-09 09:30 6.31 1570 56600 (1974) 86 (1936) 1530 136 185 316 368 629 1060 1270 2020 3010
2020-06-09 08:30 6.29 1550 56600 (1974) 86 (1936) 1530 136 185 316 368 629 1060 1270 2020 3010
2020-06-09 07:30 6.29 1550 56600 (1974) 86 (1936) 1530 136 185 316 368 629 1060 1270 2020 3010
2020-06-09 06:30 6.32 1580 56600 (1974) 86 (1936) 1530 136 185 316 368 629 1060 1270 2020 3010
2020-06-09 05:30 6.31 1570 56600 (1974) 86 (1936) 1530 136 185 316 368 629 1060 1270 2020 3010
2020-06-09 03:30 6.32 1580 56600 (1974) 86 (1936) 1530 136 185 316 368 629 1060 1270 2020 3010
2020-06-09 02:30 6.32 1580 56600 (1974) 86 (1936) 1530 136 185 316 368 629 1060 1270 2020 3010
2020-06-09 01:30 6.34 1600 56600 (1974) 86 (1936) 1530 136 185 316 368 629 1060 1270 2020 3010
2020-06-09 00:30 6.33 1590 56600 (1974) 86 (1936) 1530 136 185 316 368 629 1060 1270 2020 3010
2020-06-08 23:30 6.33 1590 25100 (1974) 100 (1936) 1250 142 197 323 376 634 1060 1240 2180 3120
2020-06-08 22:30 6.34 1600 25100 (1974) 100 (1936) 1250 142 197 323 376 634 1060 1240 2180 3120
2020-06-08 21:30 6.35 1610 25100 (1974) 100 (1936) 1250 142 197 323 376 634 1060 1240 2180 3120
2020-06-08 20:30 6.35 1610 25100 (1974) 100 (1936) 1250 142 197 323 376 634 1060 1240 2180 3120
2020-06-08 19:30 6.36 1620 25100 (1974) 100 (1936) 1250 142 197 323 376 634 1060 1240 2180 3120
2020-06-08 18:30 6.37 1630 25100 (1974) 100 (1936) 1250 142 197 323 376 634 1060 1240 2180 3120
2020-06-08 17:30 6.36 1620 25100 (1974) 100 (1936) 1250 142 197 323 376 634 1060 1240 2180 3120
2020-06-08 16:30 6.38 1640 25100 (1974) 100 (1936) 1250 142 197 323 376 634 1060 1240 2180 3120
2020-06-08 15:30 6.38 1640 25100 (1974) 100 (1936) 1250 142 197 323 376 634 1060 1240 2180 3120
2020-06-08 14:30 6.39 1650 25100 (1974) 100 (1936) 1250 142 197 323 376 634 1060 1240 2180 3120
2020-06-08 13:30 6.39 1650 25100 (1974) 100 (1936) 1250 142 197 323 376 634 1060 1240 2180 3120
2020-06-08 12:30 6.42 1680 25100 (1974) 100 (1936) 1250 142 197 323 376 634 1060 1240 2180 3120
2020-06-08 11:30 6.42 1680 25100 (1974) 100 (1936) 1250 142 197 323 376 634 1060 1240 2180 3120
2020-06-08 10:30 6.42 1680 25100 (1974) 100 (1936) 1250 142 197 323 376 634 1060 1240 2180 3120
2020-06-08 09:30 6.43 1690 25100 (1974) 100 (1936) 1250 142 197 323 376 634 1060 1240 2180 3120
2020-06-08 08:30 6.43 1690 25100 (1974) 100 (1936) 1250 142 197 323 376 634 1060 1240 2180 3120
2020-06-08 07:30 6.44 1700 25100 (1974) 100 (1936) 1250 142 197 323 376 634 1060 1240 2180 3120
2020-06-08 06:30 6.45 1710 25100 (1974) 100 (1936) 1250 142 197 323 376 634 1060 1240 2180 3120
2020-06-08 05:30 6.46 1720 25100 (1974) 100 (1936) 1250 142 197 323 376 634 1060 1240 2180 3120
2020-06-08 04:30 6.48 1750 25100 (1974) 100 (1936) 1250 142 197 323 376 634 1060 1240 2180 3120
2020-06-08 03:30 6.49 1760 25100 (1974) 100 (1936) 1250 142 197 323 376 634 1060 1240 2180 3120
2020-06-08 02:30 6.49 1760 25100 (1974) 100 (1936) 1250 142 197 323 376 634 1060 1240 2180 3120
2020-06-08 01:30 6.50 1770 25100 (1974) 100 (1936) 1250 142 197 323 376 634 1060 1240 2180 3120
2020-06-08 00:30 6.50 1770 25100 (1974) 100 (1936) 1250 142 197 323 376 634 1060 1240 2180 3120
2020-06-07 23:30 6.50 1770 8560 (1992) 100 (1936) 1120 147 209 345 409 654 1130 1310 2180 4520
2020-06-07 22:30 6.51 1780 8560 (1992) 100 (1936) 1120 147 209 345 409 654 1130 1310 2180 4520
2020-06-07 21:30 6.52 1790 8560 (1992) 100 (1936) 1120 147 209 345 409 654 1130 1310 2180 4520
2020-06-07 20:30 6.51 1780 8560 (1992) 100 (1936) 1120 147 209 345 409 654 1130 1310 2180 4520
2020-06-07 19:30 6.53 1800 8560 (1992) 100 (1936) 1120 147 209 345 409 654 1130 1310 2180 4520
2020-06-07 18:30 6.53 1800 8560 (1992) 100 (1936) 1120 147 209 345 409 654 1130 1310 2180 4520
2020-06-07 17:30 6.55 1820 8560 (1992) 100 (1936) 1120 147 209 345 409 654 1130 1310 2180 4520
2020-06-07 16:30 6.53 1800 8560 (1992) 100 (1936) 1120 147 209 345 409 654 1130 1310 2180 4520
2020-06-07 15:30 6.57 1850 8560 (1992) 100 (1936) 1120 147 209 345 409 654 1130 1310 2180 4520
2020-06-07 14:30 6.58 1860 8560 (1992) 100 (1936) 1120 147 209 345 409 654 1130 1310 2180 4520
2020-06-07 13:30 6.57 1850 8560 (1992) 100 (1936) 1120 147 209 345 409 654 1130 1310 2180 4520
2020-06-07 12:30 6.61 1890 8560 (1992) 100 (1936) 1120 147 209 345 409 654 1130 1310 2180 4520
2020-06-07 11:30 6.61 1890 8560 (1992) 100 (1936) 1120 147 209 345 409 654 1130 1310 2180 4520
2020-06-07 10:30 6.60 1880 8560 (1992) 100 (1936) 1120 147 209 345 409 654 1130 1310 2180 4520
2020-06-07 09:30 6.64 1930 8560 (1992) 100 (1936) 1120 147 209 345 409 654 1130 1310 2180 4520
2020-06-07 08:30 6.64 1930 8560 (1992) 100 (1936) 1120 147 209 345 409 654 1130 1310 2180 4520
2020-06-07 07:30 6.67 1960 8560 (1992) 100 (1936) 1120 147 209 345 409 654 1130 1310 2180 4520
2020-06-07 06:30 6.66 1950 8560 (1992) 100 (1936) 1120 147 209 345 409 654 1130 1310 2180 4520
2020-06-07 05:30 6.68 1970 8560 (1992) 100 (1936) 1120 147 209 345 409 654 1130 1310 2180 4520
2020-06-07 04:30 6.69 1980 8560 (1992) 100 (1936) 1120 147 209 345 409 654 1130 1310 2180 4520
2020-06-07 03:30 6.68 1970 8560 (1992) 100 (1936) 1120 147 209 345 409 654 1130 1310 2180 4520
2020-06-07 02:30 6.71 2010 8560 (1992) 100 (1936) 1120 147 209 345 409 654 1130 1310 2180 4520
2020-06-07 01:30 6.73 2030 8560 (1992) 100 (1936) 1120 147 209 345 409 654 1130 1310 2180 4520
2020-06-07 00:30 6.71 2010 8560 (1992) 100 (1936) 1120 147 209 345 409 654 1130 1310 2180 4520
2020-06-06 23:30 6.74 2040 9360 (1985) 95 (1936) 1060 152 221 335 424 657 1180 1220 1850 4130
2020-06-06 22:30 6.74 2040 9360 (1985) 95 (1936) 1060 152 221 335 424 657 1180 1220 1850 4130
2020-06-06 21:30 6.75 2060 9360 (1985) 95 (1936) 1060 152 221 335 424 657 1180 1220 1850 4130
2020-06-06 20:30 6.79 2110 9360 (1985) 95 (1936) 1060 152 221 335 424 657 1180 1220 1850 4130
2020-06-06 19:30 6.78 2090 9360 (1985) 95 (1936) 1060 152 221 335 424 657 1180 1220 1850 4130
2020-06-06 18:30 6.82 2150 9360 (1985) 95 (1936) 1060 152 221 335 424 657 1180 1220 1850 4130
2020-06-06 17:30 6.80 2120 9360 (1985) 95 (1936) 1060 152 221 335 424 657 1180 1220 1850 4130
2020-06-06 16:30 6.86 2210 9360 (1985) 95 (1936) 1060 152 221 335 424 657 1180 1220 1850 4130
2020-06-06 15:30 6.85 2190 9360 (1985) 95 (1936) 1060 152 221 335 424 657 1180 1220 1850 4130
2020-06-06 14:30 6.88 2240 9360 (1985) 95 (1936) 1060 152 221 335 424 657 1180 1220 1850 4130
2020-06-06 13:30 6.89 2250 9360 (1985) 95 (1936) 1060 152 221 335 424 657 1180 1220 1850 4130
2020-06-06 12:30 6.94 2320 9360 (1985) 95 (1936) 1060 152 221 335 424 657 1180 1220 1850 4130
2020-06-06 11:30 6.97 2370 9360 (1985) 95 (1936) 1060 152 221 335 424 657 1180 1220 1850 4130
2020-06-06 10:30 7.00 2410 9360 (1985) 95 (1936) 1060 152 221 335 424 657 1180 1220 1850 4130
2020-06-06 09:30 7.02 2440 9360 (1985) 95 (1936) 1060 152 221 335 424 657 1180 1220 1850 4130
2020-06-06 08:30 7.04 2470 9360 (1985) 95 (1936) 1060 152 221 335 424 657 1180 1220 1850 4130
2020-06-06 07:30 7.09 2550 9360 (1985) 95 (1936) 1060 152 221 335 424 657 1180 1220 1850 4130
2020-06-06 06:30 7.13 2610 9360 (1985) 95 (1936) 1060 152 221 335 424 657 1180 1220 1850 4130
2020-06-06 05:30 7.17 2670 9360 (1985) 95 (1936) 1060 152 221 335 424 657 1180 1220 1850 4130
2020-06-06 04:30 7.17 2670 9360 (1985) 95 (1936) 1060 152 221 335 424 657 1180 1220 1850 4130
2020-06-06 02:30 7.23 2770 9360 (1985) 95 (1936) 1060 152 221 335 424 657 1180 1220 1850 4130
2020-06-06 01:30 7.29 2870 9360 (1985) 95 (1936) 1060 152 221 335 424 657 1180 1220 1850 4130
2020-06-05 23:30 7.38 3020 10000 (1973) 95 (1936) 1060 166 223 337 399 685 1220 1290 2070 4240
2020-06-05 22:30 7.44 3120 10000 (1973) 95 (1936) 1060 166 223 337 399 685 1220 1290 2070 4240
2020-06-05 21:30 7.50 3220 10000 (1973) 95 (1936) 1060 166 223 337 399 685 1220 1290 2070 4240
2020-06-05 20:30 7.55 3280 10000 (1973) 95 (1936) 1060 166 223 337 399 685 1220 1290 2070 4240
2020-06-05 19:30 7.58 3320 10000 (1973) 95 (1936) 1060 166 223 337 399 685 1220 1290 2070 4240
2020-06-05 18:30 7.64 3400 10000 (1973) 95 (1936) 1060 166 223 337 399 685 1220 1290 2070 4240
2020-06-05 17:30 7.63 3390 10000 (1973) 95 (1936) 1060 166 223 337 399 685 1220 1290 2070 4240
2020-06-05 16:30 7.61 3360 10000 (1973) 95 (1936) 1060 166 223 337 399 685 1220 1290 2070 4240
2020-06-05 15:30 7.56 3300 10000 (1973) 95 (1936) 1060 166 223 337 399 685 1220 1290 2070 4240
2020-06-05 14:30 7.46 3150 10000 (1973) 95 (1936) 1060 166 223 337 399 685 1220 1290 2070 4240
2020-06-05 13:30 7.24 2790 10000 (1973) 95 (1936) 1060 166 223 337 399 685 1220 1290 2070 4240
2020-06-05 12:30 7.04 2470 10000 (1973) 95 (1936) 1060 166 223 337 399 685 1220 1290 2070 4240
2020-06-05 11:30 6.84 2180 10000 (1973) 95 (1936) 1060 166 223 337 399 685 1220 1290 2070 4240
2020-06-05 10:30 6.73 2030 10000 (1973) 95 (1936) 1060 166 223 337 399 685 1220 1290 2070 4240
2020-06-05 09:30 6.66 1950 10000 (1973) 95 (1936) 1060 166 223 337 399 685 1220 1290 2070 4240
2020-06-05 08:30 6.65 1940 10000 (1973) 95 (1936) 1060 166 223 337 399 685 1220 1290 2070 4240
2020-06-05 07:30 6.65 1940 10000 (1973) 95 (1936) 1060 166 223 337 399 685 1220 1290 2070 4240
2020-06-05 06:30 6.67 1960 10000 (1973) 95 (1936) 1060 166 223 337 399 685 1220 1290 2070 4240
2020-06-05 05:30 6.63 1910 10000 (1973) 95 (1936) 1060 166 223 337 399 685 1220 1290 2070 4240
2020-06-05 04:30 6.62 1900 10000 (1973) 95 (1936) 1060 166 223 337 399 685 1220 1290 2070 4240
2020-06-05 03:30 6.62 1900 10000 (1973) 95 (1936) 1060 166 223 337 399 685 1220 1290 2070 4240
2020-06-05 02:30 6.63 1910 10000 (1973) 95 (1936) 1060 166 223 337 399 685 1220 1290 2070 4240
2020-06-05 01:30 6.62 1900 10000 (1973) 95 (1936) 1060 166 223 337 399 685 1220 1290 2070 4240
2020-06-05 00:30 6.61 1890 10000 (1973) 95 (1936) 1060 166 223 337 399 685 1220 1290 2070 4240
2020-06-04 23:30 6.63 1910 10900 (1973) 111 (1936) 1050 172 235 347 401 651 1310 1370 1910 2380
2020-06-04 22:30 6.61 1890 10900 (1973) 111 (1936) 1050 172 235 347 401 651 1310 1370 1910 2380
2020-06-04 21:30 6.61 1890 10900 (1973) 111 (1936) 1050 172 235 347 401 651 1310 1370 1910 2380
2020-06-04 20:30 6.61 1890 10900 (1973) 111 (1936) 1050 172 235 347 401 651 1310 1370 1910 2380
2020-06-04 19:30 6.60 1880 10900 (1973) 111 (1936) 1050 172 235 347 401 651 1310 1370 1910 2380
2020-06-04 18:30 6.60 1880 10900 (1973) 111 (1936) 1050 172 235 347 401 651 1310 1370 1910 2380
2020-06-04 17:30 6.60 1880 10900 (1973) 111 (1936) 1050 172 235 347 401 651 1310 1370 1910 2380
2020-06-04 16:30 6.57 1850 10900 (1973) 111 (1936) 1050 172 235 347 401 651 1310 1370 1910 2380
2020-06-04 15:30 6.60 1880 10900 (1973) 111 (1936) 1050 172 235 347 401 651 1310 1370 1910 2380
2020-06-04 14:30 6.58 1860 10900 (1973) 111 (1936) 1050 172 235 347 401 651 1310 1370 1910 2380
2020-06-04 13:30 6.60 1880 10900 (1973) 111 (1936) 1050 172 235 347 401 651 1310 1370 1910 2380
2020-06-04 12:30 6.60 1880 10900 (1973) 111 (1936) 1050 172 235 347 401 651 1310 1370 1910 2380
2020-06-04 11:30 6.60 1880 10900 (1973) 111 (1936) 1050 172 235 347 401 651 1310 1370 1910 2380
2020-06-04 10:30 6.62 1900 10900 (1973) 111 (1936) 1050 172 235 347 401 651 1310 1370 1910 2380
2020-06-04 09:30 6.61 1890 10900 (1973) 111 (1936) 1050 172 235 347 401 651 1310 1370 1910 2380
2020-06-04 08:30 6.62 1900 10900 (1973) 111 (1936) 1050 172 235 347 401 651 1310 1370 1910 2380
2020-06-04 07:30 6.62 1900 10900 (1973) 111 (1936) 1050 172 235 347 401 651 1310 1370 1910 2380
2020-06-04 06:30 6.64 1930 10900 (1973) 111 (1936) 1050 172 235 347 401 651 1310 1370 1910 2380
2020-06-04 05:30 6.63 1910 10900 (1973) 111 (1936) 1050 172 235 347 401 651 1310 1370 1910 2380
2020-06-04 04:30 6.64 1930 10900 (1973) 111 (1936) 1050 172 235 347 401 651 1310 1370 1910 2380
2020-06-04 03:30 6.63 1910 10900 (1973) 111 (1936) 1050 172 235 347 401 651 1310 1370 1910 2380
2020-06-04 02:30 6.64 1930 10900 (1973) 111 (1936) 1050 172 235 347 401 651 1310 1370 1910 2380
2020-06-04 01:30 6.64 1930 10900 (1973) 111 (1936) 1050 172 235 347 401 651 1310 1370 1910 2380
2020-06-04 00:30 6.65 1940 10900 (1973) 111 (1936) 1050 172 235 347 401 651 1310 1370 1910 2380
2020-06-03 23:30 6.68 1970 12700 (1957) 128 (1936) 1140 174 251 331 389 704 1290 1520 1780 3390
2020-06-03 22:30 6.68 1970 12700 (1957) 128 (1936) 1140 174 251 331 389 704 1290 1520 1780 3390
2020-06-03 21:30 6.69 1980 12700 (1957) 128 (1936) 1140 174 251 331 389 704 1290 1520 1780 3390
2020-06-03 20:30 6.68 1970 12700 (1957) 128 (1936) 1140 174 251 331 389 704 1290 1520 1780 3390
2020-06-03 19:30 6.68 1970 12700 (1957) 128 (1936) 1140 174 251 331 389 704 1290 1520 1780 3390
2020-06-03 18:30 6.70 2000 12700 (1957) 128 (1936) 1140 174 251 331 389 704 1290 1520 1780 3390
2020-06-03 17:30 6.70 2000 12700 (1957) 128 (1936) 1140 174 251 331 389 704 1290 1520 1780 3390
2020-06-03 16:30 6.72 2020 12700 (1957) 128 (1936) 1140 174 251 331 389 704 1290 1520 1780 3390
2020-06-03 15:30 6.71 2010 12700 (1957) 128 (1936) 1140 174 251 331 389 704 1290 1520 1780 3390
2020-06-03 14:30 6.72 2020 12700 (1957) 128 (1936) 1140 174 251 331 389 704 1290 1520 1780 3390
2020-06-03 13:30 6.71 2010 12700 (1957) 128 (1936) 1140 174 251 331 389 704 1290 1520 1780 3390
2020-06-03 12:30 6.73 2030 12700 (1957) 128 (1936) 1140 174 251 331 389 704 1290 1520 1780 3390
2020-06-03 11:30 6.74 2040 12700 (1957) 128 (1936) 1140 174 251 331 389 704 1290 1520 1780 3390
2020-06-03 10:30 6.78 2090 12700 (1957) 128 (1936) 1140 174 251 331 389 704 1290 1520 1780 3390
2020-06-03 09:30 6.76 2070 12700 (1957) 128 (1936) 1140 174 251 331 389 704 1290 1520 1780 3390
2020-06-03 08:30 6.77 2080 12700 (1957) 128 (1936) 1140 174 251 331 389 704 1290 1520 1780 3390
2020-06-03 07:30 6.79 2110 12700 (1957) 128 (1936) 1140 174 251 331 389 704 1290 1520 1780 3390
2020-06-03 06:30 6.78 2090 12700 (1957) 128 (1936) 1140 174 251 331 389 704 1290 1520 1780 3390
2020-06-03 05:30 6.81 2130 12700 (1957) 128 (1936) 1140 174 251 331 389 704 1290 1520 1780 3390
2020-06-03 04:30 6.79 2110 12700 (1957) 128 (1936) 1140 174 251 331 389 704 1290 1520 1780 3390
2020-06-03 03:30 6.79 2110 12700 (1957) 128 (1936) 1140 174 251 331 389 704 1290 1520 1780 3390
2020-06-03 02:30 6.82 2150 12700 (1957) 128 (1936) 1140 174 251 331 389 704 1290 1520 1780 3390
2020-06-03 01:30 6.82 2150 12700 (1957) 128 (1936) 1140 174 251 331 389 704 1290 1520 1780 3390
2020-06-03 00:30 6.81 2130 12700 (1957) 128 (1936) 1140 174 251 331 389 704 1290 1520 1780 3390
2020-06-02 23:30 6.82 2150 6220 (1957) 117 (1936) 1040 172 264 356 434 699 1300 1550 2090 3520
2020-06-02 22:30 6.82 2150 6220 (1957) 117 (1936) 1040 172 264 356 434 699 1300 1550 2090 3520
2020-06-02 21:30 6.83 2160 6220 (1957) 117 (1936) 1040 172 264 356 434 699 1300 1550 2090 3520
2020-06-02 20:30 6.82 2150 6220 (1957) 117 (1936) 1040 172 264 356 434 699 1300 1550 2090 3520
2020-06-02 19:30 6.85 2190 6220 (1957) 117 (1936) 1040 172 264 356 434 699 1300 1550 2090 3520
2020-06-02 18:30 6.86 2210 6220 (1957) 117 (1936) 1040 172 264 356 434 699 1300 1550 2090 3520
2020-06-02 17:30 6.86 2210 6220 (1957) 117 (1936) 1040 172 264 356 434 699 1300 1550 2090 3520
2020-06-02 16:30 6.87 2220 6220 (1957) 117 (1936) 1040 172 264 356 434 699 1300 1550 2090 3520
2020-06-02 15:30 6.88 2240 6220 (1957) 117 (1936) 1040 172 264 356 434 699 1300 1550 2090 3520
2020-06-02 14:30 6.88 2240 6220 (1957) 117 (1936) 1040 172 264 356 434 699 1300 1550 2090 3520
2020-06-02 13:30 6.90 2270 6220 (1957) 117 (1936) 1040 172 264 356 434 699 1300 1550 2090 3520
2020-06-02 12:30 6.92 2290 6220 (1957) 117 (1936) 1040 172 264 356 434 699 1300 1550 2090 3520
2020-06-02 11:30 6.91 2280 6220 (1957) 117 (1936) 1040 172 264 356 434 699 1300 1550 2090 3520
2020-06-02 10:30 6.94 2320 6220 (1957) 117 (1936) 1040 172 264 356 434 699 1300 1550 2090 3520
2020-06-02 09:30 6.95 2340 6220 (1957) 117 (1936) 1040 172 264 356 434 699 1300 1550 2090 3520
2020-06-02 08:30 6.94 2320 6220 (1957) 117 (1936) 1040 172 264 356 434 699 1300 1550 2090 3520
2020-06-02 07:30 6.96 2350 6220 (1957) 117 (1936) 1040 172 264 356 434 699 1300 1550 2090 3520
2020-06-02 06:30 6.98 2380 6220 (1957) 117 (1936) 1040 172 264 356 434 699 1300 1550 2090 3520
2020-06-02 05:30 6.99 2400 6220 (1957) 117 (1936) 1040 172 264 356 434 699 1300 1550 2090 3520
2020-06-02 04:30 6.97 2370 6220 (1957) 117 (1936) 1040 172 264 356 434 699 1300 1550 2090 3520
2020-06-02 03:30 7.00 2410 6220 (1957) 117 (1936) 1040 172 264 356 434 699 1300 1550 2090 3520
2020-06-02 02:30 6.99 2400 6220 (1957) 117 (1936) 1040 172 264 356 434 699 1300 1550 2090 3520
2020-06-02 01:30 7.03 2460 6220 (1957) 117 (1936) 1040 172 264 356 434 699 1300 1550 2090 3520
2020-06-02 00:30 7.03 2460 6220 (1957) 117 (1936) 1040 172 264 356 434 699 1300 1550 2090 3520
2020-06-01 23:30 7.03 2460 4640 (2015) 117 (1936) 1030 173 246 366 423 690 1310 1390 2080 3050
2020-06-01 22:30 7.03 2460 4640 (2015) 117 (1936) 1030 173 246 366 423 690 1310 1390 2080 3050
2020-06-01 21:30 7.05 2490 4640 (2015) 117 (1936) 1030 173 246 366 423 690 1310 1390 2080 3050
2020-06-01 20:30 7.06 2500 4640 (2015) 117 (1936) 1030 173 246 366 423 690 1310 1390 2080 3050
2020-06-01 19:30 7.07 2520 4640 (2015) 117 (1936) 1030 173 246 366 423 690 1310 1390 2080 3050
2020-06-01 18:30 7.07 2520 4640 (2015) 117 (1936) 1030 173 246 366 423 690 1310 1390 2080 3050
2020-06-01 17:30 7.10 2560 4640 (2015) 117 (1936) 1030 173 246 366 423 690 1310 1390 2080 3050
2020-06-01 16:30 7.09 2550 4640 (2015) 117 (1936) 1030 173 246 366 423 690 1310 1390 2080 3050
2020-06-01 15:30 7.09 2550 4640 (2015) 117 (1936) 1030 173 246 366 423 690 1310 1390 2080 3050
2020-06-01 14:30 7.13 2610 4640 (2015) 117 (1936) 1030 173 246 366 423 690 1310 1390 2080 3050
2020-06-01 13:30 7.13 2610 4640 (2015) 117 (1936) 1030 173 246 366 423 690 1310 1390 2080 3050
2020-06-01 12:30 7.13 2610 4640 (2015) 117 (1936) 1030 173 246 366 423 690 1310 1390 2080 3050
2020-06-01 11:30 7.17 2670 4640 (2015) 117 (1936) 1030 173 246 366 423 690 1310 1390 2080 3050
2020-06-01 10:30 7.15 2640 4640 (2015) 117 (1936) 1030 173 246 366 423 690 1310 1390 2080 3050
2020-06-01 09:30 7.18 2690 4640 (2015) 117 (1936) 1030 173 246 366 423 690 1310 1390 2080 3050
2020-06-01 08:30 7.20 2720 4640 (2015) 117 (1936) 1030 173 246 366 423 690 1310 1390 2080 3050
2020-06-01 07:30 7.19 2710 4640 (2015) 117 (1936) 1030 173 246 366 423 690 1310 1390 2080 3050
2020-06-01 06:30 7.25 2800 4640 (2015) 117 (1936) 1030 173 246 366 423 690 1310 1390 2080 3050
2020-06-01 05:30 7.24 2790 4640 (2015) 117 (1936) 1030 173 246 366 423 690 1310 1390 2080 3050
2020-06-01 04:30 7.23 2770 4640 (2015) 117 (1936) 1030 173 246 366 423 690 1310 1390 2080 3050
2020-06-01 03:30 7.27 2830 4640 (2015) 117 (1936) 1030 173 246 366 423 690 1310 1390 2080 3050
2020-06-01 02:30 7.27 2830 4640 (2015) 117 (1936) 1030 173 246 366 423 690 1310 1390 2080 3050
2020-06-01 01:30 7.29 2870 4640 (2015) 117 (1936) 1030 173 246 366 423 690 1310 1390 2080 3050
2020-06-01 00:30 7.30 2880 4640 (2015) 117 (1936) 1030 173 246 366 423 690 1310 1390 2080 3050
2020-05-31 23:30 7.30 2880 7280 (2015) 122 (1936) 1060 173 242 377 406 695 1370 1480 2000 3230
2020-05-31 22:30 7.33 2930 7280 (2015) 122 (1936) 1060 173 242 377 406 695 1370 1480 2000 3230
2020-05-31 21:30 7.32 2920 7280 (2015) 122 (1936) 1060 173 242 377 406 695 1370 1480 2000 3230
2020-05-31 20:30 7.33 2930 7280 (2015) 122 (1936) 1060 173 242 377 406 695 1370 1480 2000 3230
2020-05-31 19:30 7.34 2950 7280 (2015) 122 (1936) 1060 173 242 377 406 695 1370 1480 2000 3230
2020-05-31 18:30 7.37 3000 7280 (2015) 122 (1936) 1060 173 242 377 406 695 1370 1480 2000 3230
2020-05-31 17:30 7.38 3020 7280 (2015) 122 (1936) 1060 173 242 377 406 695 1370 1480 2000 3230
2020-05-31 16:30 7.40 3050 7280 (2015) 122 (1936) 1060 173 242 377 406 695 1370 1480 2000 3230
2020-05-31 15:30 7.40 3050 7280 (2015) 122 (1936) 1060 173 242 377 406 695 1370 1480 2000 3230
2020-05-31 14:30 7.41 3070 7280 (2015) 122 (1936) 1060 173 242 377 406 695 1370 1480 2000 3230
2020-05-31 13:30 7.46 3150 7280 (2015) 122 (1936) 1060 173 242 377 406 695 1370 1480 2000 3230
2020-05-31 12:30 7.46 3150 7280 (2015) 122 (1936) 1060 173 242 377 406 695 1370 1480 2000 3230
2020-05-31 11:30 7.52 3250 7280 (2015) 122 (1936) 1060 173 242 377 406 695 1370 1480 2000 3230
2020-05-31 10:30 7.49 3200 7280 (2015) 122 (1936) 1060 173 242 377 406 695 1370 1480 2000 3230
2020-05-31 09:30 7.55 3280 7280 (2015) 122 (1936) 1060 173 242 377 406 695 1370 1480 2000 3230
2020-05-31 08:30 7.54 3270 7280 (2015) 122 (1936) 1060 173 242 377 406 695 1370 1480 2000 3230
2020-05-31 07:30 7.58 3320 7280 (2015) 122 (1936) 1060 173 242 377 406 695 1370 1480 2000 3230
2020-05-31 06:30 7.61 3360 7280 (2015) 122 (1936) 1060 173 242 377 406 695 1370 1480 2000 3230
2020-05-31 05:30 7.60 3350 7280 (2015) 122 (1936) 1060 173 242 377 406 695 1370 1480 2000 3230
2020-05-31 04:30 7.66 3420 7280 (2015) 122 (1936) 1060 173 242 377 406 695 1370 1480 2000 3230
2020-05-31 03:30 7.65 3410 7280 (2015) 122 (1936) 1060 173 242 377 406 695 1370 1480 2000 3230
2020-05-31 02:30 7.70 3480 7280 (2015) 122 (1936) 1060 173 242 377 406 695 1370 1480 2000 3230
2020-05-31 01:30 7.71 3490 7280 (2015) 122 (1936) 1060 173 242 377 406 695 1370 1480 2000 3230
2020-05-31 00:30 7.74 3530 7280 (2015) 122 (1936) 1060 173 242 377 406 695 1370 1480 2000 3230
2020-05-30 23:30 7.73 3510 7310 (2015) 106 (1936) 1130 173 224 389 428 745 1520 1710 2280 3040
2020-05-30 22:30 7.82 3630 7310 (2015) 106 (1936) 1130 173 224 389 428 745 1520 1710 2280 3040
2020-05-30 21:30 7.77 3560 7310 (2015) 106 (1936) 1130 173 224 389 428 745 1520 1710 2280 3040
2020-05-30 19:30 7.81 3620 7310 (2015) 106 (1936) 1130 173 224 389 428 745 1520 1710 2280 3040
2020-05-30 18:30 7.89 3720 7310 (2015) 106 (1936) 1130 173 224 389 428 745 1520 1710 2280 3040
2020-05-30 17:30 7.88 3700 7310 (2015) 106 (1936) 1130 173 224 389 428 745 1520 1710 2280 3040
2020-05-30 16:30 7.92 3750 7310 (2015) 106 (1936) 1130 173 224 389 428 745 1520 1710 2280 3040
2020-05-30 15:30 8.00 3860 7310 (2015) 106 (1936) 1130 173 224 389 428 745 1520 1710 2280 3040
2020-05-30 14:30 8.00 3860 7310 (2015) 106 (1936) 1130 173 224 389 428 745 1520 1710 2280 3040
2020-05-30 13:30 8.03 3890 7310 (2015) 106 (1936) 1130 173 224 389 428 745 1520 1710 2280 3040
2020-05-30 12:30 8.09 3970 7310 (2015) 106 (1936) 1130 173 224 389 428 745 1520 1710 2280 3040
2020-05-30 11:30 8.10 3980 7310 (2015) 106 (1936) 1130 173 224 389 428 745 1520 1710 2280 3040
2020-05-30 10:30 8.14 4040 7310 (2015) 106 (1936) 1130 173 224 389 428 745 1520 1710 2280 3040
2020-05-30 09:30 8.20 4110 7310 (2015) 106 (1936) 1130 173 224 389 428 745 1520 1710 2280 3040
2020-05-30 08:30 8.24 4170 7310 (2015) 106 (1936) 1130 173 224 389 428 745 1520 1710 2280 3040
2020-05-30 07:30 8.32 4270 7310 (2015) 106 (1936) 1130 173 224 389 428 745 1520 1710 2280 3040
2020-05-30 06:30 8.32 4270 7310 (2015) 106 (1936) 1130 173 224 389 428 745 1520 1710 2280 3040
2020-05-30 05:30 8.39 4370 7310 (2015) 106 (1936) 1130 173 224 389 428 745 1520 1710 2280 3040
2020-05-30 04:30 8.40 4380 7310 (2015) 106 (1936) 1130 173 224 389 428 745 1520 1710 2280 3040
2020-05-30 03:30 8.45 4450 7310 (2015) 106 (1936) 1130 173 224 389 428 745 1520 1710 2280 3040
2020-05-30 02:30 8.50 4520 7310 (2015) 106 (1936) 1130 173 224 389 428 745 1520 1710 2280 3040
2020-05-30 01:30 8.54 4570 7310 (2015) 106 (1936) 1130 173 224 389 428 745 1520 1710 2280 3040
2020-05-30 00:30 8.61 4660 7310 (2015) 106 (1936) 1130 173 224 389 428 745 1520 1710 2280 3040
2020-05-29 23:30 8.64 4700 5060 (2015) 100 (1936) 1220 182 225 399 446 822 1680 1900 2900 4020
2020-05-29 22:30 8.66 4730 5060 (2015) 100 (1936) 1220 182 225 399 446 822 1680 1900 2900 4020
2020-05-29 21:30 8.74 4840 5060 (2015) 100 (1936) 1220 182 225 399 446 822 1680 1900 2900 4020
2020-05-29 20:30 8.75 4850 5060 (2015) 100 (1936) 1220 182 225 399 446 822 1680 1900 2900 4020
2020-05-29 19:30 8.80 4920 5060 (2015) 100 (1936) 1220 182 225 399 446 822 1680 1900 2900 4020
2020-05-29 18:30 8.91 5070 5060 (2015) 100 (1936) 1220 182 225 399 446 822 1680 1900 2900 4020
2020-05-29 17:30 8.92 5080 5060 (2015) 100 (1936) 1220 182 225 399 446 822 1680 1900 2900 4020
2020-05-29 16:30 8.92 5080 5060 (2015) 100 (1936) 1220 182 225 399 446 822 1680 1900 2900 4020
2020-05-29 15:30 9.00 5190 5060 (2015) 100 (1936) 1220 182 225 399 446 822 1680 1900 2900 4020
2020-05-29 14:30 9.08 5290 5060 (2015) 100 (1936) 1220 182 225 399 446 822 1680 1900 2900 4020
2020-05-29 13:30 9.14 5370 5060 (2015) 100 (1936) 1220 182 225 399 446 822 1680 1900 2900 4020
2020-05-29 12:30 9.22 5480 5060 (2015) 100 (1936) 1220 182 225 399 446 822 1680 1900 2900 4020
2020-05-29 11:30 9.27 5550 5060 (2015) 100 (1936) 1220 182 225 399 446 822 1680 1900 2900 4020
2020-05-29 10:30 9.31 5600 5060 (2015) 100 (1936) 1220 182 225 399 446 822 1680 1900 2900 4020
2020-05-29 09:30 9.39 5710 5060 (2015) 100 (1936) 1220 182 225 399 446 822 1680 1900 2900 4020
2020-05-29 08:30 9.43 5760 5060 (2015) 100 (1936) 1220 182 225 399 446 822 1680 1900 2900 4020
2020-05-29 07:30 9.51 5870 5060 (2015) 100 (1936) 1220 182 225 399 446 822 1680 1900 2900 4020
2020-05-29 06:30 9.61 6070 5060 (2015) 100 (1936) 1220 182 225 399 446 822 1680 1900 2900 4020
2020-05-29 05:30 9.65 6140 5060 (2015) 100 (1936) 1220 182 225 399 446 822 1680 1900 2900 4020
2020-05-29 04:30 9.72 6280 5060 (2015) 100 (1936) 1220 182 225 399 446 822 1680 1900 2900 4020
2020-05-29 03:30 9.78 6400 5060 (2015) 100 (1936) 1220 182 225 399 446 822 1680 1900 2900 4020
2020-05-29 02:30 9.86 6560 5060 (2015) 100 (1936) 1220 182 225 399 446 822 1680 1900 2900 4020
2020-05-29 01:30 9.98 6800 5060 (2015) 100 (1936) 1220 182 225 399 446 822 1680 1900 2900 4020
2020-05-29 00:30 10.07 6990 5060 (2015) 100 (1936) 1220 182 225 399 446 822 1680 1900 2900 4020
2020-05-28 23:30 10.17 7190 6010 (1990) 100 (1936) 1270 190 235 398 435 868 1570 1940 3010 4840
2020-05-28 22:30 10.29 7450 6010 (1990) 100 (1936) 1270 190 235 398 435 868 1570 1940 3010 4840
2020-05-28 21:30 10.40 7690 6010 (1990) 100 (1936) 1270 190 235 398 435 868 1570 1940 3010 4840
2020-05-28 20:30 10.46 7820 6010 (1990) 100 (1936) 1270 190 235 398 435 868 1570 1940 3010 4840
2020-05-28 19:30 10.55 8020 6010 (1990) 100 (1936) 1270 190 235 398 435 868 1570 1940 3010 4840
2020-05-28 18:30 10.55 8020 6010 (1990) 100 (1936) 1270 190 235 398 435 868 1570 1940 3010 4840
2020-05-28 17:30 10.55 8020 6010 (1990) 100 (1936) 1270 190 235 398 435 868 1570 1940 3010 4840
2020-05-28 16:30 10.52 7950 6010 (1990) 100 (1936) 1270 190 235 398 435 868 1570 1940 3010 4840
2020-05-28 15:30 10.46 7820 6010 (1990) 100 (1936) 1270 190 235 398 435 868 1570 1940 3010 4840
2020-05-28 14:30 10.40 7690 6010 (1990) 100 (1936) 1270 190 235 398 435 868 1570 1940 3010 4840
2020-05-28 13:30 10.35 7580 6010 (1990) 100 (1936) 1270 190 235 398 435 868 1570 1940 3010 4840
2020-05-28 12:30 10.26 7390 6010 (1990) 100 (1936) 1270 190 235 398 435 868 1570 1940 3010 4840
2020-05-28 11:30 10.16 7170 6010 (1990) 100 (1936) 1270 190 235 398 435 868 1570 1940 3010 4840
2020-05-28 10:30 10.13 7110 6010 (1990) 100 (1936) 1270 190 235 398 435 868 1570 1940 3010 4840
2020-05-28 09:30 10.05 6940 6010 (1990) 100 (1936) 1270 190 235 398 435 868 1570 1940 3010 4840
2020-05-28 08:30 10.09 7030 6010 (1990) 100 (1936) 1270 190 235 398 435 868 1570 1940 3010 4840
2020-05-28 07:30 10.06 6970 6010 (1990) 100 (1936) 1270 190 235 398 435 868 1570 1940 3010 4840
2020-05-28 06:30 10.06 6970 6010 (1990) 100 (1936) 1270 190 235 398 435 868 1570 1940 3010 4840
2020-05-28 05:30 10.10 7050 6010 (1990) 100 (1936) 1270 190 235 398 435 868 1570 1940 3010 4840
2020-05-28 04:30 10.16 7170 6010 (1990) 100 (1936) 1270 190 235 398 435 868 1570 1940 3010 4840
2020-05-28 03:30 10.21 7280 6010 (1990) 100 (1936) 1270 190 235 398 435 868 1570 1940 3010 4840
2020-05-28 02:30 10.30 7470 6010 (1990) 100 (1936) 1270 190 235 398 435 868 1570 1940 3010 4840
2020-05-28 01:30 10.35 7580 6010 (1990) 100 (1936) 1270 190 235 398 435 868 1570 1940 3010 4840
2020-05-28 00:30 10.35 7580 6010 (1990) 100 (1936) 1270 190 235 398 435 868 1570 1940 3010 4840
2020-05-27 23:30 10.39 7670 10900 (1957) 103 (1936) 1400 193 239 402 444 846 1580 1850 3020 4980
2020-05-27 22:30 10.50 7910 10900 (1957) 103 (1936) 1400 193 239 402 444 846 1580 1850 3020 4980
2020-05-27 21:30 10.51 7930 10900 (1957) 103 (1936) 1400 193 239 402 444 846 1580 1850 3020 4980
2020-05-27 20:30 10.61 8150 10900 (1957) 103 (1936) 1400 193 239 402 444 846 1580 1850 3020 4980
2020-05-27 19:30 10.86 8720 10900 (1957) 103 (1936) 1400 193 239 402 444 846 1580 1850 3020 4980
2020-05-27 18:30 11.07 9210 10900 (1957) 103 (1936) 1400 193 239 402 444 846 1580 1850 3020 4980
2020-05-27 17:30 11.36 9920 10900 (1957) 103 (1936) 1400 193 239 402 444 846 1580 1850 3020 4980
2020-05-27 16:30 11.68 10700 10900 (1957) 103 (1936) 1400 193 239 402 444 846 1580 1850 3020 4980
2020-05-27 15:30 12.04 11700 10900 (1957) 103 (1936) 1400 193 239 402 444 846 1580 1850 3020 4980
2020-05-27 14:30 12.33 12500 10900 (1957) 103 (1936) 1400 193 239 402 444 846 1580 1850 3020 4980
2020-05-27 13:30 12.60 13200 10900 (1957) 103 (1936) 1400 193 239 402 444 846 1580 1850 3020 4980
2020-05-27 12:30 12.57 13100 10900 (1957) 103 (1936) 1400 193 239 402 444 846 1580 1850 3020 4980
2020-05-27 11:30 12.68 13500 10900 (1957) 103 (1936) 1400 193 239 402 444 846 1580 1850 3020 4980
2020-05-27 10:30 12.74 13600 10900 (1957) 103 (1936) 1400 193 239 402 444 846 1580 1850 3020 4980
2020-05-27 09:30 12.72 13600 10900 (1957) 103 (1936) 1400 193 239 402 444 846 1580 1850 3020 4980
2020-05-27 08:30 12.65 13400 10900 (1957) 103 (1936) 1400 193 239 402 444 846 1580 1850 3020 4980
2020-05-27 07:30 12.58 13200 10900 (1957) 103 (1936) 1400 193 239 402 444 846 1580 1850 3020 4980
2020-05-27 06:30 12.47 12900 10900 (1957) 103 (1936) 1400 193 239 402 444 846 1580 1850 3020 4980
2020-05-27 05:30 12.35 12500 10900 (1957) 103 (1936) 1400 193 239 402 444 846 1580 1850 3020 4980
2020-05-27 04:30 12.25 12200 10900 (1957) 103 (1936) 1400 193 239 402 444 846 1580 1850 3020 4980
2020-05-27 03:30 12.10 11800 10900 (1957) 103 (1936) 1400 193 239 402 444 846 1580 1850 3020 4980
2020-05-27 02:30 11.92 11400 10900 (1957) 103 (1936) 1400 193 239 402 444 846 1580 1850 3020 4980
2020-05-27 01:30 11.75 10900 10900 (1957) 103 (1936) 1400 193 239 402 444 846 1580 1850 3020 4980
2020-05-27 00:30 11.58 10500 10900 (1957) 103 (1936) 1400 193 239 402 444 846 1580 1850 3020 4980
2020-05-26 23:30 11.44 10100 31200 (1957) 95 (1936) 1990 209 229 400 455 886 1500 1790 3080 13300
2020-05-26 22:30 11.30 9770 31200 (1957) 95 (1936) 1990 209 229 400 455 886 1500 1790 3080 13300
2020-05-26 21:30 11.14 9380 31200 (1957) 95 (1936) 1990 209 229 400 455 886 1500 1790 3080 13300
2020-05-26 20:30 11.05 9170 31200 (1957) 95 (1936) 1990 209 229 400 455 886 1500 1790 3080 13300
2020-05-26 19:30 10.92 8860 31200 (1957) 95 (1936) 1990 209 229 400 455 886 1500 1790 3080 13300
2020-05-26 18:30 10.86 8720 31200 (1957) 95 (1936) 1990 209 229 400 455 886 1500 1790 3080 13300
2020-05-26 17:30 10.76 8490 31200 (1957) 95 (1936) 1990 209 229 400 455 886 1500 1790 3080 13300
2020-05-26 15:30 10.55 8020 31200 (1957) 95 (1936) 1990 209 229 400 455 886 1500 1790 3080 13300
2020-05-26 14:30 10.34 7560 31200 (1957) 95 (1936) 1990 209 229 400 455 886 1500 1790 3080 13300
2020-05-26 13:30 10.13 7110 31200 (1957) 95 (1936) 1990 209 229 400 455 886 1500 1790 3080 13300
2020-05-26 12:30 9.90 6640 31200 (1957) 95 (1936) 1990 209 229 400 455 886 1500 1790 3080 13300
2020-05-26 11:30 9.61 6070 31200 (1957) 95 (1936) 1990 209 229 400 455 886 1500 1790 3080 13300
2020-05-26 10:30 9.28 5560 31200 (1957) 95 (1936) 1990 209 229 400 455 886 1500 1790 3080 13300
2020-05-26 09:30 8.97 5150 31200 (1957) 95 (1936) 1990 209 229 400 455 886 1500 1790 3080 13300
2020-05-26 08:30 8.59 4640 31200 (1957) 95 (1936) 1990 209 229 400 455 886 1500 1790 3080 13300
2020-05-26 07:30 8.26 4190 31200 (1957) 95 (1936) 1990 209 229 400 455 886 1500 1790 3080 13300
2020-05-26 06:30 7.94 3780 31200 (1957) 95 (1936) 1990 209 229 400 455 886 1500 1790 3080 13300
2020-05-26 05:30 7.67 3440 31200 (1957) 95 (1936) 1990 209 229 400 455 886 1500 1790 3080 13300
2020-05-26 04:30 7.46 3150 31200 (1957) 95 (1936) 1990 209 229 400 455 886 1500 1790 3080 13300
2020-05-26 03:30 7.30 2880 31200 (1957) 95 (1936) 1990 209 229 400 455 886 1500 1790 3080 13300
2020-05-26 02:30 7.14 2630 31200 (1957) 95 (1936) 1990 209 229 400 455 886 1500 1790 3080 13300
2020-05-26 01:30 7.03 2460 31200 (1957) 95 (1936) 1990 209 229 400 455 886 1500 1790 3080 13300
2020-05-26 00:30 6.93 2310 31200 (1957) 95 (1936) 1990 209 229 400 455 886 1500 1790 3080 13300
2020-05-25 23:30 6.87 2220 38200 (2011) 100 (1936) 2010 205 244 424 475 783 1390 1560 2970 6560
2020-05-25 22:30 6.82 2150 38200 (2011) 100 (1936) 2010 205 244 424 475 783 1390 1560 2970 6560
2020-05-25 21:30 6.74 2040 38200 (2011) 100 (1936) 2010 205 244 424 475 783 1390 1560 2970 6560
2020-05-25 20:30 6.73 2030 38200 (2011) 100 (1936) 2010 205 244 424 475 783 1390 1560 2970 6560
2020-05-25 19:30 6.70 2000 38200 (2011) 100 (1936) 2010 205 244 424 475 783 1390 1560 2970 6560
2020-05-25 18:30 6.65 1940 38200 (2011) 100 (1936) 2010 205 244 424 475 783 1390 1560 2970 6560
2020-05-25 17:30 6.65 1940 38200 (2011) 100 (1936) 2010 205 244 424 475 783 1390 1560 2970 6560
2020-05-25 16:30 6.66 1950 38200 (2011) 100 (1936) 2010 205 244 424 475 783 1390 1560 2970 6560
2020-05-25 15:30 6.63 1910 38200 (2011) 100 (1936) 2010 205 244 424 475 783 1390 1560 2970 6560
2020-05-25 14:30 6.65 1940 38200 (2011) 100 (1936) 2010 205 244 424 475 783 1390 1560 2970 6560
2020-05-25 13:30 6.66 1950 38200 (2011) 100 (1936) 2010 205 244 424 475 783 1390 1560 2970 6560
2020-05-25 12:30 6.66 1950 38200 (2011) 100 (1936) 2010 205 244 424 475 783 1390 1560 2970 6560
2020-05-25 11:30 6.69 1980 38200 (2011) 100 (1936) 2010 205 244 424 475 783 1390 1560 2970 6560
2020-05-25 10:30 6.69 1980 38200 (2011) 100 (1936) 2010 205 244 424 475 783 1390 1560 2970 6560
2020-05-25 09:30 6.73 2030 38200 (2011) 100 (1936) 2010 205 244 424 475 783 1390 1560 2970 6560
2020-05-25 08:30 6.76 2070 38200 (2011) 100 (1936) 2010 205 244 424 475 783 1390 1560 2970 6560
2020-05-25 07:30 6.74 2040 38200 (2011) 100 (1936) 2010 205 244 424 475 783 1390 1560 2970 6560
2020-05-25 06:30 6.77 2080 38200 (2011) 100 (1936) 2010 205 244 424 475 783 1390 1560 2970 6560
2020-05-25 05:30 6.76 2070 38200 (2011) 100 (1936) 2010 205 244 424 475 783 1390 1560 2970 6560
2020-05-25 04:30 6.78 2090 38200 (2011) 100 (1936) 2010 205 244 424 475 783 1390 1560 2970 6560
2020-05-25 03:30 6.81 2130 38200 (2011) 100 (1936) 2010 205 244 424 475 783 1390 1560 2970 6560
2020-05-25 02:30 6.82 2150 38200 (2011) 100 (1936) 2010 205 244 424 475 783 1390 1560 2970 6560
2020-05-25 01:30 6.84 2180 38200 (2011) 100 (1936) 2010 205 244 424 475 783 1390 1560 2970 6560
2020-05-25 00:30 6.86 2210 38200 (2011) 100 (1936) 2010 205 244 424 475 783 1390 1560 2970 6560
2020-05-24 23:30 6.88 2240 23900 (1957) 103 (1936) 1750 213 254 415 482 795 1440 1810 3740 7330
2020-05-24 22:30 6.90 2270 23900 (1957) 103 (1936) 1750 213 254 415 482 795 1440 1810 3740 7330
2020-05-24 21:30 6.92 2290 23900 (1957) 103 (1936) 1750 213 254 415 482 795 1440 1810 3740 7330
2020-05-24 20:30 6.93 2310 23900 (1957) 103 (1936) 1750 213 254 415 482 795 1440 1810 3740 7330
2020-05-24 19:30 6.97 2370 23900 (1957) 103 (1936) 1750 213 254 415 482 795 1440 1810 3740 7330
2020-05-24 18:30 6.96 2350 23900 (1957) 103 (1936) 1750 213 254 415 482 795 1440 1810 3740 7330
2020-05-24 17:30 7.00 2410 23900 (1957) 103 (1936) 1750 213 254 415 482 795 1440 1810 3740 7330
2020-05-24 16:30 7.03 2460 23900 (1957) 103 (1936) 1750 213 254 415 482 795 1440 1810 3740 7330
2020-05-24 15:30 7.06 2500 23900 (1957) 103 (1936) 1750 213 254 415 482 795 1440 1810 3740 7330
2020-05-24 14:30 7.08 2530 23900 (1957) 103 (1936) 1750 213 254 415 482 795 1440 1810 3740 7330
2020-05-24 13:30 7.11 2580 23900 (1957) 103 (1936) 1750 213 254 415 482 795 1440 1810 3740 7330
2020-05-24 12:30 7.13 2610 23900 (1957) 103 (1936) 1750 213 254 415 482 795 1440 1810 3740 7330
2020-05-24 11:30 7.18 2690 23900 (1957) 103 (1936) 1750 213 254 415 482 795 1440 1810 3740 7330
2020-05-24 10:30 7.21 2740 23900 (1957) 103 (1936) 1750 213 254 415 482 795 1440 1810 3740 7330
2020-05-24 09:30 7.24 2790 23900 (1957) 103 (1936) 1750 213 254 415 482 795 1440 1810 3740 7330
2020-05-24 08:30 7.29 2870 23900 (1957) 103 (1936) 1750 213 254 415 482 795 1440 1810 3740 7330
2020-05-24 07:30 7.34 2950 23900 (1957) 103 (1936) 1750 213 254 415 482 795 1440 1810 3740 7330
2020-05-24 06:30 7.40 3050 23900 (1957) 103 (1936) 1750 213 254 415 482 795 1440 1810 3740 7330
2020-05-24 05:30 7.43 3100 23900 (1957) 103 (1936) 1750 213 254 415 482 795 1440 1810 3740 7330
2020-05-24 03:30 7.55 3280 23900 (1957) 103 (1936) 1750 213 254 415 482 795 1440 1810 3740 7330
2020-05-24 02:30 7.62 3370 23900 (1957) 103 (1936) 1750 213 254 415 482 795 1440 1810 3740 7330
2020-05-24 01:30 7.68 3450 23900 (1957) 103 (1936) 1750 213 254 415 482 795 1440 1810 3740 7330
2020-05-24 00:30 7.75 3540 23900 (1957) 103 (1936) 1750 213 254 415 482 795 1440 1810 3740 7330
2020-05-23 23:30 7.81 3620 10700 (1957) 117 (1936) 1310 217 270 423 463 743 1530 1880 3110 4230
2020-05-23 22:30 7.89 3720 10700 (1957) 117 (1936) 1310 217 270 423 463 743 1530 1880 3110 4230
2020-05-23 21:30 7.92 3750 10700 (1957) 117 (1936) 1310 217 270 423 463 743 1530 1880 3110 4230
2020-05-23 20:30 7.97 3820 10700 (1957) 117 (1936) 1310 217 270 423 463 743 1530 1880 3110 4230
2020-05-23 19:30 7.98 3830 10700 (1957) 117 (1936) 1310 217 270 423 463 743 1530 1880 3110 4230
2020-05-23 18:30 7.97 3820 10700 (1957) 117 (1936) 1310 217 270 423 463 743 1530 1880 3110 4230
2020-05-23 17:30 7.89 3720 10700 (1957) 117 (1936) 1310 217 270 423 463 743 1530 1880 3110 4230
2020-05-23 16:30 7.74 3530 10700 (1957) 117 (1936) 1310 217 270 423 463 743 1530 1880 3110 4230
2020-05-23 15:30 7.52 3250 10700 (1957) 117 (1936) 1310 217 270 423 463 743 1530 1880 3110 4230
2020-05-23 14:30 7.32 2920 10700 (1957) 117 (1936) 1310 217 270 423 463 743 1530 1880 3110 4230
2020-05-23 13:30 7.11 2580 10700 (1957) 117 (1936) 1310 217 270 423 463 743 1530 1880 3110 4230
2020-05-23 12:30 6.99 2400 10700 (1957) 117 (1936) 1310 217 270 423 463 743 1530 1880 3110 4230
2020-05-23 11:30 6.93 2310 10700 (1957) 117 (1936) 1310 217 270 423 463 743 1530 1880 3110 4230
2020-05-23 10:30 6.90 2270 10700 (1957) 117 (1936) 1310 217 270 423 463 743 1530 1880 3110 4230
2020-05-23 09:30 6.89 2250 10700 (1957) 117 (1936) 1310 217 270 423 463 743 1530 1880 3110 4230
2020-05-23 08:30 6.87 2220 10700 (1957) 117 (1936) 1310 217 270 423 463 743 1530 1880 3110 4230
2020-05-23 07:30 6.85 2190 10700 (1957) 117 (1936) 1310 217 270 423 463 743 1530 1880 3110 4230
2020-05-23 06:30 6.82 2150 10700 (1957) 117 (1936) 1310 217 270 423 463 743 1530 1880 3110 4230
2020-05-23 05:30 6.79 2110 10700 (1957) 117 (1936) 1310 217 270 423 463 743 1530 1880 3110 4230
2020-05-23 04:30 6.74 2040 10700 (1957) 117 (1936) 1310 217 270 423 463 743 1530 1880 3110 4230
2020-05-23 03:30 6.66 1950 10700 (1957) 117 (1936) 1310 217 270 423 463 743 1530 1880 3110 4230
2020-05-23 02:30 6.65 1940 10700 (1957) 117 (1936) 1310 217 270 423 463 743 1530 1880 3110 4230
2020-05-23 01:30 6.63 1910 10700 (1957) 117 (1936) 1310 217 270 423 463 743 1530 1880 3110 4230
2020-05-23 00:30 6.59 1870 10700 (1957) 117 (1936) 1310 217 270 423 463 743 1530 1880 3110 4230
2020-05-22 23:30 6.57 1850 7660 (1960) 141 (1936) 1440 220 287 428 480 775 1480 1710 3980 5600
2020-05-22 22:30 6.58 1860 7660 (1960) 141 (1936) 1440 220 287 428 480 775 1480 1710 3980 5600
2020-05-22 21:30 6.55 1820 7660 (1960) 141 (1936) 1440 220 287 428 480 775 1480 1710 3980 5600
2020-05-22 20:30 6.53 1800 7660 (1960) 141 (1936) 1440 220 287 428 480 775 1480 1710 3980 5600
2020-05-22 19:30 6.54 1810 7660 (1960) 141 (1936) 1440 220 287 428 480 775 1480 1710 3980 5600
2020-05-22 18:30 6.54 1810 7660 (1960) 141 (1936) 1440 220 287 428 480 775 1480 1710 3980 5600
2020-05-22 17:30 6.54 1810 7660 (1960) 141 (1936) 1440 220 287 428 480 775 1480 1710 3980 5600
2020-05-22 16:30 6.58 1860 7660 (1960) 141 (1936) 1440 220 287 428 480 775 1480 1710 3980 5600
2020-05-22 15:30 6.58 1860 7660 (1960) 141 (1936) 1440 220 287 428 480 775 1480 1710 3980 5600
2020-05-22 14:30 6.57 1850 7660 (1960) 141 (1936) 1440 220 287 428 480 775 1480 1710 3980 5600
2020-05-22 13:30 6.59 1870 7660 (1960) 141 (1936) 1440 220 287 428 480 775 1480 1710 3980 5600
2020-05-22 12:30 6.58 1860 7660 (1960) 141 (1936) 1440 220 287 428 480 775 1480 1710 3980 5600
2020-05-22 11:30 6.58 1860 7660 (1960) 141 (1936) 1440 220 287 428 480 775 1480 1710 3980 5600
2020-05-22 10:30 6.58 1860 7660 (1960) 141 (1936) 1440 220 287 428 480 775 1480 1710 3980 5600
2020-05-22 09:30 6.59 1870 7660 (1960) 141 (1936) 1440 220 287 428 480 775 1480 1710 3980 5600
2020-05-22 08:30 6.55 1820 7660 (1960) 141 (1936) 1440 220 287 428 480 775 1480 1710 3980 5600
2020-05-22 07:30 6.56 1830 7660 (1960) 141 (1936) 1440 220 287 428 480 775 1480 1710 3980 5600
2020-05-22 06:30 6.55 1820 7660 (1960) 141 (1936) 1440 220 287 428 480 775 1480 1710 3980 5600
2020-05-22 05:30 6.58 1860 7660 (1960) 141 (1936) 1440 220 287 428 480 775 1480 1710 3980 5600
2020-05-22 04:30 6.60 1880 7660 (1960) 141 (1936) 1440 220 287 428 480 775 1480 1710 3980 5600
2020-05-22 03:30 6.59 1870 7660 (1960) 141 (1936) 1440 220 287 428 480 775 1480 1710 3980 5600
2020-05-22 02:30 6.61 1890 7660 (1960) 141 (1936) 1440 220 287 428 480 775 1480 1710 3980 5600
2020-05-22 01:30 6.62 1900 7660 (1960) 141 (1936) 1440 220 287 428 480 775 1480 1710 3980 5600
2020-05-22 00:30 6.62 1900 7660 (1960) 141 (1936) 1440 220 287 428 480 775 1480 1710 3980 5600
2020-05-21 23:30 6.63 1910 15000 (2017) 175 (1963) 1750 247 295 420 476 831 1640 1830 4250 9710
2020-05-21 22:30 6.64 1930 15000 (2017) 175 (1963) 1750 247 295 420 476 831 1640 1830 4250 9710
2020-05-21 21:30 6.61 1890 15000 (2017) 175 (1963) 1750 247 295 420 476 831 1640 1830 4250 9710
2020-05-21 20:30 6.65 1940 15000 (2017) 175 (1963) 1750 247 295 420 476 831 1640 1830 4250 9710
2020-05-21 19:30 6.67 1960 15000 (2017) 175 (1963) 1750 247 295 420 476 831 1640 1830 4250 9710
2020-05-21 18:30 6.66 1950 15000 (2017) 175 (1963) 1750 247 295 420 476 831 1640 1830 4250 9710
2020-05-21 17:30 6.67 1960 15000 (2017) 175 (1963) 1750 247 295 420 476 831 1640 1830 4250 9710
2020-05-21 16:30 6.67 1960 15000 (2017) 175 (1963) 1750 247 295 420 476 831 1640 1830 4250 9710
2020-05-21 15:30 6.70 2000 15000 (2017) 175 (1963) 1750 247 295 420 476 831 1640 1830 4250 9710
2020-05-21 14:30 6.70 2000 15000 (2017) 175 (1963) 1750 247 295 420 476 831 1640 1830 4250 9710
2020-05-21 13:30 6.73 2030 15000 (2017) 175 (1963) 1750 247 295 420 476 831 1640 1830 4250 9710
2020-05-21 12:30 6.73 2030 15000 (2017) 175 (1963) 1750 247 295 420 476 831 1640 1830 4250 9710
2020-05-21 11:30 6.75 2060 15000 (2017) 175 (1963) 1750 247 295 420 476 831 1640 1830 4250 9710
2020-05-21 10:30 6.76 2070 15000 (2017) 175 (1963) 1750 247 295 420 476 831 1640 1830 4250 9710
2020-05-21 09:30 6.74 2040 15000 (2017) 175 (1963) 1750 247 295 420 476 831 1640 1830 4250 9710
2020-05-21 08:30 6.76 2070 15000 (2017) 175 (1963) 1750 247 295 420 476 831 1640 1830 4250 9710
2020-05-21 07:30 6.79 2110 15000 (2017) 175 (1963) 1750 247 295 420 476 831 1640 1830 4250 9710
2020-05-21 06:30 6.81 2130 15000 (2017) 175 (1963) 1750 247 295 420 476 831 1640 1830 4250 9710
2020-05-21 05:30 6.82 2150 15000 (2017) 175 (1963) 1750 247 295 420 476 831 1640 1830 4250 9710
2020-05-21 04:30 6.80 2120 15000 (2017) 175 (1963) 1750 247 295 420 476 831 1640 1830 4250 9710
2020-05-21 03:30 6.84 2180 15000 (2017) 175 (1963) 1750 247 295 420 476 831 1640 1830 4250 9710
2020-05-21 02:30 6.86 2210 15000 (2017) 175 (1963) 1750 247 295 420 476 831 1640 1830 4250 9710
2020-05-21 01:30 6.85 2190 15000 (2017) 175 (1963) 1750 247 295 420 476 831 1640 1830 4250 9710
2020-05-21 00:30 6.87 2220 15000 (2017) 175 (1963) 1750 247 295 420 476 831 1640 1830 4250 9710
2020-05-20 23:30 6.87 2220 13800 (1949) 182 (1963) 1680 252 313 425 494 875 1780 1950 3320 6970
2020-05-20 22:30 6.89 2250 13800 (1949) 182 (1963) 1680 252 313 425 494 875 1780 1950 3320 6970
2020-05-20 21:30 6.89 2250 13800 (1949) 182 (1963) 1680 252 313 425 494 875 1780 1950 3320 6970
2020-05-20 20:30 6.89 2250 13800 (1949) 182 (1963) 1680 252 313 425 494 875 1780 1950 3320 6970
2020-05-20 19:30 6.93 2310 13800 (1949) 182 (1963) 1680 252 313 425 494 875 1780 1950 3320 6970
2020-05-20 18:30 6.95 2340 13800 (1949) 182 (1963) 1680 252 313 425 494 875 1780 1950 3320 6970
2020-05-20 17:30 6.97 2370 13800 (1949) 182 (1963) 1680 252 313 425 494 875 1780 1950 3320 6970
2020-05-20 16:30 6.97 2370 13800 (1949) 182 (1963) 1680 252 313 425 494 875 1780 1950 3320 6970
2020-05-20 15:30 6.99 2400 13800 (1949) 182 (1963) 1680 252 313 425 494 875 1780 1950 3320 6970
2020-05-20 14:30 7.00 2410 13800 (1949) 182 (1963) 1680 252 313 425 494 875 1780 1950 3320 6970
2020-05-20 13:30 7.01 2430 13800 (1949) 182 (1963) 1680 252 313 425 494 875 1780 1950 3320 6970
2020-05-20 12:30 7.02 2440 13800 (1949) 182 (1963) 1680 252 313 425 494 875 1780 1950 3320 6970
2020-05-20 11:30 7.04 2470 13800 (1949) 182 (1963) 1680 252 313 425 494 875 1780 1950 3320 6970
2020-05-20 10:30 7.07 2520 13800 (1949) 182 (1963) 1680 252 313 425 494 875 1780 1950 3320 6970
2020-05-20 09:30 7.07 2520 13800 (1949) 182 (1963) 1680 252 313 425 494 875 1780 1950 3320 6970
2020-05-20 08:30 7.10 2560 13800 (1949) 182 (1963) 1680 252 313 425 494 875 1780 1950 3320 6970
2020-05-20 07:30 7.12 2600 13800 (1949) 182 (1963) 1680 252 313 425 494 875 1780 1950 3320 6970
2020-05-20 06:30 7.14 2630 13800 (1949) 182 (1963) 1680 252 313 425 494 875 1780 1950 3320 6970
2020-05-20 05:30 7.18 2690 13800 (1949) 182 (1963) 1680 252 313 425 494 875 1780 1950 3320 6970
2020-05-20 04:30 7.19 2710 13800 (1949) 182 (1963) 1680 252 313 425 494 875 1780 1950 3320 6970
2020-05-20 03:30 7.19 2710 13800 (1949) 182 (1963) 1680 252 313 425 494 875 1780 1950 3320 6970
2020-05-20 02:30 7.20 2720 13800 (1949) 182 (1963) 1680 252 313 425 494 875 1780 1950 3320 6970
2020-05-20 01:30 7.22 2750 13800 (1949) 182 (1963) 1680 252 313 425 494 875 1780 1950 3320 6970
2020-05-20 00:30 7.24 2790 13800 (1949) 182 (1963) 1680 252 313 425 494 875 1780 1950 3320 6970
2020-05-19 23:30 7.26 2820 18000 (1957) 186 (1963) 1480 267 325 455 490 887 1750 1980 3200 3800
2020-05-19 22:30 7.27 2830 18000 (1957) 186 (1963) 1480 267 325 455 490 887 1750 1980 3200 3800
2020-05-19 21:30 7.29 2870 18000 (1957) 186 (1963) 1480 267 325 455 490 887 1750 1980 3200 3800
2020-05-19 20:30 7.32 2920 18000 (1957) 186 (1963) 1480 267 325 455 490 887 1750 1980 3200 3800
2020-05-19 19:30 7.32 2920 18000 (1957) 186 (1963) 1480 267 325 455 490 887 1750 1980 3200 3800
2020-05-19 18:30 7.35 2970 18000 (1957) 186 (1963) 1480 267 325 455 490 887 1750 1980 3200 3800
2020-05-19 17:30 7.37 3000 18000 (1957) 186 (1963) 1480 267 325 455 490 887 1750 1980 3200 3800
2020-05-19 16:30 7.39 3030 18000 (1957) 186 (1963) 1480 267 325 455 490 887 1750 1980 3200 3800
2020-05-19 15:30 7.42 3080 18000 (1957) 186 (1963) 1480 267 325 455 490 887 1750 1980 3200 3800
2020-05-19 14:30 7.43 3100 18000 (1957) 186 (1963) 1480 267 325 455 490 887 1750 1980 3200 3800
2020-05-19 13:30 7.46 3150 18000 (1957) 186 (1963) 1480 267 325 455 490 887 1750 1980 3200 3800
2020-05-19 12:30 7.52 3250 18000 (1957) 186 (1963) 1480 267 325 455 490 887 1750 1980 3200 3800
2020-05-19 11:30 7.51 3230 18000 (1957) 186 (1963) 1480 267 325 455 490 887 1750 1980 3200 3800
2020-05-19 10:30 7.57 3310 18000 (1957) 186 (1963) 1480 267 325 455 490 887 1750 1980 3200 3800
2020-05-19 09:30 7.60 3350 18000 (1957) 186 (1963) 1480 267 325 455 490 887 1750 1980 3200 3800
2020-05-19 08:30 7.64 3400 18000 (1957) 186 (1963) 1480 267 325 455 490 887 1750 1980 3200 3800
2020-05-19 07:30 7.66 3420 18000 (1957) 186 (1963) 1480 267 325 455 490 887 1750 1980 3200 3800
2020-05-19 06:30 7.70 3480 18000 (1957) 186 (1963) 1480 267 325 455 490 887 1750 1980 3200 3800
2020-05-19 05:30 7.74 3530 18000 (1957) 186 (1963) 1480 267 325 455 490 887 1750 1980 3200 3800
2020-05-19 04:30 7.78 3580 18000 (1957) 186 (1963) 1480 267 325 455 490 887 1750 1980 3200 3800
2020-05-19 03:30 7.82 3630 18000 (1957) 186 (1963) 1480 267 325 455 490 887 1750 1980 3200 3800
2020-05-19 02:30 7.87 3690 18000 (1957) 186 (1963) 1480 267 325 455 490 887 1750 1980 3200 3800
2020-05-19 01:30 7.91 3740 18000 (1957) 186 (1963) 1480 267 325 455 490 887 1750 1980 3200 3800
2020-05-19 00:30 7.97 3820 18000 (1957) 186 (1963) 1480 267 325 455 490 887 1750 1980 3200 3800
2020-05-18 23:30 8.01 3870 14600 (1957) 196 (1963) 1500 258 333 478 535 899 1510 2060 3220 4540
2020-05-18 22:30 8.04 3910 14600 (1957) 196 (1963) 1500 258 333 478 535 899 1510 2060 3220 4540
2020-05-18 21:30 8.12 4010 14600 (1957) 196 (1963) 1500 258 333 478 535 899 1510 2060 3220 4540
2020-05-18 20:30 8.20 4110 14600 (1957) 196 (1963) 1500 258 333 478 535 899 1510 2060 3220 4540
2020-05-18 19:30 8.24 4170 14600 (1957) 196 (1963) 1500 258 333 478 535 899 1510 2060 3220 4540
2020-05-18 18:30 8.28 4220 14600 (1957) 196 (1963) 1500 258 333 478 535 899 1510 2060 3220 4540
2020-05-18 17:30 8.35 4320 14600 (1957) 196 (1963) 1500 258 333 478 535 899 1510 2060 3220 4540
2020-05-18 16:30 8.43 4420 14600 (1957) 196 (1963) 1500 258 333 478 535 899 1510 2060 3220 4540
2020-05-18 15:30 8.47 4480 14600 (1957) 196 (1963) 1500 258 333 478 535 899 1510 2060 3220 4540
2020-05-18 14:30 8.51 4530 14600 (1957) 196 (1963) 1500 258 333 478 535 899 1510 2060 3220 4540
2020-05-18 13:30 8.57 4610 14600 (1957) 196 (1963) 1500 258 333 478 535 899 1510 2060 3220 4540
2020-05-18 12:30 8.59 4640 14600 (1957) 196 (1963) 1500 258 333 478 535 899 1510 2060 3220 4540
2020-05-18 11:30 8.60 4650 14600 (1957) 196 (1963) 1500 258 333 478 535 899 1510 2060 3220 4540
2020-05-18 10:30 8.65 4720 14600 (1957) 196 (1963) 1500 258 333 478 535 899 1510 2060 3220 4540
2020-05-18 09:30 8.59 4640 14600 (1957) 196 (1963) 1500 258 333 478 535 899 1510 2060 3220 4540
2020-05-18 08:30 8.57 4610 14600 (1957) 196 (1963) 1500 258 333 478 535 899 1510 2060 3220 4540
2020-05-18 07:30 8.49 4500 14600 (1957) 196 (1963) 1500 258 333 478 535 899 1510 2060 3220 4540
2020-05-18 06:30 8.50 4520 14600 (1957) 196 (1963) 1500 258 333 478 535 899 1510 2060 3220 4540
2020-05-18 05:30 8.43 4420 14600 (1957) 196 (1963) 1500 258 333 478 535 899 1510 2060 3220 4540
2020-05-18 04:30 8.46 4460 14600 (1957) 196 (1963) 1500 258 333 478 535 899 1510 2060 3220 4540
2020-05-18 03:30 8.47 4480 14600 (1957) 196 (1963) 1500 258 333 478 535 899 1510 2060 3220 4540
2020-05-18 02:30 8.52 4540 14600 (1957) 196 (1963) 1500 258 333 478 535 899 1510 2060 3220 4540
2020-05-18 01:30 8.55 4580 14600 (1957) 196 (1963) 1500 258 333 478 535 899 1510 2060 3220 4540
2020-05-18 00:30 8.60 4650 14600 (1957) 196 (1963) 1500 258 333 478 535 899 1510 2060 3220 4540
2020-05-17 23:30 8.61 4660 11100 (1947) 207 (1977) 1450 260 318 501 549 971 1770 1970 3210 3860
2020-05-17 22:30 8.69 4770 11100 (1947) 207 (1977) 1450 260 318 501 549 971 1770 1970 3210 3860
2020-05-17 21:30 8.77 4880 11100 (1947) 207 (1977) 1450 260 318 501 549 971 1770 1970 3210 3860
2020-05-17 20:30 8.80 4920 11100 (1947) 207 (1977) 1450 260 318 501 549 971 1770 1970 3210 3860
2020-05-17 19:30 8.88 5030 11100 (1947) 207 (1977) 1450 260 318 501 549 971 1770 1970 3210 3860
2020-05-17 18:30 8.96 5130 11100 (1947) 207 (1977) 1450 260 318 501 549 971 1770 1970 3210 3860
2020-05-17 17:30 9.04 5240 11100 (1947) 207 (1977) 1450 260 318 501 549 971 1770 1970 3210 3860
2020-05-17 16:30 9.16 5400 11100 (1947) 207 (1977) 1450 260 318 501 549 971 1770 1970 3210 3860
2020-05-17 15:30 9.28 5560 11100 (1947) 207 (1977) 1450 260 318 501 549 971 1770 1970 3210 3860
2020-05-17 14:30 9.37 5680 11100 (1947) 207 (1977) 1450 260 318 501 549 971 1770 1970 3210 3860
2020-05-17 13:30 9.47 5820 11100 (1947) 207 (1977) 1450 260 318 501 549 971 1770 1970 3210 3860
2020-05-17 12:30 9.55 5950 11100 (1947) 207 (1977) 1450 260 318 501 549 971 1770 1970 3210 3860
2020-05-17 11:30 9.63 6100 11100 (1947) 207 (1977) 1450 260 318 501 549 971 1770 1970 3210 3860
2020-05-17 10:30 9.71 6260 11100 (1947) 207 (1977) 1450 260 318 501 549 971 1770 1970 3210 3860
2020-05-17 09:30 9.76 6360 11100 (1947) 207 (1977) 1450 260 318 501 549 971 1770 1970 3210 3860
2020-05-17 08:30 9.87 6580 11100 (1947) 207 (1977) 1450 260 318 501 549 971 1770 1970 3210 3860
2020-05-17 07:30 9.95 6740 11100 (1947) 207 (1977) 1450 260 318 501 549 971 1770 1970 3210 3860
2020-05-17 06:30 10.07 6990 11100 (1947) 207 (1977) 1450 260 318 501 549 971 1770 1970 3210 3860
2020-05-17 05:30 10.28 7430 11100 (1947) 207 (1977) 1450 260 318 501 549 971 1770 1970 3210 3860
2020-05-17 04:30 10.50 7910 11100 (1947) 207 (1977) 1450 260 318 501 549 971 1770 1970 3210 3860
2020-05-17 03:30 10.75 8470 11100 (1947) 207 (1977) 1450 260 318 501 549 971 1770 1970 3210 3860
2020-05-17 02:30 10.97 8980 11100 (1947) 207 (1977) 1450 260 318 501 549 971 1770 1970 3210 3860
2020-05-17 01:30 11.19 9500 11100 (1947) 207 (1977) 1450 260 318 501 549 971 1770 1970 3210 3860
2020-05-17 00:30 11.30 9770 11100 (1947) 207 (1977) 1450 260 318 501 549 971 1770 1970 3210 3860
2020-05-16 23:30 11.35 9900 5700 (1956) 209 (1977) 1380 280 349 537 592 1020 1680 2000 3000 4190
2020-05-16 22:30 11.30 9770 5700 (1956) 209 (1977) 1380 280 349 537 592 1020 1680 2000 3000 4190
2020-05-16 21:30 11.23 9600 5700 (1956) 209 (1977) 1380 280 349 537 592 1020 1680 2000 3000 4190
2020-05-16 20:30 11.11 9310 5700 (1956) 209 (1977) 1380 280 349 537 592 1020 1680 2000 3000 4190
2020-05-16 19:30 10.94 8910 5700 (1956) 209 (1977) 1380 280 349 537 592 1020 1680 2000 3000 4190
2020-05-16 18:30 10.74 8440 5700 (1956) 209 (1977) 1380 280 349 537 592 1020 1680 2000 3000 4190
2020-05-16 17:30 10.51 7930 5700 (1956) 209 (1977) 1380 280 349 537 592 1020 1680 2000 3000 4190
2020-05-16 16:30 10.29 7450 5700 (1956) 209 (1977) 1380 280 349 537 592 1020 1680 2000 3000 4190
2020-05-16 15:30 10.01 6860 5700 (1956) 209 (1977) 1380 280 349 537 592 1020 1680 2000 3000 4190
2020-05-16 14:30 9.73 6300 5700 (1956) 209 (1977) 1380 280 349 537 592 1020 1680 2000 3000 4190
2020-05-16 13:30 9.43 5760 5700 (1956) 209 (1977) 1380 280 349 537 592 1020 1680 2000 3000 4190
2020-05-16 12:30 9.09 5310 5700 (1956) 209 (1977) 1380 280 349 537 592 1020 1680 2000 3000 4190
2020-05-16 11:30 8.71 4800 5700 (1956) 209 (1977) 1380 280 349 537 592 1020 1680 2000 3000 4190
2020-05-16 10:30 8.32 4270 5700 (1956) 209 (1977) 1380 280 349 537 592 1020 1680 2000 3000 4190
2020-05-16 09:30 7.96 3810 5700 (1956) 209 (1977) 1380 280 349 537 592 1020 1680 2000 3000 4190
2020-05-16 08:30 7.62 3370 5700 (1956) 209 (1977) 1380 280 349 537 592 1020 1680 2000 3000 4190
2020-05-16 07:30 7.37 3000 5700 (1956) 209 (1977) 1380 280 349 537 592 1020 1680 2000 3000 4190
2020-05-16 06:30 7.20 2720 5700 (1956) 209 (1977) 1380 280 349 537 592 1020 1680 2000 3000 4190
2020-05-16 05:30 7.09 2550 5700 (1956) 209 (1977) 1380 280 349 537 592 1020 1680 2000 3000 4190
2020-05-16 04:30 7.03 2460 5700 (1956) 209 (1977) 1380 280 349 537 592 1020 1680 2000 3000 4190
2020-05-16 03:30 7.01 2430 5700 (1956) 209 (1977) 1380 280 349 537 592 1020 1680 2000 3000 4190
2020-05-16 02:30 6.99 2400 5700 (1956) 209 (1977) 1380 280 349 537 592 1020 1680 2000 3000 4190
2020-05-16 01:30 6.95 2340 5700 (1956) 209 (1977) 1380 280 349 537 592 1020 1680 2000 3000 4190
2020-05-15 23:30 6.92 2290 6740 (1950) 209 (1977) 1320 273 360 540 609 1080 1780 1880 2600 3630
2020-05-15 22:30 6.89 2250 6740 (1950) 209 (1977) 1320 273 360 540 609 1080 1780 1880 2600 3630
2020-05-15 21:30 6.87 2220 6740 (1950) 209 (1977) 1320 273 360 540 609 1080 1780 1880 2600 3630
2020-05-15 20:30 6.82 2150 6740 (1950) 209 (1977) 1320 273 360 540 609 1080 1780 1880 2600 3630
2020-05-15 19:30 6.76 2070 6740 (1950) 209 (1977) 1320 273 360 540 609 1080 1780 1880 2600 3630
2020-05-15 18:30 6.69 1980 6740 (1950) 209 (1977) 1320 273 360 540 609 1080 1780 1880 2600 3630
2020-05-15 17:30 6.61 1890 6740 (1950) 209 (1977) 1320 273 360 540 609 1080 1780 1880 2600 3630
2020-05-15 16:30 6.52 1790 6740 (1950) 209 (1977) 1320 273 360 540 609 1080 1780 1880 2600 3630
2020-05-15 15:30 6.44 1700 6740 (1950) 209 (1977) 1320 273 360 540 609 1080 1780 1880 2600 3630
2020-05-15 14:30 6.43 1690 6740 (1950) 209 (1977) 1320 273 360 540 609 1080 1780 1880 2600 3630
2020-05-15 13:30 6.39 1650 6740 (1950) 209 (1977) 1320 273 360 540 609 1080 1780 1880 2600 3630
2020-05-15 12:30 6.30 1560 6740 (1950) 209 (1977) 1320 273 360 540 609 1080 1780 1880 2600 3630
2020-05-15 11:30 6.28 1540 6740 (1950) 209 (1977) 1320 273 360 540 609 1080 1780 1880 2600 3630
2020-05-15 10:30 6.26 1520 6740 (1950) 209 (1977) 1320 273 360 540 609 1080 1780 1880 2600 3630
2020-05-15 09:30 6.28 1540 6740 (1950) 209 (1977) 1320 273 360 540 609 1080 1780 1880 2600 3630
2020-05-15 08:30 6.30 1560 6740 (1950) 209 (1977) 1320 273 360 540 609 1080 1780 1880 2600 3630
2020-05-15 07:30 6.29 1550 6740 (1950) 209 (1977) 1320 273 360 540 609 1080 1780 1880 2600 3630
2020-05-15 06:30 6.30 1560 6740 (1950) 209 (1977) 1320 273 360 540 609 1080 1780 1880 2600 3630
2020-05-15 05:30 6.31 1570 6740 (1950) 209 (1977) 1320 273 360 540 609 1080 1780 1880 2600 3630
2020-05-15 04:30 6.32 1580 6740 (1950) 209 (1977) 1320 273 360 540 609 1080 1780 1880 2600 3630
2020-05-15 03:30 6.33 1590 6740 (1950) 209 (1977) 1320 273 360 540 609 1080 1780 1880 2600 3630
2020-05-15 02:30 6.33 1590 6740 (1950) 209 (1977) 1320 273 360 540 609 1080 1780 1880 2600 3630
2020-05-15 01:30 6.34 1600 6740 (1950) 209 (1977) 1320 273 360 540 609 1080 1780 1880 2600 3630
2020-05-15 00:30 6.36 1620 6740 (1950) 209 (1977) 1320 273 360 540 609 1080 1780 1880 2600 3630
2020-05-14 23:30 6.35 1610 8110 (1950) 211 (1977) 1400 249 323 523 626 1060 1560 2090 2830 3970
2020-05-14 22:30 6.35 1610 8110 (1950) 211 (1977) 1400 249 323 523 626 1060 1560 2090 2830 3970
2020-05-14 21:30 6.36 1620 8110 (1950) 211 (1977) 1400 249 323 523 626 1060 1560 2090 2830 3970
2020-05-14 20:30 6.37 1630 8110 (1950) 211 (1977) 1400 249 323 523 626 1060 1560 2090 2830 3970
2020-05-14 19:30 6.39 1650 8110 (1950) 211 (1977) 1400 249 323 523 626 1060 1560 2090 2830 3970
2020-05-14 18:30 6.38 1640 8110 (1950) 211 (1977) 1400 249 323 523 626 1060 1560 2090 2830 3970
2020-05-14 17:30 6.39 1650 8110 (1950) 211 (1977) 1400 249 323 523 626 1060 1560 2090 2830 3970
2020-05-14 16:30 6.41 1670 8110 (1950) 211 (1977) 1400 249 323 523 626 1060 1560 2090 2830 3970
2020-05-14 15:30 6.39 1650 8110 (1950) 211 (1977) 1400 249 323 523 626 1060 1560 2090 2830 3970
2020-05-14 14:30 6.39 1650 8110 (1950) 211 (1977) 1400 249 323 523 626 1060 1560 2090 2830 3970
2020-05-14 13:30 6.41 1670 8110 (1950) 211 (1977) 1400 249 323 523 626 1060 1560 2090 2830 3970
2020-05-14 12:30 6.40 1660 8110 (1950) 211 (1977) 1400 249 323 523 626 1060 1560 2090 2830 3970
2020-05-14 11:30 6.40 1660 8110 (1950) 211 (1977) 1400 249 323 523 626 1060 1560 2090 2830 3970
2020-05-14 10:30 6.40 1660 8110 (1950) 211 (1977) 1400 249 323 523 626 1060 1560 2090 2830 3970
2020-05-14 09:30 6.42 1680 8110 (1950) 211 (1977) 1400 249 323 523 626 1060 1560 2090 2830 3970
2020-05-14 08:30 6.39 1650 8110 (1950) 211 (1977) 1400 249 323 523 626 1060 1560 2090 2830 3970
2020-05-14 07:30 6.40 1660 8110 (1950) 211 (1977) 1400 249 323 523 626 1060 1560 2090 2830 3970
2020-05-14 06:30 6.42 1680 8110 (1950) 211 (1977) 1400 249 323 523 626 1060 1560 2090 2830 3970
2020-05-14 05:30 6.38 1640 8110 (1950) 211 (1977) 1400 249 323 523 626 1060 1560 2090 2830 3970
2020-05-14 04:30 6.39 1650 8110 (1950) 211 (1977) 1400 249 323 523 626 1060 1560 2090 2830 3970
2020-05-14 03:30 6.36 1620 8110 (1950) 211 (1977) 1400 249 323 523 626 1060 1560 2090 2830 3970
2020-05-14 02:30 6.33 1590 8110 (1950) 211 (1977) 1400 249 323 523 626 1060 1560 2090 2830 3970
2020-05-14 00:30 6.30 1560 8110 (1950) 211 (1977) 1400 249 323 523 626 1060 1560 2090 2830 3970
2020-05-13 23:30 6.28 1540 15400 (1950) 201 (1956) 1600 249 334 546 592 910 1790 2160 3430 4990
2020-05-13 22:30 6.25 1510 15400 (1950) 201 (1956) 1600 249 334 546 592 910 1790 2160 3430 4990
2020-05-13 21:30 6.22 1480 15400 (1950) 201 (1956) 1600 249 334 546 592 910 1790 2160 3430 4990
2020-05-13 20:30 6.22 1480 15400 (1950) 201 (1956) 1600 249 334 546 592 910 1790 2160 3430 4990
2020-05-13 19:30 6.20 1460 15400 (1950) 201 (1956) 1600 249 334 546 592 910 1790 2160 3430 4990
2020-05-13 18:30 6.18 1440 15400 (1950) 201 (1956) 1600 249 334 546 592 910 1790 2160 3430 4990
2020-05-13 17:30 6.20 1460 15400 (1950) 201 (1956) 1600 249 334 546 592 910 1790 2160 3430 4990
2020-05-13 16:30 6.19 1450 15400 (1950) 201 (1956) 1600 249 334 546 592 910 1790 2160 3430 4990
2020-05-13 15:30 6.19 1450 15400 (1950) 201 (1956) 1600 249 334 546 592 910 1790 2160 3430 4990
2020-05-13 14:30 6.18 1440 15400 (1950) 201 (1956) 1600 249 334 546 592 910 1790 2160 3430 4990
2020-05-13 13:30 6.18 1440 15400 (1950) 201 (1956) 1600 249 334 546 592 910 1790 2160 3430 4990
2020-05-13 12:30 6.19 1450 15400 (1950) 201 (1956) 1600 249 334 546 592 910 1790 2160 3430 4990
2020-05-13 11:30 6.17 1430 15400 (1950) 201 (1956) 1600 249 334 546 592 910 1790 2160 3430 4990
2020-05-13 10:30 6.17 1430 15400 (1950) 201 (1956) 1600 249 334 546 592 910 1790 2160 3430 4990
2020-05-13 09:30 6.18 1440 15400 (1950) 201 (1956) 1600 249 334 546 592 910 1790 2160 3430 4990
2020-05-13 08:30 6.18 1440 15400 (1950) 201 (1956) 1600 249 334 546 592 910 1790 2160 3430 4990
2020-05-13 07:30 6.17 1430 15400 (1950) 201 (1956) 1600 249 334 546 592 910 1790 2160 3430 4990
2020-05-13 06:30 6.17 1430 15400 (1950) 201 (1956) 1600 249 334 546 592 910 1790 2160 3430 4990
2020-05-13 05:30 6.17 1430 15400 (1950) 201 (1956) 1600 249 334 546 592 910 1790 2160 3430 4990
2020-05-13 04:30 6.18 1440 15400 (1950) 201 (1956) 1600 249 334 546 592 910 1790 2160 3430 4990
2020-05-13 03:30 6.17 1430 15400 (1950) 201 (1956) 1600 249 334 546 592 910 1790 2160 3430 4990
2020-05-13 02:30 6.18 1440 15400 (1950) 201 (1956) 1600 249 334 546 592 910 1790 2160 3430 4990
2020-05-13 01:30 6.17 1430 15400 (1950) 201 (1956) 1600 249 334 546 592 910 1790 2160 3430 4990
2020-05-13 00:30 6.14 1400 15400 (1950) 201 (1956) 1600 249 334 546 592 910 1790 2160 3430 4990
2020-05-12 23:30 6.15 1410 34000 (1950) 214 (1977) 2110 254 340 493 570 860 1910 2240 3230 7360
2020-05-12 22:30 6.13 1390 34000 (1950) 214 (1977) 2110 254 340 493 570 860 1910 2240 3230 7360
2020-05-12 21:30 6.15 1410 34000 (1950) 214 (1977) 2110 254 340 493 570 860 1910 2240 3230 7360
2020-05-12 20:30 6.18 1440 34000 (1950) 214 (1977) 2110 254 340 493 570 860 1910 2240 3230 7360
2020-05-12 19:30 6.17 1430 34000 (1950) 214 (1977) 2110 254 340 493 570 860 1910 2240 3230 7360
2020-05-12 18:30 6.18 1440 34000 (1950) 214 (1977) 2110 254 340 493 570 860 1910 2240 3230 7360
2020-05-12 17:30 6.19 1450 34000 (1950) 214 (1977) 2110 254 340 493 570 860 1910 2240 3230 7360
2020-05-12 16:30 6.18 1440 34000 (1950) 214 (1977) 2110 254 340 493 570 860 1910 2240 3230 7360
2020-05-12 15:30 6.18 1440 34000 (1950) 214 (1977) 2110 254 340 493 570 860 1910 2240 3230 7360
2020-05-12 14:30 6.18 1440 34000 (1950) 214 (1977) 2110 254 340 493 570 860 1910 2240 3230 7360
2020-05-12 13:30 6.16 1420 34000 (1950) 214 (1977) 2110 254 340 493 570 860 1910 2240 3230 7360
2020-05-12 12:30 6.14 1400 34000 (1950) 214 (1977) 2110 254 340 493 570 860 1910 2240 3230 7360
2020-05-12 11:30 6.15 1410 34000 (1950) 214 (1977) 2110 254 340 493 570 860 1910 2240 3230 7360
2020-05-12 10:30 6.19 1450 34000 (1950) 214 (1977) 2110 254 340 493 570 860 1910 2240 3230 7360
2020-05-12 09:30 6.16 1420 34000 (1950) 214 (1977) 2110 254 340 493 570 860 1910 2240 3230 7360
2020-05-12 08:30 6.18 1440 34000 (1950) 214 (1977) 2110 254 340 493 570 860 1910 2240 3230 7360
2020-05-12 07:30 6.20 1460 34000 (1950) 214 (1977) 2110 254 340 493 570 860 1910 2240 3230 7360
2020-05-12 06:30 6.19 1450 34000 (1950) 214 (1977) 2110 254 340 493 570 860 1910 2240 3230 7360
2020-05-12 05:30 6.18 1440 34000 (1950) 214 (1977) 2110 254 340 493 570 860 1910 2240 3230 7360
2020-05-12 04:30 6.15 1410 34000 (1950) 214 (1977) 2110 254 340 493 570 860 1910 2240 3230 7360
2020-05-12 03:30 6.22 1480 34000 (1950) 214 (1977) 2110 254 340 493 570 860 1910 2240 3230 7360
2020-05-12 02:30 6.21 1470 34000 (1950) 214 (1977) 2110 254 340 493 570 860 1910 2240 3230 7360
2020-05-12 01:30 6.22 1480 34000 (1950) 214 (1977) 2110 254 340 493 570 860 1910 2240 3230 7360
2020-05-12 00:30 6.22 1480 34000 (1950) 214 (1977) 2110 254 340 493 570 860 1910 2240 3230 7360
2020-05-11 23:30 6.23 1490 90400 (1950) 189 (1936) 3420 257 316 424 526 876 1670 2090 3540 14000
2020-05-11 22:30 6.24 1500 90400 (1950) 189 (1936) 3420 257 316 424 526 876 1670 2090 3540 14000
2020-05-11 21:30 6.26 1520 90400 (1950) 189 (1936) 3420 257 316 424 526 876 1670 2090 3540 14000
2020-05-11 20:30 6.23 1490 90400 (1950) 189 (1936) 3420 257 316 424 526 876 1670 2090 3540 14000
2020-05-11 19:30 6.25 1510 90400 (1950) 189 (1936) 3420 257 316 424 526 876 1670 2090 3540 14000
2020-05-11 18:30 6.26 1520 90400 (1950) 189 (1936) 3420 257 316 424 526 876 1670 2090 3540 14000
2020-05-11 17:30 6.28 1540 90400 (1950) 189 (1936) 3420 257 316 424 526 876 1670 2090 3540 14000
2020-05-11 16:30 6.29 1550 90400 (1950) 189 (1936) 3420 257 316 424 526 876 1670 2090 3540 14000
2020-05-11 15:30 6.30 1560 90400 (1950) 189 (1936) 3420 257 316 424 526 876 1670 2090 3540 14000
2020-05-11 14:30 6.30 1560 90400 (1950) 189 (1936) 3420 257 316 424 526 876 1670 2090 3540 14000
2020-05-11 13:30 6.29 1550 90400 (1950) 189 (1936) 3420 257 316 424 526 876 1670 2090 3540 14000
2020-05-11 12:30 6.34 1600 90400 (1950) 189 (1936) 3420 257 316 424 526 876 1670 2090 3540 14000
2020-05-11 11:30 6.34 1600 90400 (1950) 189 (1936) 3420 257 316 424 526 876 1670 2090 3540 14000
2020-05-11 10:30 6.34 1600 90400 (1950) 189 (1936) 3420 257 316 424 526 876 1670 2090 3540 14000
2020-05-11 09:30 6.35 1610 90400 (1950) 189 (1936) 3420 257 316 424 526 876 1670 2090 3540 14000
2020-05-11 08:30 6.36 1620 90400 (1950) 189 (1936) 3420 257 316 424 526 876 1670 2090 3540 14000
2020-05-11 07:30 6.38 1640 90400 (1950) 189 (1936) 3420 257 316 424 526 876 1670 2090 3540 14000
2020-05-11 06:30 6.39 1650 90400 (1950) 189 (1936) 3420 257 316 424 526 876 1670 2090 3540 14000
2020-05-11 05:30 6.39 1650 90400 (1950) 189 (1936) 3420 257 316 424 526 876 1670 2090 3540 14000
2020-05-11 04:30 6.42 1680 90400 (1950) 189 (1936) 3420 257 316 424 526 876 1670 2090 3540 14000
2020-05-11 03:30 6.41 1670 90400 (1950) 189 (1936) 3420 257 316 424 526 876 1670 2090 3540 14000
2020-05-11 02:30 6.43 1690 90400 (1950) 189 (1936) 3420 257 316 424 526 876 1670 2090 3540 14000
2020-05-11 01:30 6.44 1700 90400 (1950) 189 (1936) 3420 257 316 424 526 876 1670 2090 3540 14000
2020-05-11 00:30 6.44 1700 90400 (1950) 189 (1936) 3420 257 316 424 526 876 1670 2090 3540 14000
2020-05-10 23:30 6.46 1720 51700 (1950) 174 (1936) 2650 252 304 416 521 883 1750 1850 3520 11100
2020-05-10 22:30 6.47 1730 51700 (1950) 174 (1936) 2650 252 304 416 521 883 1750 1850 3520 11100
2020-05-10 21:30 6.47 1730 51700 (1950) 174 (1936) 2650 252 304 416 521 883 1750 1850 3520 11100
2020-05-10 20:30 6.50 1770 51700 (1950) 174 (1936) 2650 252 304 416 521 883 1750 1850 3520 11100
2020-05-10 19:30 6.50 1770 51700 (1950) 174 (1936) 2650 252 304 416 521 883 1750 1850 3520 11100
2020-05-10 18:30 6.52 1790 51700 (1950) 174 (1936) 2650 252 304 416 521 883 1750 1850 3520 11100
2020-05-10 17:30 6.55 1820 51700 (1950) 174 (1936) 2650 252 304 416 521 883 1750 1850 3520 11100
2020-05-10 16:30 6.56 1830 51700 (1950) 174 (1936) 2650 252 304 416 521 883 1750 1850 3520 11100
2020-05-10 15:30 6.56 1830 51700 (1950) 174 (1936) 2650 252 304 416 521 883 1750 1850 3520 11100
2020-05-10 14:30 6.60 1880 51700 (1950) 174 (1936) 2650 252 304 416 521 883 1750 1850 3520 11100
2020-05-10 13:30 6.62 1900 51700 (1950) 174 (1936) 2650 252 304 416 521 883 1750 1850 3520 11100
2020-05-10 12:30 6.64 1930 51700 (1950) 174 (1936) 2650 252 304 416 521 883 1750 1850 3520 11100
2020-05-10 11:30 6.65 1940 51700 (1950) 174 (1936) 2650 252 304 416 521 883 1750 1850 3520 11100
2020-05-10 10:30 6.67 1960 51700 (1950) 174 (1936) 2650 252 304 416 521 883 1750 1850 3520 11100
2020-05-10 09:30 6.70 2000 51700 (1950) 174 (1936) 2650 252 304 416 521 883 1750 1850 3520 11100
2020-05-10 08:30 6.72 2020 51700 (1950) 174 (1936) 2650 252 304 416 521 883 1750 1850 3520 11100
2020-05-10 07:30 6.75 2060 51700 (1950) 174 (1936) 2650 252 304 416 521 883 1750 1850 3520 11100
2020-05-10 06:30 6.77 2080 51700 (1950) 174 (1936) 2650 252 304 416 521 883 1750 1850 3520 11100
2020-05-10 05:30 6.80 2120 51700 (1950) 174 (1936) 2650 252 304 416 521 883 1750 1850 3520 11100
2020-05-10 04:30 6.83 2160 51700 (1950) 174 (1936) 2650 252 304 416 521 883 1750 1850 3520 11100
2020-05-10 03:30 6.85 2190 51700 (1950) 174 (1936) 2650 252 304 416 521 883 1750 1850 3520 11100
2020-05-10 02:30 6.87 2220 51700 (1950) 174 (1936) 2650 252 304 416 521 883 1750 1850 3520 11100
2020-05-10 01:30 6.90 2270 51700 (1950) 174 (1936) 2650 252 304 416 521 883 1750 1850 3520 11100
2020-05-10 00:30 6.93 2310 51700 (1950) 174 (1936) 2650 252 304 416 521 883 1750 1850 3520 11100
2020-05-09 23:30 6.98 2380 16700 (1995) 185 (1936) 1620 255 306 399 480 945 1520 2060 2980 6290
2020-05-09 22:30 7.00 2410 16700 (1995) 185 (1936) 1620 255 306 399 480 945 1520 2060 2980 6290
2020-05-09 21:30 7.04 2470 16700 (1995) 185 (1936) 1620 255 306 399 480 945 1520 2060 2980 6290
2020-05-09 20:30 7.06 2500 16700 (1995) 185 (1936) 1620 255 306 399 480 945 1520 2060 2980 6290
2020-05-09 19:30 7.11 2580 16700 (1995) 185 (1936) 1620 255 306 399 480 945 1520 2060 2980 6290
2020-05-09 18:30 7.14 2630 16700 (1995) 185 (1936) 1620 255 306 399 480 945 1520 2060 2980 6290
2020-05-09 17:30 7.16 2660 16700 (1995) 185 (1936) 1620 255 306 399 480 945 1520 2060 2980 6290
2020-05-09 16:30 7.18 2690 16700 (1995) 185 (1936) 1620 255 306 399 480 945 1520 2060 2980 6290
2020-05-09 15:30 7.21 2740 16700 (1995) 185 (1936) 1620 255 306 399 480 945 1520 2060 2980 6290
2020-05-09 14:30 7.19 2710 16700 (1995) 185 (1936) 1620 255 306 399 480 945 1520 2060 2980 6290
2020-05-09 13:30 7.15 2640 16700 (1995) 185 (1936) 1620 255 306 399 480 945 1520 2060 2980 6290
2020-05-09 12:30 7.07 2520 16700 (1995) 185 (1936) 1620 255 306 399 480 945 1520 2060 2980 6290
2020-05-09 11:30 6.98 2380 16700 (1995) 185 (1936) 1620 255 306 399 480 945 1520 2060 2980 6290
2020-05-09 10:30 6.84 2180 16700 (1995) 185 (1936) 1620 255 306 399 480 945 1520 2060 2980 6290
2020-05-09 09:30 6.69 1980 16700 (1995) 185 (1936) 1620 255 306 399 480 945 1520 2060 2980 6290
2020-05-09 08:30 6.59 1870 16700 (1995) 185 (1936) 1620 255 306 399 480 945 1520 2060 2980 6290
2020-05-09 07:30 6.50 1770 16700 (1995) 185 (1936) 1620 255 306 399 480 945 1520 2060 2980 6290
2020-05-09 06:30 6.47 1730 16700 (1995) 185 (1936) 1620 255 306 399 480 945 1520 2060 2980 6290
2020-05-09 05:30 6.42 1680 16700 (1995) 185 (1936) 1620 255 306 399 480 945 1520 2060 2980 6290
2020-05-09 04:30 6.39 1650 16700 (1995) 185 (1936) 1620 255 306 399 480 945 1520 2060 2980 6290
2020-05-09 03:30 6.35 1610 16700 (1995) 185 (1936) 1620 255 306 399 480 945 1520 2060 2980 6290
2020-05-09 02:30 6.33 1590 16700 (1995) 185 (1936) 1620 255 306 399 480 945 1520 2060 2980 6290
2020-05-09 01:30 6.31 1570 16700 (1995) 185 (1936) 1620 255 306 399 480 945 1520 2060 2980 6290
2020-05-09 00:30 6.28 1540 16700 (1995) 185 (1936) 1620 255 306 399 480 945 1520 2060 2980 6290
2020-05-08 23:30 6.25 1510 42000 (1961) 182 (1936) 1840 258 303 385 436 928 1540 1790 3030 5410
2020-05-08 22:30 6.22 1480 42000 (1961) 182 (1936) 1840 258 303 385 436 928 1540 1790 3030 5410
2020-05-08 21:30 6.20 1460 42000 (1961) 182 (1936) 1840 258 303 385 436 928 1540 1790 3030 5410
2020-05-08 20:30 6.19 1450 42000 (1961) 182 (1936) 1840 258 303 385 436 928 1540 1790 3030 5410
2020-05-08 19:30 6.18 1440 42000 (1961) 182 (1936) 1840 258 303 385 436 928 1540 1790 3030 5410
2020-05-08 18:30 6.17 1430 42000 (1961) 182 (1936) 1840 258 303 385 436 928 1540 1790 3030 5410
2020-05-08 17:30 6.15 1410 42000 (1961) 182 (1936) 1840 258 303 385 436 928 1540 1790 3030 5410
2020-05-08 16:30 6.14 1400 42000 (1961) 182 (1936) 1840 258 303 385 436 928 1540 1790 3030 5410
2020-05-08 15:30 6.13 1390 42000 (1961) 182 (1936) 1840 258 303 385 436 928 1540 1790 3030 5410
2020-05-08 14:30 6.14 1400 42000 (1961) 182 (1936) 1840 258 303 385 436 928 1540 1790 3030 5410
2020-05-08 13:30 6.14 1400 42000 (1961) 182 (1936) 1840 258 303 385 436 928 1540 1790 3030 5410
2020-05-08 12:30 6.13 1390 42000 (1961) 182 (1936) 1840 258 303 385 436 928 1540 1790 3030 5410
2020-05-08 11:30 6.13 1390 42000 (1961) 182 (1936) 1840 258 303 385 436 928 1540 1790 3030 5410
2020-05-08 10:30 6.15 1410 42000 (1961) 182 (1936) 1840 258 303 385 436 928 1540 1790 3030 5410
2020-05-08 09:30 6.14 1400 42000 (1961) 182 (1936) 1840 258 303 385 436 928 1540 1790 3030 5410
2020-05-08 08:30 6.14 1400 42000 (1961) 182 (1936) 1840 258 303 385 436 928 1540 1790 3030 5410
2020-05-08 07:30 6.14 1400 42000 (1961) 182 (1936) 1840 258 303 385 436 928 1540 1790 3030 5410
2020-05-08 06:30 6.15 1410 42000 (1961) 182 (1936) 1840 258 303 385 436 928 1540 1790 3030 5410
2020-05-08 05:30 6.17 1430 42000 (1961) 182 (1936) 1840 258 303 385 436 928 1540 1790 3030 5410
2020-05-08 04:30 6.15 1410 42000 (1961) 182 (1936) 1840 258 303 385 436 928 1540 1790 3030 5410
2020-05-08 03:30 6.12 1380 42000 (1961) 182 (1936) 1840 258 303 385 436 928 1540 1790 3030 5410
2020-05-08 02:30 6.04 1310 42000 (1961) 182 (1936) 1840 258 303 385 436 928 1540 1790 3030 5410
2020-05-08 01:30 6.11 1370 42000 (1961) 182 (1936) 1840 258 303 385 436 928 1540 1790 3030 5410
2020-05-08 00:30 6.13 1390 42000 (1961) 182 (1936) 1840 258 303 385 436 928 1540 1790 3030 5410
2020-05-07 23:30 6.13 1390 18600 (1960) 174 (1936) 1630 240 310 406 435 911 1470 1750 3160 4820
2020-05-07 22:30 6.14 1400 18600 (1960) 174 (1936) 1630 240 310 406 435 911 1470 1750 3160 4820
2020-05-07 21:30 6.13 1390 18600 (1960) 174 (1936) 1630 240 310 406 435 911 1470 1750 3160 4820
2020-05-07 20:30 6.14 1400 18600 (1960) 174 (1936) 1630 240 310 406 435 911 1470 1750 3160 4820
2020-05-07 19:30 6.12 1380 18600 (1960) 174 (1936) 1630 240 310 406 435 911 1470 1750 3160 4820
2020-05-07 18:30 6.15 1410 18600 (1960) 174 (1936) 1630 240 310 406 435 911 1470 1750 3160 4820
2020-05-07 17:30 6.16 1420 18600 (1960) 174 (1936) 1630 240 310 406 435 911 1470 1750 3160 4820
2020-05-07 16:30 6.16 1420 18600 (1960) 174 (1936) 1630 240 310 406 435 911 1470 1750 3160 4820
2020-05-07 15:30 6.18 1440 18600 (1960) 174 (1936) 1630 240 310 406 435 911 1470 1750 3160 4820
2020-05-07 14:30 6.19 1450 18600 (1960) 174 (1936) 1630 240 310 406 435 911 1470 1750 3160 4820
2020-05-07 13:30 6.20 1460 18600 (1960) 174 (1936) 1630 240 310 406 435 911 1470 1750 3160 4820
2020-05-07 12:30 6.21 1470 18600 (1960) 174 (1936) 1630 240 310 406 435 911 1470 1750 3160 4820
2020-05-07 11:30 6.23 1490 18600 (1960) 174 (1936) 1630 240 310 406 435 911 1470 1750 3160 4820
2020-05-07 10:30 6.23 1490 18600 (1960) 174 (1936) 1630 240 310 406 435 911 1470 1750 3160 4820
2020-05-07 09:30 6.24 1500 18600 (1960) 174 (1936) 1630 240 310 406 435 911 1470 1750 3160 4820
2020-05-07 08:30 6.24 1500 18600 (1960) 174 (1936) 1630 240 310 406 435 911 1470 1750 3160 4820
2020-05-07 07:30 6.27 1530 18600 (1960) 174 (1936) 1630 240 310 406 435 911 1470 1750 3160 4820
2020-05-07 06:30 6.27 1530 18600 (1960) 174 (1936) 1630 240 310 406 435 911 1470 1750 3160 4820
2020-05-07 05:30 6.30 1560 18600 (1960) 174 (1936) 1630 240 310 406 435 911 1470 1750 3160 4820
2020-05-07 04:30 6.30 1560 18600 (1960) 174 (1936) 1630 240 310 406 435 911 1470 1750 3160 4820
2020-05-07 03:30 6.31 1570 18600 (1960) 174 (1936) 1630 240 310 406 435 911 1470 1750 3160 4820
2020-05-07 02:30 6.31 1570 18600 (1960) 174 (1936) 1630 240 310 406 435 911 1470 1750 3160 4820
2020-05-07 01:30 6.33 1590 18600 (1960) 174 (1936) 1630 240 310 406 435 911 1470 1750 3160 4820
2020-05-07 00:30 6.33 1590 18600 (1960) 174 (1936) 1630 240 310 406 435 911 1470 1750 3160 4820

A total of 2073 rows are displayed for years 1936 through 2018.